<?xml version="1.0" encoding="UTF-8" standalone="no" ?><gpx xmlns="http://www.topografix.com/GPX/1/1" xmlns:gpxx="http://www.garmin.com/xmlschemas/GpxExtensions/v3" xmlns:wptx1="http://www.garmin.com/xmlschemas/WaypointExtension/v1" xmlns:gpxtpx="http://www.garmin.com/xmlschemas/TrackPointExtension/v1" creator="GuideVTT.com" version="1.1" xmlns:xsi="http://www.w3.org/2001/XMLSchema-instance" xsi:schemaLocation="http://www.topografix.com/GPX/1/1 http://www.topografix.com/GPX/1/1/gpx.xsd http://www.garmin.com/xmlschemas/GpxExtensions/v3 http://www8.garmin.com/xmlschemas/GpxExtensionsv3.xsd http://www.garmin.com/xmlschemas/WaypointExtension/v1 http://www8.garmin.com/xmlschemas/WaypointExtensionv1.xsd http://www.garmin.com/xmlschemas/TrackPointExtension/v1 http://www.garmin.com/xmlschemas/TrackPointExtensionv1.xsd">
<metadata><link href="http://www.garmin.com"><text>Garmin International</text></link><time>2013-06-22T15:13:50Z</time></metadata>
<trk><name>vtt_2014-06-24_55c0bf686cc1ce63fa033184.gpx</name><extensions><gpxx:TrackExtension><gpxx:DisplayColor>Cyan</gpxx:DisplayColor></gpxx:TrackExtension></extensions><trkseg>
<trkpt lat="48.878196716309" lon="2.8552968502045"><ele>95</ele><time>2026-4-28T21:28:15Z</time></trkpt>
<trkpt lat="48.878276824951" lon="2.8554003238678"><ele>91</ele><time>2026-4-28T21:28:18Z</time></trkpt>
<trkpt lat="48.878326416016" lon="2.8554627895355"><ele>91</ele><time>2026-4-28T21:28:21Z</time></trkpt>
<trkpt lat="48.878391265869" lon="2.8555510044098"><ele>91</ele><time>2026-4-28T21:28:24Z</time></trkpt>
<trkpt lat="48.878456115723" lon="2.8556246757507"><ele>91</ele><time>2026-4-28T21:28:27Z</time></trkpt>
<trkpt lat="48.878517150879" lon="2.8556985855103"><ele>91</ele><time>2026-4-28T21:28:30Z</time></trkpt>
<trkpt lat="48.878582000732" lon="2.8557803630829"><ele>91</ele><time>2026-4-28T21:28:33Z</time></trkpt>
<trkpt lat="48.878623962402" lon="2.8558464050293"><ele>91</ele><time>2026-4-28T21:28:36Z</time></trkpt>
<trkpt lat="48.878688812256" lon="2.8559641838074"><ele>91</ele><time>2026-4-28T21:28:39Z</time></trkpt>
<trkpt lat="48.878688812256" lon="2.8559641838074"><ele>91</ele><time>2026-4-28T21:28:42Z</time></trkpt>
<trkpt lat="48.878776550293" lon="2.8560409545898"><ele>91</ele><time>2026-4-28T21:28:45Z</time></trkpt>
<trkpt lat="48.878776550293" lon="2.8560409545898"><ele>91</ele><time>2026-4-28T21:28:48Z</time></trkpt>
<trkpt lat="48.878849029541" lon="2.8559651374817"><ele>91</ele><time>2026-4-28T21:28:51Z</time></trkpt>
<trkpt lat="48.878849029541" lon="2.8559651374817"><ele>91</ele><time>2026-4-28T21:28:54Z</time></trkpt>
<trkpt lat="48.878910064697" lon="2.8558490276337"><ele>90</ele><time>2026-4-28T21:28:57Z</time></trkpt>
<trkpt lat="48.878910064697" lon="2.8558490276337"><ele>90</ele><time>2026-4-28T21:29:0Z</time></trkpt>
<trkpt lat="48.878967285156" lon="2.8557319641113"><ele>90</ele><time>2026-4-28T21:29:3Z</time></trkpt>
<trkpt lat="48.879001617432" lon="2.8556637763977"><ele>90</ele><time>2026-4-28T21:29:6Z</time></trkpt>
<trkpt lat="48.87903213501" lon="2.8555841445923"><ele>90</ele><time>2026-4-28T21:29:9Z</time></trkpt>
<trkpt lat="48.879070281982" lon="2.8554997444153"><ele>90</ele><time>2026-4-28T21:29:12Z</time></trkpt>
<trkpt lat="48.879108428955" lon="2.855393409729"><ele>90</ele><time>2026-4-28T21:29:15Z</time></trkpt>
<trkpt lat="48.879165649414" lon="2.8552505970001"><ele>90</ele><time>2026-4-28T21:29:18Z</time></trkpt>
<trkpt lat="48.87922668457" lon="2.8551018238068"><ele>90</ele><time>2026-4-28T21:29:21Z</time></trkpt>
<trkpt lat="48.87926864624" lon="2.8550200462341"><ele>91</ele><time>2026-4-28T21:29:24Z</time></trkpt>
<trkpt lat="48.879314422607" lon="2.8549320697784"><ele>90</ele><time>2026-4-28T21:29:27Z</time></trkpt>
<trkpt lat="48.87935256958" lon="2.8548469543457"><ele>90</ele><time>2026-4-28T21:29:30Z</time></trkpt>
<trkpt lat="48.879421234131" lon="2.8547084331512"><ele>90</ele><time>2026-4-28T21:29:33Z</time></trkpt>
<trkpt lat="48.879463195801" lon="2.854633808136"><ele>90</ele><time>2026-4-28T21:29:36Z</time></trkpt>
<trkpt lat="48.879501342773" lon="2.854546546936"><ele>90</ele><time>2026-4-28T21:29:39Z</time></trkpt>
<trkpt lat="48.879535675049" lon="2.8544805049896"><ele>90</ele><time>2026-4-28T21:29:42Z</time></trkpt>
<trkpt lat="48.879535675049" lon="2.8544805049896"><ele>90</ele><time>2026-4-28T21:29:45Z</time></trkpt>
<trkpt lat="48.879570007324" lon="2.8543436527252"><ele>91</ele><time>2026-4-28T21:29:48Z</time></trkpt>
<trkpt lat="48.879608154297" lon="2.8542666435242"><ele>91</ele><time>2026-4-28T21:29:51Z</time></trkpt>
<trkpt lat="48.879608154297" lon="2.8542666435242"><ele>91</ele><time>2026-4-28T21:29:54Z</time></trkpt>
<trkpt lat="48.879684448242" lon="2.8541283607483"><ele>91</ele><time>2026-4-28T21:29:57Z</time></trkpt>
<trkpt lat="48.879684448242" lon="2.8541283607483"><ele>91</ele><time>2026-4-28T21:30:0Z</time></trkpt>
<trkpt lat="48.879779815674" lon="2.8540875911713"><ele>91</ele><time>2026-4-28T21:30:3Z</time></trkpt>
<trkpt lat="48.879779815674" lon="2.8540875911713"><ele>91</ele><time>2026-4-28T21:30:6Z</time></trkpt>
<trkpt lat="48.879886627197" lon="2.8541910648346"><ele>91</ele><time>2026-4-28T21:30:9Z</time></trkpt>
<trkpt lat="48.879981994629" lon="2.8542816638947"><ele>91</ele><time>2026-4-28T21:30:12Z</time></trkpt>
<trkpt lat="48.880081176758" lon="2.8543682098389"><ele>91</ele><time>2026-4-28T21:30:15Z</time></trkpt>
<trkpt lat="48.880153656006" lon="2.8544583320618"><ele>91</ele><time>2026-4-28T21:30:18Z</time></trkpt>
<trkpt lat="48.880218505859" lon="2.8545517921448"><ele>91</ele><time>2026-4-28T21:30:21Z</time></trkpt>
<trkpt lat="48.880310058594" lon="2.8546402454376"><ele>90</ele><time>2026-4-28T21:30:24Z</time></trkpt>
<trkpt lat="48.880397796631" lon="2.8547163009644"><ele>89</ele><time>2026-4-28T21:30:27Z</time></trkpt>
<trkpt lat="48.880470275879" lon="2.8547985553741"><ele>90</ele><time>2026-4-28T21:30:30Z</time></trkpt>
<trkpt lat="48.880542755127" lon="2.8549194335938"><ele>90</ele><time>2026-4-28T21:30:33Z</time></trkpt>
<trkpt lat="48.880546569824" lon="2.8550679683685"><ele>90</ele><time>2026-4-28T21:30:36Z</time></trkpt>
<trkpt lat="48.880485534668" lon="2.8551745414734"><ele>91</ele><time>2026-4-28T21:30:39Z</time></trkpt>
<trkpt lat="48.880420684814" lon="2.8552832603455"><ele>91</ele><time>2026-4-28T21:30:42Z</time></trkpt>
<trkpt lat="48.880355834961" lon="2.8553750514984"><ele>91</ele><time>2026-4-28T21:30:45Z</time></trkpt>
<trkpt lat="48.880290985107" lon="2.8554720878601"><ele>92</ele><time>2026-4-28T21:30:48Z</time></trkpt>
<trkpt lat="48.880241394043" lon="2.8555433750153"><ele>92</ele><time>2026-4-28T21:30:51Z</time></trkpt>
<trkpt lat="48.880187988281" lon="2.8556234836578"><ele>92</ele><time>2026-4-28T21:30:54Z</time></trkpt>
<trkpt lat="48.880142211914" lon="2.8557097911835"><ele>92</ele><time>2026-4-28T21:30:57Z</time></trkpt>
<trkpt lat="48.880100250244" lon="2.8557896614075"><ele>92</ele><time>2026-4-28T21:31:0Z</time></trkpt>
<trkpt lat="48.880065917969" lon="2.8558716773987"><ele>92</ele><time>2026-4-28T21:31:3Z</time></trkpt>
<trkpt lat="48.88005065918" lon="2.8559691905975"><ele>92</ele><time>2026-4-28T21:31:6Z</time></trkpt>
<trkpt lat="48.88005065918" lon="2.8560724258423"><ele>92</ele><time>2026-4-28T21:31:9Z</time></trkpt>
<trkpt lat="48.880073547363" lon="2.8561723232269"><ele>92</ele><time>2026-4-28T21:31:12Z</time></trkpt>
<trkpt lat="48.880126953125" lon="2.8563175201416"><ele>92</ele><time>2026-4-28T21:31:15Z</time></trkpt>
<trkpt lat="48.880222320557" lon="2.8563885688782"><ele>93</ele><time>2026-4-28T21:31:18Z</time></trkpt>
<trkpt lat="48.88032913208" lon="2.8563597202301"><ele>92</ele><time>2026-4-28T21:31:21Z</time></trkpt>
<trkpt lat="48.880443572998" lon="2.8562831878662"><ele>92</ele><time>2026-4-28T21:31:24Z</time></trkpt>
<trkpt lat="48.880550384521" lon="2.8561842441559"><ele>90</ele><time>2026-4-28T21:31:27Z</time></trkpt>
<trkpt lat="48.880641937256" lon="2.8560903072357"><ele>90</ele><time>2026-4-28T21:31:30Z</time></trkpt>
<trkpt lat="48.880718231201" lon="2.8560001850128"><ele>91</ele><time>2026-4-28T21:31:33Z</time></trkpt>
<trkpt lat="48.880813598633" lon="2.8559138774872"><ele>91</ele><time>2026-4-28T21:31:36Z</time></trkpt>
<trkpt lat="48.880920410156" lon="2.8558399677277"><ele>92</ele><time>2026-4-28T21:31:39Z</time></trkpt>
<trkpt lat="48.881023406982" lon="2.8557708263397"><ele>93</ele><time>2026-4-28T21:31:42Z</time></trkpt>
<trkpt lat="48.881118774414" lon="2.8557195663452"><ele>93</ele><time>2026-4-28T21:31:45Z</time></trkpt>
<trkpt lat="48.881225585938" lon="2.8556623458862"><ele>92</ele><time>2026-4-28T21:31:48Z</time></trkpt>
<trkpt lat="48.881336212158" lon="2.8556098937988"><ele>91</ele><time>2026-4-28T21:31:51Z</time></trkpt>
<trkpt lat="48.881435394287" lon="2.8555693626404"><ele>91</ele><time>2026-4-28T21:31:54Z</time></trkpt>
<trkpt lat="48.881526947021" lon="2.8555207252502"><ele>92</ele><time>2026-4-28T21:31:57Z</time></trkpt>
<trkpt lat="48.881610870361" lon="2.8554556369781"><ele>92</ele><time>2026-4-28T21:32:0Z</time></trkpt>
<trkpt lat="48.881702423096" lon="2.855372428894"><ele>92</ele><time>2026-4-28T21:32:3Z</time></trkpt>
<trkpt lat="48.88179397583" lon="2.8552842140198"><ele>91</ele><time>2026-4-28T21:32:6Z</time></trkpt>
<trkpt lat="48.881900787354" lon="2.8551943302155"><ele>90</ele><time>2026-4-28T21:32:9Z</time></trkpt>
<trkpt lat="48.881996154785" lon="2.8551213741302"><ele>90</ele><time>2026-4-28T21:32:12Z</time></trkpt>
<trkpt lat="48.882080078125" lon="2.8550429344177"><ele>91</ele><time>2026-4-28T21:32:15Z</time></trkpt>
<trkpt lat="48.882171630859" lon="2.8549625873566"><ele>92</ele><time>2026-4-28T21:32:18Z</time></trkpt>
<trkpt lat="48.882266998291" lon="2.8548872470856"><ele>93</ele><time>2026-4-28T21:32:21Z</time></trkpt>
<trkpt lat="48.882369995117" lon="2.8548176288605"><ele>94</ele><time>2026-4-28T21:32:24Z</time></trkpt>
<trkpt lat="48.882461547852" lon="2.8547546863556"><ele>93</ele><time>2026-4-28T21:32:27Z</time></trkpt>
<trkpt lat="48.882556915283" lon="2.8546934127808"><ele>92</ele><time>2026-4-28T21:32:30Z</time></trkpt>
<trkpt lat="48.882663726807" lon="2.8546452522278"><ele>92</ele><time>2026-4-28T21:32:33Z</time></trkpt>
<trkpt lat="48.88277053833" lon="2.8545954227448"><ele>92</ele><time>2026-4-28T21:32:36Z</time></trkpt>
<trkpt lat="48.882873535156" lon="2.8545358181"><ele>92</ele><time>2026-4-28T21:32:39Z</time></trkpt>
<trkpt lat="48.882946014404" lon="2.8544542789459"><ele>92</ele><time>2026-4-28T21:32:42Z</time></trkpt>
<trkpt lat="48.883026123047" lon="2.8543620109558"><ele>93</ele><time>2026-4-28T21:32:45Z</time></trkpt>
<trkpt lat="48.883098602295" lon="2.8542716503143"><ele>92</ele><time>2026-4-28T21:32:48Z</time></trkpt>
<trkpt lat="48.883178710938" lon="2.8541824817657"><ele>92</ele><time>2026-4-28T21:32:51Z</time></trkpt>
<trkpt lat="48.883270263672" lon="2.8541004657745"><ele>92</ele><time>2026-4-28T21:32:54Z</time></trkpt>
<trkpt lat="48.883358001709" lon="2.8540148735046"><ele>92</ele><time>2026-4-28T21:32:57Z</time></trkpt>
<trkpt lat="48.883453369141" lon="2.853946685791"><ele>91</ele><time>2026-4-28T21:33:0Z</time></trkpt>
<trkpt lat="48.883541107178" lon="2.8538887500763"><ele>91</ele><time>2026-4-28T21:33:3Z</time></trkpt>
<trkpt lat="48.883602142334" lon="2.8538455963135"><ele>91</ele><time>2026-4-28T21:33:6Z</time></trkpt>
<trkpt lat="48.883602142334" lon="2.8538455963135"><ele>91</ele><time>2026-4-28T21:33:9Z</time></trkpt>
<trkpt lat="48.883602142334" lon="2.8538455963135"><ele>91</ele><time>2026-4-28T21:33:12Z</time></trkpt>
<trkpt lat="48.883602142334" lon="2.8538455963135"><ele>91</ele><time>2026-4-28T21:33:15Z</time></trkpt>
<trkpt lat="48.883602142334" lon="2.8538455963135"><ele>91</ele><time>2026-4-28T21:33:18Z</time></trkpt>
<trkpt lat="48.883666992188" lon="2.8538439273834"><ele>91</ele><time>2026-4-28T21:33:21Z</time></trkpt>
<trkpt lat="48.883754730225" lon="2.8538014888763"><ele>91</ele><time>2026-4-28T21:33:24Z</time></trkpt>
<trkpt lat="48.883857727051" lon="2.8537187576294"><ele>91</ele><time>2026-4-28T21:33:27Z</time></trkpt>
<trkpt lat="48.883926391602" lon="2.8535959720612"><ele>91</ele><time>2026-4-28T21:33:30Z</time></trkpt>
<trkpt lat="48.883995056152" lon="2.8534586429596"><ele>92</ele><time>2026-4-28T21:33:33Z</time></trkpt>
<trkpt lat="48.884059906006" lon="2.8533511161804"><ele>92</ele><time>2026-4-28T21:33:36Z</time></trkpt>
<trkpt lat="48.884147644043" lon="2.8532269001007"><ele>91</ele><time>2026-4-28T21:33:39Z</time></trkpt>
<trkpt lat="48.88423538208" lon="2.8530988693237"><ele>92</ele><time>2026-4-28T21:33:42Z</time></trkpt>
<trkpt lat="48.884304046631" lon="2.8529849052429"><ele>93</ele><time>2026-4-28T21:33:45Z</time></trkpt>
<trkpt lat="48.884372711182" lon="2.8528938293457"><ele>94</ele><time>2026-4-28T21:33:48Z</time></trkpt>
<trkpt lat="48.88444519043" lon="2.8527991771698"><ele>94</ele><time>2026-4-28T21:33:51Z</time></trkpt>
<trkpt lat="48.884517669678" lon="2.8527190685272"><ele>94</ele><time>2026-4-28T21:33:54Z</time></trkpt>
<trkpt lat="48.884586334229" lon="2.8526706695557"><ele>94</ele><time>2026-4-28T21:33:57Z</time></trkpt>
<trkpt lat="48.884662628174" lon="2.8526287078857"><ele>94</ele><time>2026-4-28T21:34:0Z</time></trkpt>
<trkpt lat="48.88472366333" lon="2.852607011795"><ele>94</ele><time>2026-4-28T21:34:3Z</time></trkpt>
<trkpt lat="48.88472366333" lon="2.852607011795"><ele>94</ele><time>2026-4-28T21:34:6Z</time></trkpt>
<trkpt lat="48.884765625" lon="2.8525245189667"><ele>94</ele><time>2026-4-28T21:34:9Z</time></trkpt>
<trkpt lat="48.884811401367" lon="2.8524739742279"><ele>93</ele><time>2026-4-28T21:34:12Z</time></trkpt>
<trkpt lat="48.884864807129" lon="2.8523917198181"><ele>93</ele><time>2026-4-28T21:34:15Z</time></trkpt>
<trkpt lat="48.884925842285" lon="2.8522524833679"><ele>92</ele><time>2026-4-28T21:34:18Z</time></trkpt>
<trkpt lat="48.884994506836" lon="2.8520636558533"><ele>91</ele><time>2026-4-28T21:34:21Z</time></trkpt>
<trkpt lat="48.8850440979" lon="2.8518877029419"><ele>90</ele><time>2026-4-28T21:34:24Z</time></trkpt>
<trkpt lat="48.885089874268" lon="2.8517239093781"><ele>90</ele><time>2026-4-28T21:34:27Z</time></trkpt>
<trkpt lat="48.885120391846" lon="2.8515772819519"><ele>90</ele><time>2026-4-28T21:34:30Z</time></trkpt>
<trkpt lat="48.885162353516" lon="2.8514060974121"><ele>90</ele><time>2026-4-28T21:34:33Z</time></trkpt>
<trkpt lat="48.885204315186" lon="2.8512563705444"><ele>91</ele><time>2026-4-28T21:34:36Z</time></trkpt>
<trkpt lat="48.885238647461" lon="2.8511347770691"><ele>91</ele><time>2026-4-28T21:34:39Z</time></trkpt>
<trkpt lat="48.885261535645" lon="2.8510518074036"><ele>91</ele><time>2026-4-28T21:34:42Z</time></trkpt>
<trkpt lat="48.885261535645" lon="2.8510518074036"><ele>91</ele><time>2026-4-28T21:34:45Z</time></trkpt>
<trkpt lat="48.885261535645" lon="2.8510518074036"><ele>91</ele><time>2026-4-28T21:34:48Z</time></trkpt>
<trkpt lat="48.885261535645" lon="2.8510518074036"><ele>91</ele><time>2026-4-28T21:34:51Z</time></trkpt>
<trkpt lat="48.885261535645" lon="2.8510518074036"><ele>91</ele><time>2026-4-28T21:34:54Z</time></trkpt>
<trkpt lat="48.885261535645" lon="2.8510518074036"><ele>91</ele><time>2026-4-28T21:34:57Z</time></trkpt>
<trkpt lat="48.885299682617" lon="2.850937128067"><ele>89</ele><time>2026-4-28T21:35:0Z</time></trkpt>
<trkpt lat="48.885330200195" lon="2.8508434295654"><ele>89</ele><time>2026-4-28T21:35:3Z</time></trkpt>
<trkpt lat="48.885353088379" lon="2.8507533073425"><ele>89</ele><time>2026-4-28T21:35:6Z</time></trkpt>
<trkpt lat="48.885375976562" lon="2.8506503105164"><ele>89</ele><time>2026-4-28T21:35:9Z</time></trkpt>
<trkpt lat="48.885402679443" lon="2.8505539894104"><ele>89</ele><time>2026-4-28T21:35:12Z</time></trkpt>
<trkpt lat="48.885467529297" lon="2.8503618240356"><ele>89</ele><time>2026-4-28T21:35:15Z</time></trkpt>
<trkpt lat="48.885501861572" lon="2.8502368927002"><ele>89</ele><time>2026-4-28T21:35:18Z</time></trkpt>
<trkpt lat="48.885520935059" lon="2.850102186203"><ele>89</ele><time>2026-4-28T21:35:21Z</time></trkpt>
<trkpt lat="48.885524749756" lon="2.8499622344971"><ele>89</ele><time>2026-4-28T21:35:24Z</time></trkpt>
<trkpt lat="48.88553237915" lon="2.8498225212097"><ele>89</ele><time>2026-4-28T21:35:27Z</time></trkpt>
<trkpt lat="48.885559082031" lon="2.8497076034546"><ele>90</ele><time>2026-4-28T21:35:30Z</time></trkpt>
<trkpt lat="48.885578155518" lon="2.8495984077454"><ele>91</ele><time>2026-4-28T21:35:33Z</time></trkpt>
<trkpt lat="48.885604858398" lon="2.8494815826416"><ele>91</ele><time>2026-4-28T21:35:36Z</time></trkpt>
<trkpt lat="48.885646820068" lon="2.8493494987488"><ele>90</ele><time>2026-4-28T21:35:39Z</time></trkpt>
<trkpt lat="48.885684967041" lon="2.8492357730865"><ele>90</ele><time>2026-4-28T21:35:42Z</time></trkpt>
<trkpt lat="48.885730743408" lon="2.8491315841675"><ele>90</ele><time>2026-4-28T21:35:45Z</time></trkpt>
<trkpt lat="48.885776519775" lon="2.8490171432495"><ele>90</ele><time>2026-4-28T21:35:48Z</time></trkpt>
<trkpt lat="48.885807037354" lon="2.8489055633545"><ele>91</ele><time>2026-4-28T21:35:51Z</time></trkpt>
<trkpt lat="48.885822296143" lon="2.848801612854"><ele>91</ele><time>2026-4-28T21:35:54Z</time></trkpt>
<trkpt lat="48.885833740234" lon="2.8487083911896"><ele>91</ele><time>2026-4-28T21:35:57Z</time></trkpt>
<trkpt lat="48.885845184326" lon="2.8485822677612"><ele>91</ele><time>2026-4-28T21:36:0Z</time></trkpt>
<trkpt lat="48.885875701904" lon="2.8484218120575"><ele>91</ele><time>2026-4-28T21:36:3Z</time></trkpt>
<trkpt lat="48.885898590088" lon="2.848286151886"><ele>90</ele><time>2026-4-28T21:36:6Z</time></trkpt>
<trkpt lat="48.885929107666" lon="2.8481788635254"><ele>90</ele><time>2026-4-28T21:36:9Z</time></trkpt>
<trkpt lat="48.885959625244" lon="2.8480789661407"><ele>90</ele><time>2026-4-28T21:36:12Z</time></trkpt>
<trkpt lat="48.88599395752" lon="2.8479647636414"><ele>90</ele><time>2026-4-28T21:36:15Z</time></trkpt>
<trkpt lat="48.886039733887" lon="2.8478064537048"><ele>91</ele><time>2026-4-28T21:36:18Z</time></trkpt>
<trkpt lat="48.886089324951" lon="2.8476405143738"><ele>90</ele><time>2026-4-28T21:36:21Z</time></trkpt>
<trkpt lat="48.886119842529" lon="2.8475143909454"><ele>90</ele><time>2026-4-28T21:36:24Z</time></trkpt>
<trkpt lat="48.886157989502" lon="2.847403049469"><ele>90</ele><time>2026-4-28T21:36:27Z</time></trkpt>
<trkpt lat="48.886203765869" lon="2.8472952842712"><ele>90</ele><time>2026-4-28T21:36:30Z</time></trkpt>
<trkpt lat="48.886257171631" lon="2.8472135066986"><ele>90</ele><time>2026-4-28T21:36:33Z</time></trkpt>
<trkpt lat="48.88631439209" lon="2.8471190929413"><ele>90</ele><time>2026-4-28T21:36:36Z</time></trkpt>
<trkpt lat="48.886360168457" lon="2.8470313549042"><ele>90</ele><time>2026-4-28T21:36:39Z</time></trkpt>
<trkpt lat="48.886360168457" lon="2.8470313549042"><ele>90</ele><time>2026-4-28T21:36:42Z</time></trkpt>
<trkpt lat="48.886409759521" lon="2.8468625545502"><ele>91</ele><time>2026-4-28T21:36:45Z</time></trkpt>
<trkpt lat="48.886444091797" lon="2.8467614650726"><ele>91</ele><time>2026-4-28T21:36:48Z</time></trkpt>
<trkpt lat="48.886478424072" lon="2.8466489315033"><ele>90</ele><time>2026-4-28T21:36:51Z</time></trkpt>
<trkpt lat="48.886505126953" lon="2.8465447425842"><ele>90</ele><time>2026-4-28T21:36:54Z</time></trkpt>
<trkpt lat="48.886531829834" lon="2.8464365005493"><ele>90</ele><time>2026-4-28T21:36:57Z</time></trkpt>
<trkpt lat="48.88655090332" lon="2.8463399410248"><ele>90</ele><time>2026-4-28T21:37:0Z</time></trkpt>
<trkpt lat="48.886581420898" lon="2.8462326526642"><ele>90</ele><time>2026-4-28T21:37:3Z</time></trkpt>
<trkpt lat="48.886608123779" lon="2.8461217880249"><ele>90</ele><time>2026-4-28T21:37:6Z</time></trkpt>
<trkpt lat="48.886631011963" lon="2.8459906578064"><ele>89</ele><time>2026-4-28T21:37:9Z</time></trkpt>
<trkpt lat="48.886653900146" lon="2.8458881378174"><ele>89</ele><time>2026-4-28T21:37:12Z</time></trkpt>
<trkpt lat="48.886680603027" lon="2.8457627296448"><ele>89</ele><time>2026-4-28T21:37:15Z</time></trkpt>
<trkpt lat="48.886711120605" lon="2.8456149101257"><ele>89</ele><time>2026-4-28T21:37:18Z</time></trkpt>
<trkpt lat="48.886741638184" lon="2.8454864025116"><ele>90</ele><time>2026-4-28T21:37:21Z</time></trkpt>
<trkpt lat="48.886768341064" lon="2.8453917503357"><ele>90</ele><time>2026-4-28T21:37:24Z</time></trkpt>
<trkpt lat="48.886787414551" lon="2.8452858924866"><ele>90</ele><time>2026-4-28T21:37:27Z</time></trkpt>
<trkpt lat="48.886817932129" lon="2.8451669216156"><ele>90</ele><time>2026-4-28T21:37:30Z</time></trkpt>
<trkpt lat="48.886856079102" lon="2.8450508117676"><ele>89</ele><time>2026-4-28T21:37:33Z</time></trkpt>
<trkpt lat="48.886890411377" lon="2.8449034690857"><ele>89</ele><time>2026-4-28T21:37:36Z</time></trkpt>
<trkpt lat="48.886932373047" lon="2.8447706699371"><ele>88</ele><time>2026-4-28T21:37:39Z</time></trkpt>
<trkpt lat="48.886981964111" lon="2.8446192741394"><ele>87</ele><time>2026-4-28T21:37:42Z</time></trkpt>
<trkpt lat="48.887027740479" lon="2.8444526195526"><ele>88</ele><time>2026-4-28T21:37:45Z</time></trkpt>
<trkpt lat="48.887073516846" lon="2.8443105220795"><ele>88</ele><time>2026-4-28T21:37:48Z</time></trkpt>
<trkpt lat="48.88712310791" lon="2.8441500663757"><ele>87</ele><time>2026-4-28T21:37:51Z</time></trkpt>
<trkpt lat="48.88716506958" lon="2.8440072536469"><ele>88</ele><time>2026-4-28T21:37:54Z</time></trkpt>
<trkpt lat="48.887195587158" lon="2.8438715934753"><ele>88</ele><time>2026-4-28T21:37:57Z</time></trkpt>
<trkpt lat="48.887229919434" lon="2.8437628746033"><ele>88</ele><time>2026-4-28T21:38:0Z</time></trkpt>
<trkpt lat="48.887271881104" lon="2.843626499176"><ele>88</ele><time>2026-4-28T21:38:3Z</time></trkpt>
<trkpt lat="48.887317657471" lon="2.843480348587"><ele>88</ele><time>2026-4-28T21:38:6Z</time></trkpt>
<trkpt lat="48.887359619141" lon="2.8433508872986"><ele>89</ele><time>2026-4-28T21:38:9Z</time></trkpt>
<trkpt lat="48.887393951416" lon="2.8432140350342"><ele>89</ele><time>2026-4-28T21:38:12Z</time></trkpt>
<trkpt lat="48.8874168396" lon="2.8430819511414"><ele>89</ele><time>2026-4-28T21:38:15Z</time></trkpt>
<trkpt lat="48.887447357178" lon="2.8429863452911"><ele>89</ele><time>2026-4-28T21:38:18Z</time></trkpt>
<trkpt lat="48.88748550415" lon="2.8428812026978"><ele>89</ele><time>2026-4-28T21:38:21Z</time></trkpt>
<trkpt lat="48.887516021729" lon="2.8427777290344"><ele>89</ele><time>2026-4-28T21:38:24Z</time></trkpt>
<trkpt lat="48.887531280518" lon="2.8426835536957"><ele>89</ele><time>2026-4-28T21:38:27Z</time></trkpt>
<trkpt lat="48.88756942749" lon="2.8425853252411"><ele>90</ele><time>2026-4-28T21:38:30Z</time></trkpt>
<trkpt lat="48.887596130371" lon="2.8424518108368"><ele>89</ele><time>2026-4-28T21:38:33Z</time></trkpt>
<trkpt lat="48.887630462646" lon="2.8423011302948"><ele>89</ele><time>2026-4-28T21:38:36Z</time></trkpt>
<trkpt lat="48.887676239014" lon="2.8421614170074"><ele>89</ele><time>2026-4-28T21:38:39Z</time></trkpt>
<trkpt lat="48.887702941895" lon="2.8420460224152"><ele>89</ele><time>2026-4-28T21:38:42Z</time></trkpt>
<trkpt lat="48.887729644775" lon="2.8419337272644"><ele>89</ele><time>2026-4-28T21:38:45Z</time></trkpt>
<trkpt lat="48.887767791748" lon="2.8417909145355"><ele>89</ele><time>2026-4-28T21:38:48Z</time></trkpt>
<trkpt lat="48.887794494629" lon="2.8416681289673"><ele>89</ele><time>2026-4-28T21:38:51Z</time></trkpt>
<trkpt lat="48.887828826904" lon="2.8415567874908"><ele>89</ele><time>2026-4-28T21:38:54Z</time></trkpt>
<trkpt lat="48.887859344482" lon="2.8414549827576"><ele>89</ele><time>2026-4-28T21:38:57Z</time></trkpt>
<trkpt lat="48.887886047363" lon="2.8413550853729"><ele>89</ele><time>2026-4-28T21:39:0Z</time></trkpt>
<trkpt lat="48.887924194336" lon="2.8412373065948"><ele>89</ele><time>2026-4-28T21:39:3Z</time></trkpt>
<trkpt lat="48.887958526611" lon="2.8411109447479"><ele>89</ele><time>2026-4-28T21:39:6Z</time></trkpt>
<trkpt lat="48.888004302979" lon="2.8409783840179"><ele>89</ele><time>2026-4-28T21:39:9Z</time></trkpt>
<trkpt lat="48.888031005859" lon="2.8408441543579"><ele>89</ele><time>2026-4-28T21:39:12Z</time></trkpt>
<trkpt lat="48.888046264648" lon="2.8407289981842"><ele>88</ele><time>2026-4-28T21:39:15Z</time></trkpt>
<trkpt lat="48.888069152832" lon="2.8406190872192"><ele>88</ele><time>2026-4-28T21:39:18Z</time></trkpt>
<trkpt lat="48.888092041016" lon="2.8405055999756"><ele>88</ele><time>2026-4-28T21:39:21Z</time></trkpt>
<trkpt lat="48.888126373291" lon="2.8403360843658"><ele>88</ele><time>2026-4-28T21:39:24Z</time></trkpt>
<trkpt lat="48.888175964355" lon="2.840175151825"><ele>88</ele><time>2026-4-28T21:39:27Z</time></trkpt>
<trkpt lat="48.88822555542" lon="2.8400387763977"><ele>88</ele><time>2026-4-28T21:39:30Z</time></trkpt>
<trkpt lat="48.888259887695" lon="2.8399264812469"><ele>88</ele><time>2026-4-28T21:39:33Z</time></trkpt>
<trkpt lat="48.888294219971" lon="2.8398225307465"><ele>89</ele><time>2026-4-28T21:39:36Z</time></trkpt>
<trkpt lat="48.888324737549" lon="2.8397080898285"><ele>89</ele><time>2026-4-28T21:39:39Z</time></trkpt>
<trkpt lat="48.888347625732" lon="2.839581489563"><ele>90</ele><time>2026-4-28T21:39:42Z</time></trkpt>
<trkpt lat="48.888381958008" lon="2.8394906520844"><ele>90</ele><time>2026-4-28T21:39:45Z</time></trkpt>
<trkpt lat="48.888416290283" lon="2.8393709659576"><ele>91</ele><time>2026-4-28T21:39:48Z</time></trkpt>
<trkpt lat="48.88846206665" lon="2.8392508029938"><ele>91</ele><time>2026-4-28T21:39:51Z</time></trkpt>
<trkpt lat="48.888492584229" lon="2.8390946388245"><ele>91</ele><time>2026-4-28T21:39:54Z</time></trkpt>
<trkpt lat="48.888526916504" lon="2.8389422893524"><ele>91</ele><time>2026-4-28T21:39:57Z</time></trkpt>
<trkpt lat="48.888572692871" lon="2.8387892246246"><ele>89</ele><time>2026-4-28T21:40:0Z</time></trkpt>
<trkpt lat="48.888614654541" lon="2.8386399745941"><ele>88</ele><time>2026-4-28T21:40:3Z</time></trkpt>
<trkpt lat="48.888645172119" lon="2.8385124206543"><ele>86</ele><time>2026-4-28T21:40:6Z</time></trkpt>
<trkpt lat="48.888675689697" lon="2.8383944034576"><ele>86</ele><time>2026-4-28T21:40:9Z</time></trkpt>
<trkpt lat="48.888702392578" lon="2.8382837772369"><ele>86</ele><time>2026-4-28T21:40:12Z</time></trkpt>
<trkpt lat="48.888732910156" lon="2.8381476402283"><ele>86</ele><time>2026-4-28T21:40:15Z</time></trkpt>
<trkpt lat="48.888790130615" lon="2.8379645347595"><ele>86</ele><time>2026-4-28T21:40:18Z</time></trkpt>
<trkpt lat="48.888824462891" lon="2.8378047943115"><ele>85</ele><time>2026-4-28T21:40:21Z</time></trkpt>
<trkpt lat="48.888854980469" lon="2.837694644928"><ele>85</ele><time>2026-4-28T21:40:24Z</time></trkpt>
<trkpt lat="48.888885498047" lon="2.8375957012177"><ele>85</ele><time>2026-4-28T21:40:27Z</time></trkpt>
<trkpt lat="48.888916015625" lon="2.8374779224396"><ele>87</ele><time>2026-4-28T21:40:30Z</time></trkpt>
<trkpt lat="48.8889503479" lon="2.8373289108276"><ele>87</ele><time>2026-4-28T21:40:33Z</time></trkpt>
<trkpt lat="48.888984680176" lon="2.8371684551239"><ele>86</ele><time>2026-4-28T21:40:36Z</time></trkpt>
<trkpt lat="48.889019012451" lon="2.8370099067688"><ele>84</ele><time>2026-4-28T21:40:39Z</time></trkpt>
<trkpt lat="48.889053344727" lon="2.8368716239929"><ele>84</ele><time>2026-4-28T21:40:42Z</time></trkpt>
<trkpt lat="48.889087677002" lon="2.8367183208466"><ele>84</ele><time>2026-4-28T21:40:45Z</time></trkpt>
<trkpt lat="48.889133453369" lon="2.8365724086761"><ele>84</ele><time>2026-4-28T21:40:48Z</time></trkpt>
<trkpt lat="48.889171600342" lon="2.8364324569702"><ele>85</ele><time>2026-4-28T21:40:51Z</time></trkpt>
<trkpt lat="48.889205932617" lon="2.8363103866577"><ele>87</ele><time>2026-4-28T21:40:54Z</time></trkpt>
<trkpt lat="48.889240264893" lon="2.8361673355103"><ele>87</ele><time>2026-4-28T21:40:57Z</time></trkpt>
<trkpt lat="48.889282226562" lon="2.8360097408295"><ele>88</ele><time>2026-4-28T21:41:0Z</time></trkpt>
<trkpt lat="48.889335632324" lon="2.8358871936798"><ele>89</ele><time>2026-4-28T21:41:3Z</time></trkpt>
<trkpt lat="48.889381408691" lon="2.8357691764832"><ele>90</ele><time>2026-4-28T21:41:6Z</time></trkpt>
<trkpt lat="48.889430999756" lon="2.8356337547302"><ele>91</ele><time>2026-4-28T21:41:9Z</time></trkpt>
<trkpt lat="48.889469146729" lon="2.8354911804199"><ele>91</ele><time>2026-4-28T21:41:12Z</time></trkpt>
<trkpt lat="48.889503479004" lon="2.8353559970856"><ele>91</ele><time>2026-4-28T21:41:15Z</time></trkpt>
<trkpt lat="48.889549255371" lon="2.8352150917053"><ele>91</ele><time>2026-4-28T21:41:18Z</time></trkpt>
<trkpt lat="48.889595031738" lon="2.8350391387939"><ele>91</ele><time>2026-4-28T21:41:21Z</time></trkpt>
<trkpt lat="48.889644622803" lon="2.8348824977875"><ele>92</ele><time>2026-4-28T21:41:24Z</time></trkpt>
<trkpt lat="48.889698028564" lon="2.8347227573395"><ele>92</ele><time>2026-4-28T21:41:27Z</time></trkpt>
<trkpt lat="48.889739990234" lon="2.8345749378204"><ele>91</ele><time>2026-4-28T21:41:30Z</time></trkpt>
<trkpt lat="48.889755249023" lon="2.8344693183899"><ele>91</ele><time>2026-4-28T21:41:33Z</time></trkpt>
<trkpt lat="48.889755249023" lon="2.8344693183899"><ele>91</ele><time>2026-4-28T21:41:36Z</time></trkpt>
<trkpt lat="48.889766693115" lon="2.8343524932861"><ele>90</ele><time>2026-4-28T21:41:39Z</time></trkpt>
<trkpt lat="48.889766693115" lon="2.8343524932861"><ele>90</ele><time>2026-4-28T21:41:42Z</time></trkpt>
<trkpt lat="48.889739990234" lon="2.8341948986053"><ele>90</ele><time>2026-4-28T21:41:45Z</time></trkpt>
<trkpt lat="48.889739990234" lon="2.8341948986053"><ele>90</ele><time>2026-4-28T21:41:48Z</time></trkpt>
<trkpt lat="48.889778137207" lon="2.8340361118317"><ele>91</ele><time>2026-4-28T21:41:51Z</time></trkpt>
<trkpt lat="48.88981628418" lon="2.833927154541"><ele>91</ele><time>2026-4-28T21:41:54Z</time></trkpt>
<trkpt lat="48.88985824585" lon="2.8338069915771"><ele>91</ele><time>2026-4-28T21:41:57Z</time></trkpt>
<trkpt lat="48.889915466309" lon="2.8336668014526"><ele>92</ele><time>2026-4-28T21:42:0Z</time></trkpt>
<trkpt lat="48.889972686768" lon="2.8335263729095"><ele>92</ele><time>2026-4-28T21:42:3Z</time></trkpt>
<trkpt lat="48.890041351318" lon="2.8334286212921"><ele>92</ele><time>2026-4-28T21:42:6Z</time></trkpt>
<trkpt lat="48.890117645264" lon="2.8333427906036"><ele>91</ele><time>2026-4-28T21:42:9Z</time></trkpt>
<trkpt lat="48.89017868042" lon="2.8332648277283"><ele>92</ele><time>2026-4-28T21:42:12Z</time></trkpt>
<trkpt lat="48.890247344971" lon="2.8331317901611"><ele>92</ele><time>2026-4-28T21:42:15Z</time></trkpt>
<trkpt lat="48.890308380127" lon="2.8330001831055"><ele>92</ele><time>2026-4-28T21:42:18Z</time></trkpt>
<trkpt lat="48.890350341797" lon="2.8328907489777"><ele>92</ele><time>2026-4-28T21:42:21Z</time></trkpt>
<trkpt lat="48.890407562256" lon="2.8327808380127"><ele>92</ele><time>2026-4-28T21:42:24Z</time></trkpt>
<trkpt lat="48.89045715332" lon="2.8326721191406"><ele>92</ele><time>2026-4-28T21:42:27Z</time></trkpt>
<trkpt lat="48.890506744385" lon="2.832581281662"><ele>92</ele><time>2026-4-28T21:42:30Z</time></trkpt>
<trkpt lat="48.89054107666" lon="2.8325028419495"><ele>92</ele><time>2026-4-28T21:42:33Z</time></trkpt>
<trkpt lat="48.890586853027" lon="2.8324055671692"><ele>92</ele><time>2026-4-28T21:42:36Z</time></trkpt>
<trkpt lat="48.890625" lon="2.8322989940643"><ele>92</ele><time>2026-4-28T21:42:39Z</time></trkpt>
<trkpt lat="48.890670776367" lon="2.8321924209595"><ele>92</ele><time>2026-4-28T21:42:42Z</time></trkpt>
<trkpt lat="48.890724182129" lon="2.8320851325989"><ele>93</ele><time>2026-4-28T21:42:45Z</time></trkpt>
<trkpt lat="48.890777587891" lon="2.8319725990295"><ele>93</ele><time>2026-4-28T21:42:48Z</time></trkpt>
<trkpt lat="48.890819549561" lon="2.831885099411"><ele>91</ele><time>2026-4-28T21:42:51Z</time></trkpt>
<trkpt lat="48.89087677002" lon="2.8317763805389"><ele>91</ele><time>2026-4-28T21:42:54Z</time></trkpt>
<trkpt lat="48.890933990479" lon="2.8316540718079"><ele>91</ele><time>2026-4-28T21:42:57Z</time></trkpt>
<trkpt lat="48.890998840332" lon="2.8315114974976"><ele>91</ele><time>2026-4-28T21:43:0Z</time></trkpt>
<trkpt lat="48.891075134277" lon="2.831353187561"><ele>92</ele><time>2026-4-28T21:43:3Z</time></trkpt>
<trkpt lat="48.891139984131" lon="2.8312215805054"><ele>93</ele><time>2026-4-28T21:43:6Z</time></trkpt>
<trkpt lat="48.891193389893" lon="2.8311069011688"><ele>94</ele><time>2026-4-28T21:43:9Z</time></trkpt>
<trkpt lat="48.891246795654" lon="2.8309850692749"><ele>94</ele><time>2026-4-28T21:43:12Z</time></trkpt>
<trkpt lat="48.891296386719" lon="2.8308732509613"><ele>94</ele><time>2026-4-28T21:43:15Z</time></trkpt>
<trkpt lat="48.89134979248" lon="2.8307447433472"><ele>95</ele><time>2026-4-28T21:43:18Z</time></trkpt>
<trkpt lat="48.891407012939" lon="2.8306248188019"><ele>95</ele><time>2026-4-28T21:43:21Z</time></trkpt>
<trkpt lat="48.891471862793" lon="2.8304836750031"><ele>95</ele><time>2026-4-28T21:43:24Z</time></trkpt>
<trkpt lat="48.891521453857" lon="2.8303513526917"><ele>95</ele><time>2026-4-28T21:43:27Z</time></trkpt>
<trkpt lat="48.891574859619" lon="2.8302443027496"><ele>94</ele><time>2026-4-28T21:43:30Z</time></trkpt>
<trkpt lat="48.891632080078" lon="2.8301291465759"><ele>94</ele><time>2026-4-28T21:43:33Z</time></trkpt>
<trkpt lat="48.891670227051" lon="2.8300621509552"><ele>94</ele><time>2026-4-28T21:43:36Z</time></trkpt>
<trkpt lat="48.891670227051" lon="2.8300621509552"><ele>94</ele><time>2026-4-28T21:43:39Z</time></trkpt>
<trkpt lat="48.891723632812" lon="2.8299593925476"><ele>94</ele><time>2026-4-28T21:43:42Z</time></trkpt>
<trkpt lat="48.891773223877" lon="2.8298485279083"><ele>93</ele><time>2026-4-28T21:43:45Z</time></trkpt>
<trkpt lat="48.891822814941" lon="2.8297464847565"><ele>93</ele><time>2026-4-28T21:43:48Z</time></trkpt>
<trkpt lat="48.8918800354" lon="2.829621553421"><ele>93</ele><time>2026-4-28T21:43:51Z</time></trkpt>
<trkpt lat="48.891944885254" lon="2.8294756412506"><ele>94</ele><time>2026-4-28T21:43:54Z</time></trkpt>
<trkpt lat="48.892002105713" lon="2.829353094101"><ele>94</ele><time>2026-4-28T21:43:57Z</time></trkpt>
<trkpt lat="48.892063140869" lon="2.829222202301"><ele>93</ele><time>2026-4-28T21:44:0Z</time></trkpt>
<trkpt lat="48.89213180542" lon="2.8290870189667"><ele>92</ele><time>2026-4-28T21:44:3Z</time></trkpt>
<trkpt lat="48.892192840576" lon="2.8289494514465"><ele>93</ele><time>2026-4-28T21:44:6Z</time></trkpt>
<trkpt lat="48.892250061035" lon="2.8288307189941"><ele>92</ele><time>2026-4-28T21:44:9Z</time></trkpt>
<trkpt lat="48.892295837402" lon="2.8287131786346"><ele>92</ele><time>2026-4-28T21:44:12Z</time></trkpt>
<trkpt lat="48.892349243164" lon="2.8285841941833"><ele>91</ele><time>2026-4-28T21:44:15Z</time></trkpt>
<trkpt lat="48.89241027832" lon="2.8284463882446"><ele>91</ele><time>2026-4-28T21:44:18Z</time></trkpt>
<trkpt lat="48.892475128174" lon="2.8282973766327"><ele>91</ele><time>2026-4-28T21:44:21Z</time></trkpt>
<trkpt lat="48.89253616333" lon="2.8281691074371"><ele>90</ele><time>2026-4-28T21:44:24Z</time></trkpt>
<trkpt lat="48.892593383789" lon="2.8280506134033"><ele>90</ele><time>2026-4-28T21:44:27Z</time></trkpt>
<trkpt lat="48.89266204834" lon="2.8279163837433"><ele>91</ele><time>2026-4-28T21:44:30Z</time></trkpt>
<trkpt lat="48.892715454102" lon="2.8277924060822"><ele>92</ele><time>2026-4-28T21:44:33Z</time></trkpt>
<trkpt lat="48.892765045166" lon="2.8276674747467"><ele>92</ele><time>2026-4-28T21:44:36Z</time></trkpt>
<trkpt lat="48.89282989502" lon="2.8275201320648"><ele>93</ele><time>2026-4-28T21:44:39Z</time></trkpt>
<trkpt lat="48.892887115479" lon="2.8273954391479"><ele>94</ele><time>2026-4-28T21:44:42Z</time></trkpt>
<trkpt lat="48.892936706543" lon="2.8272793292999"><ele>95</ele><time>2026-4-28T21:44:45Z</time></trkpt>
<trkpt lat="48.892997741699" lon="2.8271341323853"><ele>94</ele><time>2026-4-28T21:44:48Z</time></trkpt>
<trkpt lat="48.89306640625" lon="2.8269846439362"><ele>92</ele><time>2026-4-28T21:44:51Z</time></trkpt>
<trkpt lat="48.893115997314" lon="2.8268485069275"><ele>92</ele><time>2026-4-28T21:44:54Z</time></trkpt>
<trkpt lat="48.893184661865" lon="2.8267056941986"><ele>91</ele><time>2026-4-28T21:44:57Z</time></trkpt>
<trkpt lat="48.893230438232" lon="2.8266150951385"><ele>91</ele><time>2026-4-28T21:45:0Z</time></trkpt>
<trkpt lat="48.893230438232" lon="2.8266150951385"><ele>91</ele><time>2026-4-28T21:45:3Z</time></trkpt>
<trkpt lat="48.893230438232" lon="2.8266150951385"><ele>91</ele><time>2026-4-28T21:45:6Z</time></trkpt>
<trkpt lat="48.893230438232" lon="2.8266150951385"><ele>91</ele><time>2026-4-28T21:45:9Z</time></trkpt>
<trkpt lat="48.893230438232" lon="2.8266150951385"><ele>91</ele><time>2026-4-28T21:45:12Z</time></trkpt>
<trkpt lat="48.893230438232" lon="2.8266150951385"><ele>91</ele><time>2026-4-28T21:45:15Z</time></trkpt>
<trkpt lat="48.893264770508" lon="2.8265385627747"><ele>91</ele><time>2026-4-28T21:45:18Z</time></trkpt>
<trkpt lat="48.89331817627" lon="2.8264768123627"><ele>91</ele><time>2026-4-28T21:45:21Z</time></trkpt>
<trkpt lat="48.893390655518" lon="2.8263671398163"><ele>92</ele><time>2026-4-28T21:45:24Z</time></trkpt>
<trkpt lat="48.893424987793" lon="2.8262844085693"><ele>92</ele><time>2026-4-28T21:45:27Z</time></trkpt>
<trkpt lat="48.893486022949" lon="2.8261685371399"><ele>92</ele><time>2026-4-28T21:45:30Z</time></trkpt>
<trkpt lat="48.893535614014" lon="2.8260610103607"><ele>92</ele><time>2026-4-28T21:45:33Z</time></trkpt>
<trkpt lat="48.89359664917" lon="2.825945854187"><ele>92</ele><time>2026-4-28T21:45:36Z</time></trkpt>
<trkpt lat="48.893650054932" lon="2.8258492946625"><ele>92</ele><time>2026-4-28T21:45:39Z</time></trkpt>
<trkpt lat="48.893676757812" lon="2.8257570266724"><ele>92</ele><time>2026-4-28T21:45:42Z</time></trkpt>
<trkpt lat="48.893711090088" lon="2.8256754875183"><ele>92</ele><time>2026-4-28T21:45:45Z</time></trkpt>
<trkpt lat="48.893749237061" lon="2.8255984783173"><ele>92</ele><time>2026-4-28T21:45:48Z</time></trkpt>
<trkpt lat="48.893749237061" lon="2.8255984783173"><ele>92</ele><time>2026-4-28T21:45:51Z</time></trkpt>
<trkpt lat="48.893836975098" lon="2.8254156112671"><ele>92</ele><time>2026-4-28T21:45:54Z</time></trkpt>
<trkpt lat="48.893890380859" lon="2.8253192901611"><ele>92</ele><time>2026-4-28T21:45:57Z</time></trkpt>
<trkpt lat="48.893936157227" lon="2.8252308368683"><ele>92</ele><time>2026-4-28T21:46:0Z</time></trkpt>
<trkpt lat="48.893978118896" lon="2.825160741806"><ele>92</ele><time>2026-4-28T21:46:3Z</time></trkpt>
<trkpt lat="48.894016265869" lon="2.8250451087952"><ele>92</ele><time>2026-4-28T21:46:6Z</time></trkpt>
<trkpt lat="48.894062042236" lon="2.8249449729919"><ele>92</ele><time>2026-4-28T21:46:9Z</time></trkpt>
<trkpt lat="48.894096374512" lon="2.824862241745"><ele>92</ele><time>2026-4-28T21:46:12Z</time></trkpt>
<trkpt lat="48.894145965576" lon="2.8247804641724"><ele>92</ele><time>2026-4-28T21:46:15Z</time></trkpt>
<trkpt lat="48.894199371338" lon="2.8246872425079"><ele>92</ele><time>2026-4-28T21:46:18Z</time></trkpt>
<trkpt lat="48.894245147705" lon="2.8245942592621"><ele>92</ele><time>2026-4-28T21:46:21Z</time></trkpt>
<trkpt lat="48.894290924072" lon="2.8244924545288"><ele>92</ele><time>2026-4-28T21:46:24Z</time></trkpt>
<trkpt lat="48.894336700439" lon="2.8243889808655"><ele>91</ele><time>2026-4-28T21:46:27Z</time></trkpt>
<trkpt lat="48.894336700439" lon="2.8243889808655"><ele>91</ele><time>2026-4-28T21:46:30Z</time></trkpt>
<trkpt lat="48.894409179688" lon="2.824226140976"><ele>91</ele><time>2026-4-28T21:46:33Z</time></trkpt>
<trkpt lat="48.894462585449" lon="2.8240990638733"><ele>91</ele><time>2026-4-28T21:46:36Z</time></trkpt>
<trkpt lat="48.894538879395" lon="2.823965549469"><ele>91</ele><time>2026-4-28T21:46:39Z</time></trkpt>
<trkpt lat="48.894588470459" lon="2.8238513469696"><ele>91</ele><time>2026-4-28T21:46:42Z</time></trkpt>
<trkpt lat="48.894634246826" lon="2.8237268924713"><ele>91</ele><time>2026-4-28T21:46:45Z</time></trkpt>
<trkpt lat="48.89469909668" lon="2.823578119278"><ele>91</ele><time>2026-4-28T21:46:48Z</time></trkpt>
<trkpt lat="48.89476776123" lon="2.8234496116638"><ele>90</ele><time>2026-4-28T21:46:51Z</time></trkpt>
<trkpt lat="48.894813537598" lon="2.8233473300934"><ele>90</ele><time>2026-4-28T21:46:54Z</time></trkpt>
<trkpt lat="48.894874572754" lon="2.8232462406158"><ele>90</ele><time>2026-4-28T21:46:57Z</time></trkpt>
<trkpt lat="48.894924163818" lon="2.8231439590454"><ele>90</ele><time>2026-4-28T21:47:0Z</time></trkpt>
<trkpt lat="48.894966125488" lon="2.8230576515198"><ele>90</ele><time>2026-4-28T21:47:3Z</time></trkpt>
<trkpt lat="48.895004272461" lon="2.8229789733887"><ele>90</ele><time>2026-4-28T21:47:6Z</time></trkpt>
<trkpt lat="48.895004272461" lon="2.8229789733887"><ele>90</ele><time>2026-4-28T21:47:9Z</time></trkpt>
<trkpt lat="48.895004272461" lon="2.8229789733887"><ele>90</ele><time>2026-4-28T21:47:12Z</time></trkpt>
<trkpt lat="48.895004272461" lon="2.8229789733887"><ele>90</ele><time>2026-4-28T21:47:15Z</time></trkpt>
<trkpt lat="48.895004272461" lon="2.8229789733887"><ele>90</ele><time>2026-4-28T21:47:18Z</time></trkpt>
<trkpt lat="48.895137786865" lon="2.8226959705353"><ele>92</ele><time>2026-4-28T21:47:21Z</time></trkpt>
<trkpt lat="48.895175933838" lon="2.8226208686829"><ele>92</ele><time>2026-4-28T21:47:24Z</time></trkpt>
<trkpt lat="48.895221710205" lon="2.8225364685059"><ele>92</ele><time>2026-4-28T21:47:27Z</time></trkpt>
<trkpt lat="48.89527130127" lon="2.8224532604218"><ele>92</ele><time>2026-4-28T21:47:30Z</time></trkpt>
<trkpt lat="48.895328521729" lon="2.8223280906677"><ele>92</ele><time>2026-4-28T21:47:33Z</time></trkpt>
<trkpt lat="48.895359039307" lon="2.8222332000732"><ele>92</ele><time>2026-4-28T21:47:36Z</time></trkpt>
<trkpt lat="48.895458221436" lon="2.8220593929291"><ele>92</ele><time>2026-4-28T21:47:39Z</time></trkpt>
<trkpt lat="48.895503997803" lon="2.8219633102417"><ele>92</ele><time>2026-4-28T21:47:42Z</time></trkpt>
<trkpt lat="48.895557403564" lon="2.821845293045"><ele>93</ele><time>2026-4-28T21:47:45Z</time></trkpt>
<trkpt lat="48.895618438721" lon="2.8217220306396"><ele>94</ele><time>2026-4-28T21:47:48Z</time></trkpt>
<trkpt lat="48.895683288574" lon="2.8215818405151"><ele>96</ele><time>2026-4-28T21:47:51Z</time></trkpt>
<trkpt lat="48.89575958252" lon="2.8214411735535"><ele>97</ele><time>2026-4-28T21:47:54Z</time></trkpt>
<trkpt lat="48.895820617676" lon="2.821310043335"><ele>98</ele><time>2026-4-28T21:47:57Z</time></trkpt>
<trkpt lat="48.895877838135" lon="2.8211724758148"><ele>97</ele><time>2026-4-28T21:48:0Z</time></trkpt>
<trkpt lat="48.895931243896" lon="2.8210361003876"><ele>98</ele><time>2026-4-28T21:48:3Z</time></trkpt>
<trkpt lat="48.895984649658" lon="2.8208968639374"><ele>98</ele><time>2026-4-28T21:48:6Z</time></trkpt>
<trkpt lat="48.896041870117" lon="2.8207678794861"><ele>97</ele><time>2026-4-28T21:48:9Z</time></trkpt>
<trkpt lat="48.896099090576" lon="2.820652961731"><ele>96</ele><time>2026-4-28T21:48:12Z</time></trkpt>
<trkpt lat="48.896156311035" lon="2.8205375671387"><ele>96</ele><time>2026-4-28T21:48:15Z</time></trkpt>
<trkpt lat="48.896209716797" lon="2.8204076290131"><ele>96</ele><time>2026-4-28T21:48:18Z</time></trkpt>
<trkpt lat="48.896270751953" lon="2.8202576637268"><ele>95</ele><time>2026-4-28T21:48:21Z</time></trkpt>
<trkpt lat="48.896331787109" lon="2.8201203346252"><ele>93</ele><time>2026-4-28T21:48:24Z</time></trkpt>
<trkpt lat="48.896392822266" lon="2.8200035095215"><ele>93</ele><time>2026-4-28T21:48:27Z</time></trkpt>
<trkpt lat="48.896450042725" lon="2.8199081420898"><ele>94</ele><time>2026-4-28T21:48:30Z</time></trkpt>
<trkpt lat="48.896507263184" lon="2.8197946548462"><ele>94</ele><time>2026-4-28T21:48:33Z</time></trkpt>
<trkpt lat="48.896556854248" lon="2.8196835517883"><ele>93</ele><time>2026-4-28T21:48:36Z</time></trkpt>
<trkpt lat="48.89661026001" lon="2.8195645809174"><ele>92</ele><time>2026-4-28T21:48:39Z</time></trkpt>
<trkpt lat="48.896667480469" lon="2.8194353580475"><ele>90</ele><time>2026-4-28T21:48:42Z</time></trkpt>
<trkpt lat="48.896728515625" lon="2.8193171024323"><ele>90</ele><time>2026-4-28T21:48:45Z</time></trkpt>
<trkpt lat="48.896789550781" lon="2.8191969394684"><ele>90</ele><time>2026-4-28T21:48:48Z</time></trkpt>
<trkpt lat="48.89684677124" lon="2.8190822601318"><ele>90</ele><time>2026-4-28T21:48:51Z</time></trkpt>
<trkpt lat="48.896903991699" lon="2.818962097168"><ele>90</ele><time>2026-4-28T21:48:54Z</time></trkpt>
<trkpt lat="48.896968841553" lon="2.8188252449036"><ele>91</ele><time>2026-4-28T21:48:57Z</time></trkpt>
<trkpt lat="48.897029876709" lon="2.8186793327332"><ele>92</ele><time>2026-4-28T21:49:0Z</time></trkpt>
<trkpt lat="48.897090911865" lon="2.8185427188873"><ele>94</ele><time>2026-4-28T21:49:3Z</time></trkpt>
<trkpt lat="48.897151947021" lon="2.8184101581573"><ele>94</ele><time>2026-4-28T21:49:6Z</time></trkpt>
<trkpt lat="48.897216796875" lon="2.8182857036591"><ele>93</ele><time>2026-4-28T21:49:9Z</time></trkpt>
<trkpt lat="48.897285461426" lon="2.818146944046"><ele>92</ele><time>2026-4-28T21:49:12Z</time></trkpt>
<trkpt lat="48.897346496582" lon="2.81800365448"><ele>93</ele><time>2026-4-28T21:49:15Z</time></trkpt>
<trkpt lat="48.897403717041" lon="2.8178722858429"><ele>93</ele><time>2026-4-28T21:49:18Z</time></trkpt>
<trkpt lat="48.8974609375" lon="2.8177642822266"><ele>94</ele><time>2026-4-28T21:49:21Z</time></trkpt>
<trkpt lat="48.897510528564" lon="2.8176674842834"><ele>94</ele><time>2026-4-28T21:49:24Z</time></trkpt>
<trkpt lat="48.897560119629" lon="2.817554473877"><ele>94</ele><time>2026-4-28T21:49:27Z</time></trkpt>
<trkpt lat="48.897609710693" lon="2.8174495697021"><ele>94</ele><time>2026-4-28T21:49:30Z</time></trkpt>
<trkpt lat="48.897659301758" lon="2.8173406124115"><ele>94</ele><time>2026-4-28T21:49:33Z</time></trkpt>
<trkpt lat="48.89771270752" lon="2.8172075748444"><ele>94</ele><time>2026-4-28T21:49:36Z</time></trkpt>
<trkpt lat="48.897777557373" lon="2.8170640468597"><ele>93</ele><time>2026-4-28T21:49:39Z</time></trkpt>
<trkpt lat="48.897842407227" lon="2.8169238567352"><ele>93</ele><time>2026-4-28T21:49:42Z</time></trkpt>
<trkpt lat="48.897899627686" lon="2.8168263435364"><ele>93</ele><time>2026-4-28T21:49:45Z</time></trkpt>
<trkpt lat="48.897953033447" lon="2.8167209625244"><ele>91</ele><time>2026-4-28T21:49:48Z</time></trkpt>
<trkpt lat="48.898014068604" lon="2.8166007995605"><ele>90</ele><time>2026-4-28T21:49:51Z</time></trkpt>
<trkpt lat="48.898067474365" lon="2.816477060318"><ele>90</ele><time>2026-4-28T21:49:54Z</time></trkpt>
<trkpt lat="48.89811706543" lon="2.8163714408875"><ele>90</ele><time>2026-4-28T21:49:57Z</time></trkpt>
<trkpt lat="48.898170471191" lon="2.816246509552"><ele>91</ele><time>2026-4-28T21:50:0Z</time></trkpt>
<trkpt lat="48.89822769165" lon="2.8161160945892"><ele>91</ele><time>2026-4-28T21:50:3Z</time></trkpt>
<trkpt lat="48.898284912109" lon="2.8159930706024"><ele>91</ele><time>2026-4-28T21:50:6Z</time></trkpt>
<trkpt lat="48.898345947266" lon="2.8158781528473"><ele>92</ele><time>2026-4-28T21:50:9Z</time></trkpt>
<trkpt lat="48.898403167725" lon="2.8157634735107"><ele>92</ele><time>2026-4-28T21:50:12Z</time></trkpt>
<trkpt lat="48.898460388184" lon="2.8156440258026"><ele>93</ele><time>2026-4-28T21:50:15Z</time></trkpt>
<trkpt lat="48.89852142334" lon="2.8155152797699"><ele>92</ele><time>2026-4-28T21:50:18Z</time></trkpt>
<trkpt lat="48.898590087891" lon="2.8153817653656"><ele>92</ele><time>2026-4-28T21:50:21Z</time></trkpt>
<trkpt lat="48.898670196533" lon="2.8152198791504"><ele>90</ele><time>2026-4-28T21:50:24Z</time></trkpt>
<trkpt lat="48.898738861084" lon="2.8150768280029"><ele>89</ele><time>2026-4-28T21:50:27Z</time></trkpt>
<trkpt lat="48.898796081543" lon="2.8149495124817"><ele>89</ele><time>2026-4-28T21:50:30Z</time></trkpt>
<trkpt lat="48.898853302002" lon="2.8148229122162"><ele>90</ele><time>2026-4-28T21:50:33Z</time></trkpt>
<trkpt lat="48.898899078369" lon="2.8147251605988"><ele>90</ele><time>2026-4-28T21:50:36Z</time></trkpt>
<trkpt lat="48.898952484131" lon="2.8146176338196"><ele>90</ele><time>2026-4-28T21:50:39Z</time></trkpt>
<trkpt lat="48.89900970459" lon="2.814484834671"><ele>91</ele><time>2026-4-28T21:50:42Z</time></trkpt>
<trkpt lat="48.899066925049" lon="2.8143510818481"><ele>92</ele><time>2026-4-28T21:50:45Z</time></trkpt>
<trkpt lat="48.899124145508" lon="2.8142066001892"><ele>91</ele><time>2026-4-28T21:50:48Z</time></trkpt>
<trkpt lat="48.899166107178" lon="2.8140723705292"><ele>90</ele><time>2026-4-28T21:50:51Z</time></trkpt>
<trkpt lat="48.89920425415" lon="2.8139255046844"><ele>90</ele><time>2026-4-28T21:50:54Z</time></trkpt>
<trkpt lat="48.899230957031" lon="2.813770532608"><ele>91</ele><time>2026-4-28T21:50:57Z</time></trkpt>
<trkpt lat="48.899250030518" lon="2.8136327266693"><ele>91</ele><time>2026-4-28T21:51:0Z</time></trkpt>
<trkpt lat="48.899261474609" lon="2.813511133194"><ele>91</ele><time>2026-4-28T21:51:3Z</time></trkpt>
<trkpt lat="48.899261474609" lon="2.8133580684662"><ele>90</ele><time>2026-4-28T21:51:6Z</time></trkpt>
<trkpt lat="48.899250030518" lon="2.8132393360138"><ele>90</ele><time>2026-4-28T21:51:9Z</time></trkpt>
<trkpt lat="48.899238586426" lon="2.8131349086761"><ele>90</ele><time>2026-4-28T21:51:12Z</time></trkpt>
<trkpt lat="48.899219512939" lon="2.8130156993866"><ele>90</ele><time>2026-4-28T21:51:15Z</time></trkpt>
<trkpt lat="48.899200439453" lon="2.8128821849823"><ele>90</ele><time>2026-4-28T21:51:18Z</time></trkpt>
<trkpt lat="48.899192810059" lon="2.8127388954163"><ele>90</ele><time>2026-4-28T21:51:21Z</time></trkpt>
<trkpt lat="48.899158477783" lon="2.8125884532928"><ele>88</ele><time>2026-4-28T21:51:24Z</time></trkpt>
<trkpt lat="48.899124145508" lon="2.8124811649323"><ele>88</ele><time>2026-4-28T21:51:27Z</time></trkpt>
<trkpt lat="48.899085998535" lon="2.812388420105"><ele>88</ele><time>2026-4-28T21:51:30Z</time></trkpt>
<trkpt lat="48.899059295654" lon="2.8122756481171"><ele>87</ele><time>2026-4-28T21:51:33Z</time></trkpt>
<trkpt lat="48.899040222168" lon="2.8121428489685"><ele>87</ele><time>2026-4-28T21:51:36Z</time></trkpt>
<trkpt lat="48.899024963379" lon="2.8120155334473"><ele>86</ele><time>2026-4-28T21:51:39Z</time></trkpt>
<trkpt lat="48.898994445801" lon="2.8118853569031"><ele>86</ele><time>2026-4-28T21:51:42Z</time></trkpt>
<trkpt lat="48.898975372314" lon="2.8117945194244"><ele>86</ele><time>2026-4-28T21:51:45Z</time></trkpt>
<trkpt lat="48.898975372314" lon="2.8117945194244"><ele>86</ele><time>2026-4-28T21:51:48Z</time></trkpt>
<trkpt lat="48.898944854736" lon="2.8116359710693"><ele>86</ele><time>2026-4-28T21:51:51Z</time></trkpt>
<trkpt lat="48.898944854736" lon="2.8116359710693"><ele>86</ele><time>2026-4-28T21:51:54Z</time></trkpt>
<trkpt lat="48.898918151855" lon="2.8115377426147"><ele>86</ele><time>2026-4-28T21:51:57Z</time></trkpt>
<trkpt lat="48.898952484131" lon="2.8114945888519"><ele>86</ele><time>2026-4-28T21:52:0Z</time></trkpt>
<trkpt lat="48.898998260498" lon="2.8114657402039"><ele>87</ele><time>2026-4-28T21:52:3Z</time></trkpt>
<trkpt lat="48.899036407471" lon="2.8114438056946"><ele>87</ele><time>2026-4-28T21:52:6Z</time></trkpt>
<trkpt lat="48.899074554443" lon="2.8114273548126"><ele>87</ele><time>2026-4-28T21:52:9Z</time></trkpt>
<trkpt lat="48.899112701416" lon="2.811411857605"><ele>87</ele><time>2026-4-28T21:52:12Z</time></trkpt>
<trkpt lat="48.899211883545" lon="2.8113687038422"><ele>87</ele><time>2026-4-28T21:52:15Z</time></trkpt>
<trkpt lat="48.899284362793" lon="2.8113615512848"><ele>87</ele><time>2026-4-28T21:52:18Z</time></trkpt>
<trkpt lat="48.899333953857" lon="2.8117809295654"><ele>91</ele><time>2026-4-28T21:52:21Z</time></trkpt>
<trkpt lat="48.899360656738" lon="2.8120110034943"><ele>90</ele><time>2026-4-28T21:52:24Z</time></trkpt>
<trkpt lat="48.899391174316" lon="2.8122069835663"><ele>89</ele><time>2026-4-28T21:52:27Z</time></trkpt>
<trkpt lat="48.899421691895" lon="2.8123965263367"><ele>86</ele><time>2026-4-28T21:52:30Z</time></trkpt>
<trkpt lat="48.899444580078" lon="2.8125846385956"><ele>85</ele><time>2026-4-28T21:52:33Z</time></trkpt>
<trkpt lat="48.899471282959" lon="2.8127825260162"><ele>85</ele><time>2026-4-28T21:52:36Z</time></trkpt>
<trkpt lat="48.899505615234" lon="2.8129692077637"><ele>86</ele><time>2026-4-28T21:52:39Z</time></trkpt>
<trkpt lat="48.899532318115" lon="2.813129901886"><ele>87</ele><time>2026-4-28T21:52:42Z</time></trkpt>
<trkpt lat="48.899555206299" lon="2.8132846355438"><ele>86</ele><time>2026-4-28T21:52:45Z</time></trkpt>
<trkpt lat="48.899578094482" lon="2.8134639263153"><ele>86</ele><time>2026-4-28T21:52:48Z</time></trkpt>
<trkpt lat="48.899597167969" lon="2.8136315345764"><ele>86</ele><time>2026-4-28T21:52:51Z</time></trkpt>
<trkpt lat="48.899620056152" lon="2.8137974739075"><ele>86</ele><time>2026-4-28T21:52:54Z</time></trkpt>
<trkpt lat="48.899639129639" lon="2.8139591217041"><ele>86</ele><time>2026-4-28T21:52:57Z</time></trkpt>
<trkpt lat="48.899658203125" lon="2.814124584198"><ele>86</ele><time>2026-4-28T21:53:0Z</time></trkpt>
<trkpt lat="48.899684906006" lon="2.8143100738525"><ele>88</ele><time>2026-4-28T21:53:3Z</time></trkpt>
<trkpt lat="48.899707794189" lon="2.8144590854645"><ele>90</ele><time>2026-4-28T21:53:6Z</time></trkpt>
<trkpt lat="48.89973449707" lon="2.8146243095398"><ele>90</ele><time>2026-4-28T21:53:9Z</time></trkpt>
<trkpt lat="48.899765014648" lon="2.8147873878479"><ele>90</ele><time>2026-4-28T21:53:12Z</time></trkpt>
<trkpt lat="48.899787902832" lon="2.814927816391"><ele>90</ele><time>2026-4-28T21:53:15Z</time></trkpt>
<trkpt lat="48.899803161621" lon="2.8150658607483"><ele>90</ele><time>2026-4-28T21:53:18Z</time></trkpt>
<trkpt lat="48.899814605713" lon="2.8152270317078"><ele>88</ele><time>2026-4-28T21:53:21Z</time></trkpt>
<trkpt lat="48.899833679199" lon="2.8153548240662"><ele>89</ele><time>2026-4-28T21:53:24Z</time></trkpt>
<trkpt lat="48.899856567383" lon="2.8154871463776"><ele>90</ele><time>2026-4-28T21:53:27Z</time></trkpt>
<trkpt lat="48.899875640869" lon="2.8155941963196"><ele>91</ele><time>2026-4-28T21:53:30Z</time></trkpt>
<trkpt lat="48.899898529053" lon="2.815737247467"><ele>92</ele><time>2026-4-28T21:53:33Z</time></trkpt>
<trkpt lat="48.899929046631" lon="2.8158738613129"><ele>91</ele><time>2026-4-28T21:53:36Z</time></trkpt>
<trkpt lat="48.899948120117" lon="2.8159902095795"><ele>91</ele><time>2026-4-28T21:53:39Z</time></trkpt>
<trkpt lat="48.899963378906" lon="2.8161118030548"><ele>92</ele><time>2026-4-28T21:53:42Z</time></trkpt>
<trkpt lat="48.899974822998" lon="2.8162751197815"><ele>93</ele><time>2026-4-28T21:53:45Z</time></trkpt>
<trkpt lat="48.899993896484" lon="2.8164446353912"><ele>92</ele><time>2026-4-28T21:53:48Z</time></trkpt>
<trkpt lat="48.900009155273" lon="2.8165829181671"><ele>91</ele><time>2026-4-28T21:53:51Z</time></trkpt>
<trkpt lat="48.90002822876" lon="2.8167119026184"><ele>90</ele><time>2026-4-28T21:53:54Z</time></trkpt>
<trkpt lat="48.900051116943" lon="2.8168647289276"><ele>90</ele><time>2026-4-28T21:53:57Z</time></trkpt>
<trkpt lat="48.900089263916" lon="2.8170721530914"><ele>89</ele><time>2026-4-28T21:54:0Z</time></trkpt>
<trkpt lat="48.900119781494" lon="2.8172051906586"><ele>88</ele><time>2026-4-28T21:54:3Z</time></trkpt>
<trkpt lat="48.900142669678" lon="2.8172872066498"><ele>88</ele><time>2026-4-28T21:54:6Z</time></trkpt>
<trkpt lat="48.900161743164" lon="2.8173820972443"><ele>88</ele><time>2026-4-28T21:54:9Z</time></trkpt>
<trkpt lat="48.900161743164" lon="2.8173820972443"><ele>88</ele><time>2026-4-28T21:54:12Z</time></trkpt>
<trkpt lat="48.900207519531" lon="2.8175082206726"><ele>89</ele><time>2026-4-28T21:54:15Z</time></trkpt>
<trkpt lat="48.900238037109" lon="2.8175823688507"><ele>89</ele><time>2026-4-28T21:54:18Z</time></trkpt>
<trkpt lat="48.900238037109" lon="2.8175823688507"><ele>89</ele><time>2026-4-28T21:54:21Z</time></trkpt>
<trkpt lat="48.900234222412" lon="2.8177440166473"><ele>90</ele><time>2026-4-28T21:54:24Z</time></trkpt>
<trkpt lat="48.900245666504" lon="2.817880153656"><ele>90</ele><time>2026-4-28T21:54:27Z</time></trkpt>
<trkpt lat="48.900257110596" lon="2.8180313110352"><ele>90</ele><time>2026-4-28T21:54:30Z</time></trkpt>
<trkpt lat="48.900272369385" lon="2.818202495575"><ele>89</ele><time>2026-4-28T21:54:33Z</time></trkpt>
<trkpt lat="48.900276184082" lon="2.8184072971344"><ele>89</ele><time>2026-4-28T21:54:36Z</time></trkpt>
<trkpt lat="48.900287628174" lon="2.8186156749725"><ele>89</ele><time>2026-4-28T21:54:39Z</time></trkpt>
<trkpt lat="48.900283813477" lon="2.8187992572784"><ele>88</ele><time>2026-4-28T21:54:42Z</time></trkpt>
<trkpt lat="48.900302886963" lon="2.8189613819122"><ele>87</ele><time>2026-4-28T21:54:45Z</time></trkpt>
<trkpt lat="48.90034866333" lon="2.8191249370575"><ele>87</ele><time>2026-4-28T21:54:48Z</time></trkpt>
<trkpt lat="48.900382995605" lon="2.8192756175995"><ele>87</ele><time>2026-4-28T21:54:51Z</time></trkpt>
<trkpt lat="48.900424957275" lon="2.8194420337677"><ele>88</ele><time>2026-4-28T21:54:54Z</time></trkpt>
<trkpt lat="48.900459289551" lon="2.8196177482605"><ele>88</ele><time>2026-4-28T21:54:57Z</time></trkpt>
<trkpt lat="48.900489807129" lon="2.8197755813599"><ele>90</ele><time>2026-4-28T21:55:0Z</time></trkpt>
<trkpt lat="48.900520324707" lon="2.8199291229248"><ele>90</ele><time>2026-4-28T21:55:3Z</time></trkpt>
<trkpt lat="48.900543212891" lon="2.8201086521149"><ele>90</ele><time>2026-4-28T21:55:6Z</time></trkpt>
<trkpt lat="48.900569915771" lon="2.8202641010284"><ele>90</ele><time>2026-4-28T21:55:9Z</time></trkpt>
<trkpt lat="48.900592803955" lon="2.8203959465027"><ele>90</ele><time>2026-4-28T21:55:12Z</time></trkpt>
<trkpt lat="48.900611877441" lon="2.8205454349518"><ele>89</ele><time>2026-4-28T21:55:15Z</time></trkpt>
<trkpt lat="48.900638580322" lon="2.8206932544708"><ele>89</ele><time>2026-4-28T21:55:18Z</time></trkpt>
<trkpt lat="48.900657653809" lon="2.8208329677582"><ele>89</ele><time>2026-4-28T21:55:21Z</time></trkpt>
<trkpt lat="48.900676727295" lon="2.8209574222565"><ele>88</ele><time>2026-4-28T21:55:24Z</time></trkpt>
<trkpt lat="48.900691986084" lon="2.8210742473602"><ele>89</ele><time>2026-4-28T21:55:27Z</time></trkpt>
<trkpt lat="48.900707244873" lon="2.821236371994"><ele>90</ele><time>2026-4-28T21:55:30Z</time></trkpt>
<trkpt lat="48.90071105957" lon="2.8213849067688"><ele>90</ele><time>2026-4-28T21:55:33Z</time></trkpt>
<trkpt lat="48.900730133057" lon="2.8214898109436"><ele>90</ele><time>2026-4-28T21:55:36Z</time></trkpt>
<trkpt lat="48.900741577148" lon="2.8215770721436"><ele>90</ele><time>2026-4-28T21:55:39Z</time></trkpt>
<trkpt lat="48.900741577148" lon="2.8215770721436"><ele>90</ele><time>2026-4-28T21:55:42Z</time></trkpt>
<trkpt lat="48.900741577148" lon="2.8215770721436"><ele>90</ele><time>2026-4-28T21:55:45Z</time></trkpt>
<trkpt lat="48.900741577148" lon="2.8215770721436"><ele>90</ele><time>2026-4-28T21:55:48Z</time></trkpt>
<trkpt lat="48.900741577148" lon="2.8215770721436"><ele>90</ele><time>2026-4-28T21:55:51Z</time></trkpt>
<trkpt lat="48.900741577148" lon="2.8215770721436"><ele>90</ele><time>2026-4-28T21:55:54Z</time></trkpt>
<trkpt lat="48.900741577148" lon="2.8215770721436"><ele>90</ele><time>2026-4-28T21:55:57Z</time></trkpt>
<trkpt lat="48.900733947754" lon="2.8216805458069"><ele>90</ele><time>2026-4-28T21:56:0Z</time></trkpt>
<trkpt lat="48.900745391846" lon="2.8217828273773"><ele>90</ele><time>2026-4-28T21:56:3Z</time></trkpt>
<trkpt lat="48.900764465332" lon="2.8218910694122"><ele>91</ele><time>2026-4-28T21:56:6Z</time></trkpt>
<trkpt lat="48.900787353516" lon="2.822012424469"><ele>93</ele><time>2026-4-28T21:56:9Z</time></trkpt>
<trkpt lat="48.900814056396" lon="2.8221447467804"><ele>93</ele><time>2026-4-28T21:56:12Z</time></trkpt>
<trkpt lat="48.900867462158" lon="2.8224177360535"><ele>93</ele><time>2026-4-28T21:56:15Z</time></trkpt>
<trkpt lat="48.900886535645" lon="2.8225743770599"><ele>93</ele><time>2026-4-28T21:56:18Z</time></trkpt>
<trkpt lat="48.900909423828" lon="2.8227157592773"><ele>93</ele><time>2026-4-28T21:56:21Z</time></trkpt>
<trkpt lat="48.900943756104" lon="2.8228540420532"><ele>93</ele><time>2026-4-28T21:56:24Z</time></trkpt>
<trkpt lat="48.900974273682" lon="2.8230118751526"><ele>93</ele><time>2026-4-28T21:56:27Z</time></trkpt>
<trkpt lat="48.901008605957" lon="2.8231630325317"><ele>92</ele><time>2026-4-28T21:56:30Z</time></trkpt>
<trkpt lat="48.90104675293" lon="2.8233213424683"><ele>91</ele><time>2026-4-28T21:56:33Z</time></trkpt>
<trkpt lat="48.901077270508" lon="2.8234558105469"><ele>91</ele><time>2026-4-28T21:56:36Z</time></trkpt>
<trkpt lat="48.901096343994" lon="2.823587179184"><ele>90</ele><time>2026-4-28T21:56:39Z</time></trkpt>
<trkpt lat="48.901123046875" lon="2.8237190246582"><ele>91</ele><time>2026-4-28T21:56:42Z</time></trkpt>
<trkpt lat="48.901134490967" lon="2.8238723278046"><ele>91</ele><time>2026-4-28T21:56:45Z</time></trkpt>
<trkpt lat="48.901138305664" lon="2.8240399360657"><ele>91</ele><time>2026-4-28T21:56:48Z</time></trkpt>
<trkpt lat="48.901161193848" lon="2.8241965770721"><ele>90</ele><time>2026-4-28T21:56:51Z</time></trkpt>
<trkpt lat="48.901187896729" lon="2.8243696689606"><ele>90</ele><time>2026-4-28T21:56:54Z</time></trkpt>
<trkpt lat="48.901187896729" lon="2.8245258331299"><ele>88</ele><time>2026-4-28T21:56:57Z</time></trkpt>
<trkpt lat="48.90119934082" lon="2.824690580368"><ele>87</ele><time>2026-4-28T21:57:0Z</time></trkpt>
<trkpt lat="48.901214599609" lon="2.8248665332794"><ele>86</ele><time>2026-4-28T21:57:3Z</time></trkpt>
<trkpt lat="48.901218414307" lon="2.8250317573547"><ele>86</ele><time>2026-4-28T21:57:6Z</time></trkpt>
<trkpt lat="48.901206970215" lon="2.8252022266388"><ele>85</ele><time>2026-4-28T21:57:9Z</time></trkpt>
<trkpt lat="48.901184082031" lon="2.825400352478"><ele>85</ele><time>2026-4-28T21:57:12Z</time></trkpt>
<trkpt lat="48.901176452637" lon="2.8255679607391"><ele>85</ele><time>2026-4-28T21:57:15Z</time></trkpt>
<trkpt lat="48.901149749756" lon="2.8257193565369"><ele>86</ele><time>2026-4-28T21:57:18Z</time></trkpt>
<trkpt lat="48.901119232178" lon="2.8258600234985"><ele>87</ele><time>2026-4-28T21:57:21Z</time></trkpt>
<trkpt lat="48.901073455811" lon="2.8259971141815"><ele>88</ele><time>2026-4-28T21:57:24Z</time></trkpt>
<trkpt lat="48.901035308838" lon="2.826150894165"><ele>89</ele><time>2026-4-28T21:57:27Z</time></trkpt>
<trkpt lat="48.901020050049" lon="2.8263323307037"><ele>89</ele><time>2026-4-28T21:57:30Z</time></trkpt>
<trkpt lat="48.90100479126" lon="2.8264722824097"><ele>88</ele><time>2026-4-28T21:57:33Z</time></trkpt>
<trkpt lat="48.900974273682" lon="2.8266196250916"><ele>87</ele><time>2026-4-28T21:57:36Z</time></trkpt>
<trkpt lat="48.900951385498" lon="2.8267714977264"><ele>87</ele><time>2026-4-28T21:57:39Z</time></trkpt>
<trkpt lat="48.900932312012" lon="2.8269348144531"><ele>88</ele><time>2026-4-28T21:57:42Z</time></trkpt>
<trkpt lat="48.900917053223" lon="2.8270933628082"><ele>88</ele><time>2026-4-28T21:57:45Z</time></trkpt>
<trkpt lat="48.900894165039" lon="2.8272273540497"><ele>89</ele><time>2026-4-28T21:57:48Z</time></trkpt>
<trkpt lat="48.900894165039" lon="2.8272273540497"><ele>89</ele><time>2026-4-28T21:57:51Z</time></trkpt>
<trkpt lat="48.900833129883" lon="2.8274772167206"><ele>89</ele><time>2026-4-28T21:57:54Z</time></trkpt>
<trkpt lat="48.900806427002" lon="2.8276195526123"><ele>88</ele><time>2026-4-28T21:57:57Z</time></trkpt>
<trkpt lat="48.900772094727" lon="2.8277621269226"><ele>88</ele><time>2026-4-28T21:58:0Z</time></trkpt>
<trkpt lat="48.900730133057" lon="2.8278937339783"><ele>88</ele><time>2026-4-28T21:58:3Z</time></trkpt>
<trkpt lat="48.900684356689" lon="2.8280482292175"><ele>88</ele><time>2026-4-28T21:58:6Z</time></trkpt>
<trkpt lat="48.90062713623" lon="2.8281989097595"><ele>87</ele><time>2026-4-28T21:58:9Z</time></trkpt>
<trkpt lat="48.900569915771" lon="2.8283622264862"><ele>86</ele><time>2026-4-28T21:58:12Z</time></trkpt>
<trkpt lat="48.900508880615" lon="2.8285176753998"><ele>88</ele><time>2026-4-28T21:58:15Z</time></trkpt>
<trkpt lat="48.900451660156" lon="2.8286695480347"><ele>89</ele><time>2026-4-28T21:58:18Z</time></trkpt>
<trkpt lat="48.900386810303" lon="2.8288140296936"><ele>89</ele><time>2026-4-28T21:58:21Z</time></trkpt>
<trkpt lat="48.900325775146" lon="2.8289389610291"><ele>88</ele><time>2026-4-28T21:58:24Z</time></trkpt>
<trkpt lat="48.900257110596" lon="2.8290894031525"><ele>88</ele><time>2026-4-28T21:58:27Z</time></trkpt>
<trkpt lat="48.900184631348" lon="2.8292555809021"><ele>87</ele><time>2026-4-28T21:58:30Z</time></trkpt>
<trkpt lat="48.9001121521" lon="2.8294022083282"><ele>86</ele><time>2026-4-28T21:58:33Z</time></trkpt>
<trkpt lat="48.900043487549" lon="2.8295407295227"><ele>87</ele><time>2026-4-28T21:58:36Z</time></trkpt>
<trkpt lat="48.899982452393" lon="2.8296806812286"><ele>88</ele><time>2026-4-28T21:58:39Z</time></trkpt>
<trkpt lat="48.899917602539" lon="2.8298048973083"><ele>89</ele><time>2026-4-28T21:58:42Z</time></trkpt>
<trkpt lat="48.899868011475" lon="2.8299281597137"><ele>89</ele><time>2026-4-28T21:58:45Z</time></trkpt>
<trkpt lat="48.899814605713" lon="2.8300580978394"><ele>90</ele><time>2026-4-28T21:58:48Z</time></trkpt>
<trkpt lat="48.899753570557" lon="2.8301920890808"><ele>89</ele><time>2026-4-28T21:58:51Z</time></trkpt>
<trkpt lat="48.899696350098" lon="2.8303277492523"><ele>88</ele><time>2026-4-28T21:58:54Z</time></trkpt>
<trkpt lat="48.89965057373" lon="2.8304722309113"><ele>87</ele><time>2026-4-28T21:58:57Z</time></trkpt>
<trkpt lat="48.899620056152" lon="2.8306295871735"><ele>87</ele><time>2026-4-28T21:59:0Z</time></trkpt>
<trkpt lat="48.899574279785" lon="2.8307785987854"><ele>88</ele><time>2026-4-28T21:59:3Z</time></trkpt>
<trkpt lat="48.899524688721" lon="2.8309333324432"><ele>89</ele><time>2026-4-28T21:59:6Z</time></trkpt>
<trkpt lat="48.899478912354" lon="2.8310866355896"><ele>90</ele><time>2026-4-28T21:59:9Z</time></trkpt>
<trkpt lat="48.899425506592" lon="2.8312299251556"><ele>89</ele><time>2026-4-28T21:59:12Z</time></trkpt>
<trkpt lat="48.899387359619" lon="2.8313701152802"><ele>90</ele><time>2026-4-28T21:59:15Z</time></trkpt>
<trkpt lat="48.899353027344" lon="2.8315231800079"><ele>91</ele><time>2026-4-28T21:59:18Z</time></trkpt>
<trkpt lat="48.899322509766" lon="2.831702709198"><ele>91</ele><time>2026-4-28T21:59:21Z</time></trkpt>
<trkpt lat="48.899303436279" lon="2.83185338974"><ele>92</ele><time>2026-4-28T21:59:24Z</time></trkpt>
<trkpt lat="48.899303436279" lon="2.83185338974"><ele>92</ele><time>2026-4-28T21:59:27Z</time></trkpt>
<trkpt lat="48.899284362793" lon="2.8320009708405"><ele>92</ele><time>2026-4-28T21:59:30Z</time></trkpt>
<trkpt lat="48.899284362793" lon="2.8320009708405"><ele>92</ele><time>2026-4-28T21:59:33Z</time></trkpt>
<trkpt lat="48.899269104004" lon="2.8321287631989"><ele>92</ele><time>2026-4-28T21:59:36Z</time></trkpt>
<trkpt lat="48.899269104004" lon="2.8321287631989"><ele>92</ele><time>2026-4-28T21:59:39Z</time></trkpt>
<trkpt lat="48.899219512939" lon="2.8321809768677"><ele>92</ele><time>2026-4-28T21:59:42Z</time></trkpt>
<trkpt lat="48.899219512939" lon="2.8321809768677"><ele>92</ele><time>2026-4-28T21:59:45Z</time></trkpt>
<trkpt lat="48.899150848389" lon="2.8321287631989"><ele>92</ele><time>2026-4-28T21:59:48Z</time></trkpt>
<trkpt lat="48.899150848389" lon="2.8321287631989"><ele>92</ele><time>2026-4-28T21:59:51Z</time></trkpt>
<trkpt lat="48.899150848389" lon="2.8321287631989"><ele>92</ele><time>2026-4-28T21:59:54Z</time></trkpt>
<trkpt lat="48.899150848389" lon="2.8321287631989"><ele>92</ele><time>2026-4-28T21:59:57Z</time></trkpt>
<trkpt lat="48.899150848389" lon="2.8321287631989"><ele>92</ele><time>2026-4-28T22:0:0Z</time></trkpt>
<trkpt lat="48.899242401123" lon="2.8323276042938"><ele>94</ele><time>2026-4-28T22:0:3Z</time></trkpt>
<trkpt lat="48.899227142334" lon="2.8324458599091"><ele>94</ele><time>2026-4-28T22:0:6Z</time></trkpt>
<trkpt lat="48.89920425415" lon="2.8326280117035"><ele>93</ele><time>2026-4-28T22:0:9Z</time></trkpt>
<trkpt lat="48.899173736572" lon="2.8327746391296"><ele>91</ele><time>2026-4-28T22:0:12Z</time></trkpt>
<trkpt lat="48.899120330811" lon="2.8329858779907"><ele>91</ele><time>2026-4-28T22:0:15Z</time></trkpt>
<trkpt lat="48.899097442627" lon="2.8330709934235"><ele>91</ele><time>2026-4-28T22:0:18Z</time></trkpt>
<trkpt lat="48.89909362793" lon="2.8331823348999"><ele>91</ele><time>2026-4-28T22:0:21Z</time></trkpt>
<trkpt lat="48.899078369141" lon="2.8332831859589"><ele>91</ele><time>2026-4-28T22:0:24Z</time></trkpt>
<trkpt lat="48.899063110352" lon="2.8333702087402"><ele>91</ele><time>2026-4-28T22:0:27Z</time></trkpt>
<trkpt lat="48.89905166626" lon="2.8334782123566"><ele>91</ele><time>2026-4-28T22:0:30Z</time></trkpt>
<trkpt lat="48.899028778076" lon="2.8335647583008"><ele>91</ele><time>2026-4-28T22:0:33Z</time></trkpt>
<trkpt lat="48.899002075195" lon="2.8337483406067"><ele>91</ele><time>2026-4-28T22:0:36Z</time></trkpt>
<trkpt lat="48.898990631104" lon="2.8338775634766"><ele>93</ele><time>2026-4-28T22:0:39Z</time></trkpt>
<trkpt lat="48.89896774292" lon="2.8340337276459"><ele>93</ele><time>2026-4-28T22:0:42Z</time></trkpt>
<trkpt lat="48.898952484131" lon="2.8341965675354"><ele>93</ele><time>2026-4-28T22:0:45Z</time></trkpt>
<trkpt lat="48.898941040039" lon="2.834349155426"><ele>92</ele><time>2026-4-28T22:0:48Z</time></trkpt>
<trkpt lat="48.898929595947" lon="2.8345031738281"><ele>90</ele><time>2026-4-28T22:0:51Z</time></trkpt>
<trkpt lat="48.898918151855" lon="2.8346526622772"><ele>89</ele><time>2026-4-28T22:0:54Z</time></trkpt>
<trkpt lat="48.898910522461" lon="2.8348541259766"><ele>88</ele><time>2026-4-28T22:0:57Z</time></trkpt>
<trkpt lat="48.898902893066" lon="2.8350183963776"><ele>87</ele><time>2026-4-28T22:1:0Z</time></trkpt>
<trkpt lat="48.898887634277" lon="2.8351628780365"><ele>87</ele><time>2026-4-28T22:1:3Z</time></trkpt>
<trkpt lat="48.898868560791" lon="2.8353173732758"><ele>88</ele><time>2026-4-28T22:1:6Z</time></trkpt>
<trkpt lat="48.898860931396" lon="2.835499048233"><ele>88</ele><time>2026-4-28T22:1:9Z</time></trkpt>
<trkpt lat="48.898857116699" lon="2.8356826305389"><ele>89</ele><time>2026-4-28T22:1:12Z</time></trkpt>
<trkpt lat="48.898857116699" lon="2.8358776569366"><ele>89</ele><time>2026-4-28T22:1:15Z</time></trkpt>
<trkpt lat="48.898845672607" lon="2.8360486030579"><ele>90</ele><time>2026-4-28T22:1:18Z</time></trkpt>
<trkpt lat="48.89884185791" lon="2.8362157344818"><ele>90</ele><time>2026-4-28T22:1:21Z</time></trkpt>
<trkpt lat="48.898853302002" lon="2.836353302002"><ele>90</ele><time>2026-4-28T22:1:24Z</time></trkpt>
<trkpt lat="48.898876190186" lon="2.8365044593811"><ele>90</ele><time>2026-4-28T22:1:27Z</time></trkpt>
<trkpt lat="48.898899078369" lon="2.8366765975952"><ele>90</ele><time>2026-4-28T22:1:30Z</time></trkpt>
<trkpt lat="48.898921966553" lon="2.8368358612061"><ele>91</ele><time>2026-4-28T22:1:33Z</time></trkpt>
<trkpt lat="48.898933410645" lon="2.8369936943054"><ele>93</ele><time>2026-4-28T22:1:36Z</time></trkpt>
<trkpt lat="48.898937225342" lon="2.8371691703796"><ele>93</ele><time>2026-4-28T22:1:39Z</time></trkpt>
<trkpt lat="48.898944854736" lon="2.8373208045959"><ele>92</ele><time>2026-4-28T22:1:42Z</time></trkpt>
<trkpt lat="48.898952484131" lon="2.8374998569489"><ele>93</ele><time>2026-4-28T22:1:45Z</time></trkpt>
<trkpt lat="48.898963928223" lon="2.837671995163"><ele>94</ele><time>2026-4-28T22:1:48Z</time></trkpt>
<trkpt lat="48.898990631104" lon="2.8378450870514"><ele>95</ele><time>2026-4-28T22:1:51Z</time></trkpt>
<trkpt lat="48.899021148682" lon="2.8380138874054"><ele>96</ele><time>2026-4-28T22:1:54Z</time></trkpt>
<trkpt lat="48.899047851562" lon="2.8381826877594"><ele>96</ele><time>2026-4-28T22:1:57Z</time></trkpt>
<trkpt lat="48.899070739746" lon="2.838339805603"><ele>96</ele><time>2026-4-28T22:2:0Z</time></trkpt>
<trkpt lat="48.899101257324" lon="2.838495016098"><ele>97</ele><time>2026-4-28T22:2:3Z</time></trkpt>
<trkpt lat="48.899127960205" lon="2.8386495113373"><ele>96</ele><time>2026-4-28T22:2:6Z</time></trkpt>
<trkpt lat="48.899169921875" lon="2.838846206665"><ele>95</ele><time>2026-4-28T22:2:9Z</time></trkpt>
<trkpt lat="48.89920425415" lon="2.8390381336212"><ele>94</ele><time>2026-4-28T22:2:12Z</time></trkpt>
<trkpt lat="48.899223327637" lon="2.8391959667206"><ele>92</ele><time>2026-4-28T22:2:15Z</time></trkpt>
<trkpt lat="48.899242401123" lon="2.8393504619598"><ele>90</ele><time>2026-4-28T22:2:18Z</time></trkpt>
<trkpt lat="48.899272918701" lon="2.8394989967346"><ele>90</ele><time>2026-4-28T22:2:21Z</time></trkpt>
<trkpt lat="48.899314880371" lon="2.8397047519684"><ele>90</ele><time>2026-4-28T22:2:24Z</time></trkpt>
<trkpt lat="48.899360656738" lon="2.8398771286011"><ele>91</ele><time>2026-4-28T22:2:27Z</time></trkpt>
<trkpt lat="48.899410247803" lon="2.840035200119"><ele>93</ele><time>2026-4-28T22:2:30Z</time></trkpt>
<trkpt lat="48.89945602417" lon="2.8402106761932"><ele>94</ele><time>2026-4-28T22:2:33Z</time></trkpt>
<trkpt lat="48.899509429932" lon="2.8403754234314"><ele>94</ele><time>2026-4-28T22:2:36Z</time></trkpt>
<trkpt lat="48.899562835693" lon="2.8405458927155"><ele>95</ele><time>2026-4-28T22:2:39Z</time></trkpt>
<trkpt lat="48.899608612061" lon="2.840692281723"><ele>96</ele><time>2026-4-28T22:2:42Z</time></trkpt>
<trkpt lat="48.899654388428" lon="2.8408350944519"><ele>96</ele><time>2026-4-28T22:2:45Z</time></trkpt>
<trkpt lat="48.899703979492" lon="2.8409817218781"><ele>95</ele><time>2026-4-28T22:2:48Z</time></trkpt>
<trkpt lat="48.899757385254" lon="2.8411273956299"><ele>93</ele><time>2026-4-28T22:2:51Z</time></trkpt>
<trkpt lat="48.899814605713" lon="2.8412709236145"><ele>92</ele><time>2026-4-28T22:2:54Z</time></trkpt>
<trkpt lat="48.899879455566" lon="2.8414313793182"><ele>92</ele><time>2026-4-28T22:2:57Z</time></trkpt>
<trkpt lat="48.899932861328" lon="2.8415725231171"><ele>91</ele><time>2026-4-28T22:3:0Z</time></trkpt>
<trkpt lat="48.899974822998" lon="2.8417003154755"><ele>92</ele><time>2026-4-28T22:3:3Z</time></trkpt>
<trkpt lat="48.900047302246" lon="2.8418486118317"><ele>92</ele><time>2026-4-28T22:3:6Z</time></trkpt>
<trkpt lat="48.900115966797" lon="2.8419857025146"><ele>92</ele><time>2026-4-28T22:3:9Z</time></trkpt>
<trkpt lat="48.900173187256" lon="2.84210896492"><ele>93</ele><time>2026-4-28T22:3:12Z</time></trkpt>
<trkpt lat="48.900230407715" lon="2.8422334194183"><ele>93</ele><time>2026-4-28T22:3:15Z</time></trkpt>
<trkpt lat="48.900302886963" lon="2.8423693180084"><ele>94</ele><time>2026-4-28T22:3:18Z</time></trkpt>
<trkpt lat="48.900386810303" lon="2.8425064086914"><ele>94</ele><time>2026-4-28T22:3:21Z</time></trkpt>
<trkpt lat="48.900455474854" lon="2.8426365852356"><ele>95</ele><time>2026-4-28T22:3:24Z</time></trkpt>
<trkpt lat="48.900505065918" lon="2.8427493572235"><ele>93</ele><time>2026-4-28T22:3:27Z</time></trkpt>
<trkpt lat="48.900573730469" lon="2.8428723812103"><ele>92</ele><time>2026-4-28T22:3:30Z</time></trkpt>
<trkpt lat="48.900657653809" lon="2.8429956436157"><ele>91</ele><time>2026-4-28T22:3:33Z</time></trkpt>
<trkpt lat="48.900730133057" lon="2.8431167602539"><ele>89</ele><time>2026-4-28T22:3:36Z</time></trkpt>
<trkpt lat="48.90079498291" lon="2.8432197570801"><ele>89</ele><time>2026-4-28T22:3:39Z</time></trkpt>
<trkpt lat="48.900871276855" lon="2.8433332443237"><ele>88</ele><time>2026-4-28T22:3:42Z</time></trkpt>
<trkpt lat="48.900947570801" lon="2.8434367179871"><ele>88</ele><time>2026-4-28T22:3:45Z</time></trkpt>
<trkpt lat="48.901020050049" lon="2.8435418605804"><ele>89</ele><time>2026-4-28T22:3:48Z</time></trkpt>
<trkpt lat="48.901100158691" lon="2.8436532020569"><ele>91</ele><time>2026-4-28T22:3:51Z</time></trkpt>
<trkpt lat="48.901168823242" lon="2.8437485694885"><ele>90</ele><time>2026-4-28T22:3:54Z</time></trkpt>
<trkpt lat="48.901248931885" lon="2.8438436985016"><ele>89</ele><time>2026-4-28T22:3:57Z</time></trkpt>
<trkpt lat="48.901317596436" lon="2.84392619133"><ele>88</ele><time>2026-4-28T22:4:0Z</time></trkpt>
<trkpt lat="48.901397705078" lon="2.8440322875977"><ele>87</ele><time>2026-4-28T22:4:3Z</time></trkpt>
<trkpt lat="48.901470184326" lon="2.8441271781921"><ele>86</ele><time>2026-4-28T22:4:6Z</time></trkpt>
<trkpt lat="48.901538848877" lon="2.8442220687866"><ele>85</ele><time>2026-4-28T22:4:9Z</time></trkpt>
<trkpt lat="48.901607513428" lon="2.8443140983582"><ele>85</ele><time>2026-4-28T22:4:12Z</time></trkpt>
<trkpt lat="48.90168762207" lon="2.8444058895111"><ele>84</ele><time>2026-4-28T22:4:15Z</time></trkpt>
<trkpt lat="48.90177154541" lon="2.8445017337799"><ele>84</ele><time>2026-4-28T22:4:18Z</time></trkpt>
<trkpt lat="48.901851654053" lon="2.8445818424225"><ele>84</ele><time>2026-4-28T22:4:21Z</time></trkpt>
<trkpt lat="48.901943206787" lon="2.8446683883667"><ele>84</ele><time>2026-4-28T22:4:24Z</time></trkpt>
<trkpt lat="48.90202331543" lon="2.844743013382"><ele>85</ele><time>2026-4-28T22:4:27Z</time></trkpt>
<trkpt lat="48.902103424072" lon="2.8448116779327"><ele>86</ele><time>2026-4-28T22:4:30Z</time></trkpt>
<trkpt lat="48.902187347412" lon="2.8448898792267"><ele>85</ele><time>2026-4-28T22:4:33Z</time></trkpt>
<trkpt lat="48.902278900146" lon="2.8449599742889"><ele>84</ele><time>2026-4-28T22:4:36Z</time></trkpt>
<trkpt lat="48.902362823486" lon="2.8450193405151"><ele>84</ele><time>2026-4-28T22:4:39Z</time></trkpt>
<trkpt lat="48.902450561523" lon="2.8450815677643"><ele>83</ele><time>2026-4-28T22:4:42Z</time></trkpt>
<trkpt lat="48.902545928955" lon="2.84517121315"><ele>84</ele><time>2026-4-28T22:4:45Z</time></trkpt>
<trkpt lat="48.902637481689" lon="2.8452453613281"><ele>85</ele><time>2026-4-28T22:4:48Z</time></trkpt>
<trkpt lat="48.902717590332" lon="2.8453044891357"><ele>85</ele><time>2026-4-28T22:4:51Z</time></trkpt>
<trkpt lat="48.902797698975" lon="2.8453664779663"><ele>86</ele><time>2026-4-28T22:4:54Z</time></trkpt>
<trkpt lat="48.902885437012" lon="2.8454222679138"><ele>86</ele><time>2026-4-28T22:4:57Z</time></trkpt>
<trkpt lat="48.902969360352" lon="2.8454759120941"><ele>85</ele><time>2026-4-28T22:5:0Z</time></trkpt>
<trkpt lat="48.903064727783" lon="2.845534324646"><ele>85</ele><time>2026-4-28T22:5:3Z</time></trkpt>
<trkpt lat="48.903144836426" lon="2.8455862998962"><ele>85</ele><time>2026-4-28T22:5:6Z</time></trkpt>
<trkpt lat="48.903224945068" lon="2.8456461429596"><ele>86</ele><time>2026-4-28T22:5:9Z</time></trkpt>
<trkpt lat="48.903297424316" lon="2.8457047939301"><ele>86</ele><time>2026-4-28T22:5:12Z</time></trkpt>
<trkpt lat="48.903388977051" lon="2.845782995224"><ele>87</ele><time>2026-4-28T22:5:15Z</time></trkpt>
<trkpt lat="48.90348815918" lon="2.845860004425"><ele>85</ele><time>2026-4-28T22:5:18Z</time></trkpt>
<trkpt lat="48.903594970703" lon="2.8459515571594"><ele>86</ele><time>2026-4-28T22:5:21Z</time></trkpt>
<trkpt lat="48.903671264648" lon="2.8460192680359"><ele>87</ele><time>2026-4-28T22:5:24Z</time></trkpt>
<trkpt lat="48.903770446777" lon="2.8460967540741"><ele>87</ele><time>2026-4-28T22:5:27Z</time></trkpt>
<trkpt lat="48.903888702393" lon="2.8461811542511"><ele>87</ele><time>2026-4-28T22:5:30Z</time></trkpt>
<trkpt lat="48.903999328613" lon="2.8462517261505"><ele>88</ele><time>2026-4-28T22:5:33Z</time></trkpt>
<trkpt lat="48.904083251953" lon="2.8463172912598"><ele>87</ele><time>2026-4-28T22:5:36Z</time></trkpt>
<trkpt lat="48.90417098999" lon="2.8463714122772"><ele>85</ele><time>2026-4-28T22:5:39Z</time></trkpt>
<trkpt lat="48.904228210449" lon="2.8464090824127"><ele>85</ele><time>2026-4-28T22:5:42Z</time></trkpt>
<trkpt lat="48.904315948486" lon="2.8464913368225"><ele>84</ele><time>2026-4-28T22:5:45Z</time></trkpt>
<trkpt lat="48.90438079834" lon="2.8465600013733"><ele>84</ele><time>2026-4-28T22:5:48Z</time></trkpt>
<trkpt lat="48.90438079834" lon="2.8465600013733"><ele>84</ele><time>2026-4-28T22:5:51Z</time></trkpt>
<trkpt lat="48.90446472168" lon="2.8466396331787"><ele>84</ele><time>2026-4-28T22:5:54Z</time></trkpt>
<trkpt lat="48.904518127441" lon="2.846702337265"><ele>84</ele><time>2026-4-28T22:5:57Z</time></trkpt>
<trkpt lat="48.904518127441" lon="2.846702337265"><ele>84</ele><time>2026-4-28T22:6:0Z</time></trkpt>
<trkpt lat="48.904605865479" lon="2.8467953205109"><ele>84</ele><time>2026-4-28T22:6:3Z</time></trkpt>
<trkpt lat="48.904670715332" lon="2.8468308448792"><ele>84</ele><time>2026-4-28T22:6:6Z</time></trkpt>
<trkpt lat="48.904750823975" lon="2.8468580245972"><ele>84</ele><time>2026-4-28T22:6:9Z</time></trkpt>
<trkpt lat="48.904834747314" lon="2.8469140529633"><ele>84</ele><time>2026-4-28T22:6:12Z</time></trkpt>
<trkpt lat="48.90495300293" lon="2.8470048904419"><ele>84</ele><time>2026-4-28T22:6:15Z</time></trkpt>
<trkpt lat="48.905033111572" lon="2.8470735549927"><ele>84</ele><time>2026-4-28T22:6:18Z</time></trkpt>
<trkpt lat="48.905128479004" lon="2.8471665382385"><ele>84</ele><time>2026-4-28T22:6:21Z</time></trkpt>
<trkpt lat="48.905227661133" lon="2.8472580909729"><ele>85</ele><time>2026-4-28T22:6:24Z</time></trkpt>
<trkpt lat="48.905323028564" lon="2.8473491668701"><ele>85</ele><time>2026-4-28T22:6:27Z</time></trkpt>
<trkpt lat="48.905422210693" lon="2.8474218845367"><ele>87</ele><time>2026-4-28T22:6:30Z</time></trkpt>
<trkpt lat="48.90552520752" lon="2.8475031852722"><ele>89</ele><time>2026-4-28T22:6:33Z</time></trkpt>
<trkpt lat="48.90563583374" lon="2.8476026058197"><ele>88</ele><time>2026-4-28T22:6:36Z</time></trkpt>
<trkpt lat="48.905738830566" lon="2.8477149009705"><ele>87</ele><time>2026-4-28T22:6:39Z</time></trkpt>
<trkpt lat="48.905841827393" lon="2.8478021621704"><ele>88</ele><time>2026-4-28T22:6:42Z</time></trkpt>
<trkpt lat="48.905975341797" lon="2.8479154109955"><ele>88</ele><time>2026-4-28T22:6:45Z</time></trkpt>
<trkpt lat="48.906074523926" lon="2.8479866981506"><ele>89</ele><time>2026-4-28T22:6:48Z</time></trkpt>
<trkpt lat="48.906185150146" lon="2.8480460643768"><ele>88</ele><time>2026-4-28T22:6:51Z</time></trkpt>
<trkpt lat="48.906295776367" lon="2.8481295108795"><ele>88</ele><time>2026-4-28T22:6:54Z</time></trkpt>
<trkpt lat="48.906406402588" lon="2.8482174873352"><ele>89</ele><time>2026-4-28T22:6:57Z</time></trkpt>
<trkpt lat="48.906513214111" lon="2.8482949733734"><ele>89</ele><time>2026-4-28T22:7:0Z</time></trkpt>
<trkpt lat="48.906627655029" lon="2.8483600616455"><ele>89</ele><time>2026-4-28T22:7:3Z</time></trkpt>
<trkpt lat="48.906707763672" lon="2.8484241962433"><ele>89</ele><time>2026-4-28T22:7:6Z</time></trkpt>
<trkpt lat="48.906810760498" lon="2.8484690189362"><ele>90</ele><time>2026-4-28T22:7:9Z</time></trkpt>
<trkpt lat="48.906909942627" lon="2.848503112793"><ele>90</ele><time>2026-4-28T22:7:12Z</time></trkpt>
<trkpt lat="48.907001495361" lon="2.8485674858093"><ele>90</ele><time>2026-4-28T22:7:15Z</time></trkpt>
<trkpt lat="48.907104492188" lon="2.8486411571503"><ele>91</ele><time>2026-4-28T22:7:18Z</time></trkpt>
<trkpt lat="48.907211303711" lon="2.848691701889"><ele>91</ele><time>2026-4-28T22:7:21Z</time></trkpt>
<trkpt lat="48.907314300537" lon="2.8487441539764"><ele>91</ele><time>2026-4-28T22:7:24Z</time></trkpt>
<trkpt lat="48.907409667969" lon="2.8487820625305"><ele>90</ele><time>2026-4-28T22:7:27Z</time></trkpt>
<trkpt lat="48.907501220703" lon="2.8487927913666"><ele>91</ele><time>2026-4-28T22:7:30Z</time></trkpt>
<trkpt lat="48.907604217529" lon="2.8488204479218"><ele>92</ele><time>2026-4-28T22:7:33Z</time></trkpt>
<trkpt lat="48.907691955566" lon="2.8488371372223"><ele>91</ele><time>2026-4-28T22:7:36Z</time></trkpt>
<trkpt lat="48.907775878906" lon="2.8488476276398"><ele>89</ele><time>2026-4-28T22:7:39Z</time></trkpt>
<trkpt lat="48.907863616943" lon="2.8488793373108"><ele>89</ele><time>2026-4-28T22:7:42Z</time></trkpt>
<trkpt lat="48.907955169678" lon="2.8489122390747"><ele>89</ele><time>2026-4-28T22:7:45Z</time></trkpt>
<trkpt lat="48.908020019531" lon="2.8489356040955"><ele>89</ele><time>2026-4-28T22:7:48Z</time></trkpt>
<trkpt lat="48.908092498779" lon="2.8489394187927"><ele>89</ele><time>2026-4-28T22:7:51Z</time></trkpt>
<trkpt lat="48.90816116333" lon="2.8489513397217"><ele>89</ele><time>2026-4-28T22:7:54Z</time></trkpt>
<trkpt lat="48.908214569092" lon="2.8489468097687"><ele>89</ele><time>2026-4-28T22:7:57Z</time></trkpt>
<trkpt lat="48.908214569092" lon="2.8489468097687"><ele>89</ele><time>2026-4-28T22:8:0Z</time></trkpt>
<trkpt lat="48.908279418945" lon="2.8489615917206"><ele>89</ele><time>2026-4-28T22:8:3Z</time></trkpt>
<trkpt lat="48.908279418945" lon="2.8489615917206"><ele>89</ele><time>2026-4-28T22:8:6Z</time></trkpt>
<trkpt lat="48.908279418945" lon="2.8489615917206"><ele>89</ele><time>2026-4-28T22:8:9Z</time></trkpt>
<trkpt lat="48.908279418945" lon="2.8489615917206"><ele>89</ele><time>2026-4-28T22:8:12Z</time></trkpt>
<trkpt lat="48.908279418945" lon="2.8489615917206"><ele>89</ele><time>2026-4-28T22:8:15Z</time></trkpt>
<trkpt lat="48.908294677734" lon="2.8490025997162"><ele>89</ele><time>2026-4-28T22:8:18Z</time></trkpt>
<trkpt lat="48.908290863037" lon="2.8490688800812"><ele>89</ele><time>2026-4-28T22:8:21Z</time></trkpt>
<trkpt lat="48.908279418945" lon="2.8491380214691"><ele>89</ele><time>2026-4-28T22:8:24Z</time></trkpt>
<trkpt lat="48.908267974854" lon="2.8492197990417"><ele>89</ele><time>2026-4-28T22:8:27Z</time></trkpt>
<trkpt lat="48.908248901367" lon="2.8493168354034"><ele>89</ele><time>2026-4-28T22:8:30Z</time></trkpt>
<trkpt lat="48.908214569092" lon="2.8494284152985"><ele>89</ele><time>2026-4-28T22:8:33Z</time></trkpt>
<trkpt lat="48.908100128174" lon="2.849668264389"><ele>89</ele><time>2026-4-28T22:8:36Z</time></trkpt>
<trkpt lat="48.908012390137" lon="2.8497934341431"><ele>89</ele><time>2026-4-28T22:8:39Z</time></trkpt>
<trkpt lat="48.907894134521" lon="2.8499009609222"><ele>90</ele><time>2026-4-28T22:8:42Z</time></trkpt>
<trkpt lat="48.907764434814" lon="2.850029706955"><ele>91</ele><time>2026-4-28T22:8:45Z</time></trkpt>
<trkpt lat="48.90763092041" lon="2.8501734733582"><ele>92</ele><time>2026-4-28T22:8:48Z</time></trkpt>
<trkpt lat="48.907470703125" lon="2.8503274917603"><ele>91</ele><time>2026-4-28T22:8:51Z</time></trkpt>
<trkpt lat="48.907341003418" lon="2.8504593372345"><ele>90</ele><time>2026-4-28T22:8:54Z</time></trkpt>
<trkpt lat="48.907215118408" lon="2.8505828380585"><ele>90</ele><time>2026-4-28T22:8:57Z</time></trkpt>
<trkpt lat="48.90710067749" lon="2.8506970405579"><ele>91</ele><time>2026-4-28T22:9:0Z</time></trkpt>
<trkpt lat="48.907005310059" lon="2.8508043289185"><ele>92</ele><time>2026-4-28T22:9:3Z</time></trkpt>
<trkpt lat="48.906902313232" lon="2.8508231639862"><ele>92</ele><time>2026-4-28T22:9:6Z</time></trkpt>
<trkpt lat="48.906814575195" lon="2.850754737854"><ele>92</ele><time>2026-4-28T22:9:9Z</time></trkpt>
<trkpt lat="48.906723022461" lon="2.850634098053"><ele>92</ele><time>2026-4-28T22:9:12Z</time></trkpt>
<trkpt lat="48.906635284424" lon="2.8505175113678"><ele>92</ele><time>2026-4-28T22:9:15Z</time></trkpt>
<trkpt lat="48.906551361084" lon="2.8504166603088"><ele>92</ele><time>2026-4-28T22:9:18Z</time></trkpt>
<trkpt lat="48.90648651123" lon="2.8503365516663"><ele>93</ele><time>2026-4-28T22:9:21Z</time></trkpt>
<trkpt lat="48.906406402588" lon="2.8502376079559"><ele>93</ele><time>2026-4-28T22:9:24Z</time></trkpt>
<trkpt lat="48.906349182129" lon="2.8501720428467"><ele>94</ele><time>2026-4-28T22:9:27Z</time></trkpt>
<trkpt lat="48.906269073486" lon="2.8500952720642"><ele>96</ele><time>2026-4-28T22:9:30Z</time></trkpt>
<trkpt lat="48.906185150146" lon="2.8500266075134"><ele>97</ele><time>2026-4-28T22:9:33Z</time></trkpt>
<trkpt lat="48.906116485596" lon="2.8499648571014"><ele>98</ele><time>2026-4-28T22:9:36Z</time></trkpt>
<trkpt lat="48.906059265137" lon="2.8499162197113"><ele>98</ele><time>2026-4-28T22:9:39Z</time></trkpt>
<trkpt lat="48.90599822998" lon="2.8498599529266"><ele>98</ele><time>2026-4-28T22:9:42Z</time></trkpt>
<trkpt lat="48.905921936035" lon="2.849794626236"><ele>97</ele><time>2026-4-28T22:9:45Z</time></trkpt>
<trkpt lat="48.905830383301" lon="2.8497130870819"><ele>96</ele><time>2026-4-28T22:9:48Z</time></trkpt>
<trkpt lat="48.905746459961" lon="2.8496408462524"><ele>95</ele><time>2026-4-28T22:9:51Z</time></trkpt>
<trkpt lat="48.905670166016" lon="2.8495755195618"><ele>94</ele><time>2026-4-28T22:9:54Z</time></trkpt>
<trkpt lat="48.90559387207" lon="2.8495235443115"><ele>92</ele><time>2026-4-28T22:9:57Z</time></trkpt>
<trkpt lat="48.905498504639" lon="2.8494617938995"><ele>91</ele><time>2026-4-28T22:10:0Z</time></trkpt>
<trkpt lat="48.905403137207" lon="2.8493900299072"><ele>91</ele><time>2026-4-28T22:10:3Z</time></trkpt>
<trkpt lat="48.90531539917" lon="2.8493182659149"><ele>91</ele><time>2026-4-28T22:10:6Z</time></trkpt>
<trkpt lat="48.905235290527" lon="2.8492479324341"><ele>91</ele><time>2026-4-28T22:10:9Z</time></trkpt>
<trkpt lat="48.905162811279" lon="2.849187374115"><ele>91</ele><time>2026-4-28T22:10:12Z</time></trkpt>
<trkpt lat="48.905097961426" lon="2.8491296768188"><ele>92</ele><time>2026-4-28T22:10:15Z</time></trkpt>
<trkpt lat="48.905029296875" lon="2.8490755558014"><ele>92</ele><time>2026-4-28T22:10:18Z</time></trkpt>
<trkpt lat="48.90495300293" lon="2.8490173816681"><ele>93</ele><time>2026-4-28T22:10:21Z</time></trkpt>
<trkpt lat="48.90486907959" lon="2.8489625453949"><ele>94</ele><time>2026-4-28T22:10:24Z</time></trkpt>
<trkpt lat="48.90478515625" lon="2.8489029407501"><ele>96</ele><time>2026-4-28T22:10:27Z</time></trkpt>
<trkpt lat="48.904697418213" lon="2.8488416671753"><ele>97</ele><time>2026-4-28T22:10:30Z</time></trkpt>
<trkpt lat="48.904636383057" lon="2.8487906455994"><ele>97</ele><time>2026-4-28T22:10:33Z</time></trkpt>
<trkpt lat="48.90454864502" lon="2.8487095832825"><ele>97</ele><time>2026-4-28T22:10:36Z</time></trkpt>
<trkpt lat="48.904468536377" lon="2.848641872406"><ele>97</ele><time>2026-4-28T22:10:39Z</time></trkpt>
<trkpt lat="48.90438079834" lon="2.8485696315765"><ele>97</ele><time>2026-4-28T22:10:42Z</time></trkpt>
<trkpt lat="48.904319763184" lon="2.8485131263733"><ele>97</ele><time>2026-4-28T22:10:45Z</time></trkpt>
<trkpt lat="48.904270172119" lon="2.8484654426575"><ele>97</ele><time>2026-4-28T22:10:48Z</time></trkpt>
<trkpt lat="48.904201507568" lon="2.8484048843384"><ele>97</ele><time>2026-4-28T22:10:51Z</time></trkpt>
<trkpt lat="48.904125213623" lon="2.8483483791351"><ele>97</ele><time>2026-4-28T22:10:54Z</time></trkpt>
<trkpt lat="48.903991699219" lon="2.8482553958893"><ele>97</ele><time>2026-4-28T22:10:57Z</time></trkpt>
<trkpt lat="48.90393447876" lon="2.8481981754303"><ele>97</ele><time>2026-4-28T22:11:0Z</time></trkpt>
<trkpt lat="48.903869628906" lon="2.8481330871582"><ele>97</ele><time>2026-4-28T22:11:3Z</time></trkpt>
<trkpt lat="48.903869628906" lon="2.8481330871582"><ele>97</ele><time>2026-4-28T22:11:6Z</time></trkpt>
<trkpt lat="48.903812408447" lon="2.8480980396271"><ele>96</ele><time>2026-4-28T22:11:9Z</time></trkpt>
<trkpt lat="48.903812408447" lon="2.8480980396271"><ele>96</ele><time>2026-4-28T22:11:12Z</time></trkpt>
<trkpt lat="48.903762817383" lon="2.8481750488281"><ele>96</ele><time>2026-4-28T22:11:15Z</time></trkpt>
<trkpt lat="48.903636932373" lon="2.8483216762543"><ele>98</ele><time>2026-4-28T22:11:18Z</time></trkpt>
<trkpt lat="48.903575897217" lon="2.8483972549438"><ele>101</ele><time>2026-4-28T22:11:21Z</time></trkpt>
<trkpt lat="48.903518676758" lon="2.8485078811646"><ele>101</ele><time>2026-4-28T22:11:24Z</time></trkpt>
<trkpt lat="48.903442382812" lon="2.8486049175262"><ele>102</ele><time>2026-4-28T22:11:27Z</time></trkpt>
<trkpt lat="48.903415679932" lon="2.8486902713776"><ele>105</ele><time>2026-4-28T22:11:30Z</time></trkpt>
<trkpt lat="48.903415679932" lon="2.8486902713776"><ele>105</ele><time>2026-4-28T22:11:33Z</time></trkpt>
<trkpt lat="48.903415679932" lon="2.8486902713776"><ele>105</ele><time>2026-4-28T22:11:36Z</time></trkpt>
<trkpt lat="48.903408050537" lon="2.8488199710846"><ele>106</ele><time>2026-4-28T22:11:39Z</time></trkpt>
<trkpt lat="48.903396606445" lon="2.848935842514"><ele>107</ele><time>2026-4-28T22:11:42Z</time></trkpt>
<trkpt lat="48.903396606445" lon="2.8490953445435"><ele>107</ele><time>2026-4-28T22:11:45Z</time></trkpt>
<trkpt lat="48.903396606445" lon="2.8490953445435"><ele>107</ele><time>2026-4-28T22:11:48Z</time></trkpt>
<trkpt lat="48.903385162354" lon="2.8492257595062"><ele>107</ele><time>2026-4-28T22:11:51Z</time></trkpt>
<trkpt lat="48.903347015381" lon="2.8493819236755"><ele>107</ele><time>2026-4-28T22:11:54Z</time></trkpt>
<trkpt lat="48.90323638916" lon="2.8494429588318"><ele>107</ele><time>2026-4-28T22:11:57Z</time></trkpt>
<trkpt lat="48.903171539307" lon="2.8494229316711"><ele>109</ele><time>2026-4-28T22:12:0Z</time></trkpt>
<trkpt lat="48.903171539307" lon="2.8494229316711"><ele>109</ele><time>2026-4-28T22:12:3Z</time></trkpt>
<trkpt lat="48.90308380127" lon="2.8493723869324"><ele>110</ele><time>2026-4-28T22:12:6Z</time></trkpt>
<trkpt lat="48.903015136719" lon="2.8493275642395"><ele>111</ele><time>2026-4-28T22:12:9Z</time></trkpt>
<trkpt lat="48.902946472168" lon="2.8492991924286"><ele>111</ele><time>2026-4-28T22:12:12Z</time></trkpt>
<trkpt lat="48.902946472168" lon="2.8492991924286"><ele>111</ele><time>2026-4-28T22:12:15Z</time></trkpt>
<trkpt lat="48.902854919434" lon="2.8492212295532"><ele>112</ele><time>2026-4-28T22:12:18Z</time></trkpt>
<trkpt lat="48.902793884277" lon="2.8491771221161"><ele>114</ele><time>2026-4-28T22:12:21Z</time></trkpt>
<trkpt lat="48.902793884277" lon="2.8491771221161"><ele>114</ele><time>2026-4-28T22:12:24Z</time></trkpt>
<trkpt lat="48.902690887451" lon="2.8490822315216"><ele>116</ele><time>2026-4-28T22:12:27Z</time></trkpt>
<trkpt lat="48.902633666992" lon="2.84903383255"><ele>117</ele><time>2026-4-28T22:12:30Z</time></trkpt>
<trkpt lat="48.90258026123" lon="2.8489990234375"><ele>118</ele><time>2026-4-28T22:12:33Z</time></trkpt>
<trkpt lat="48.902496337891" lon="2.8489518165588"><ele>120</ele><time>2026-4-28T22:12:36Z</time></trkpt>
<trkpt lat="48.902431488037" lon="2.8489031791687"><ele>121</ele><time>2026-4-28T22:12:39Z</time></trkpt>
<trkpt lat="48.902351379395" lon="2.8488671779633"><ele>122</ele><time>2026-4-28T22:12:42Z</time></trkpt>
<trkpt lat="48.902252197266" lon="2.8488183021545"><ele>123</ele><time>2026-4-28T22:12:45Z</time></trkpt>
<trkpt lat="48.902187347412" lon="2.8488166332245"><ele>123</ele><time>2026-4-28T22:12:48Z</time></trkpt>
<trkpt lat="48.902187347412" lon="2.8488166332245"><ele>123</ele><time>2026-4-28T22:12:51Z</time></trkpt>
<trkpt lat="48.902130126953" lon="2.8487927913666"><ele>123</ele><time>2026-4-28T22:12:54Z</time></trkpt>
<trkpt lat="48.902130126953" lon="2.8487927913666"><ele>123</ele><time>2026-4-28T22:12:57Z</time></trkpt>
<trkpt lat="48.902130126953" lon="2.8487927913666"><ele>123</ele><time>2026-4-28T22:13:0Z</time></trkpt>
<trkpt lat="48.902076721191" lon="2.8487532138824"><ele>124</ele><time>2026-4-28T22:13:3Z</time></trkpt>
<trkpt lat="48.902076721191" lon="2.8487532138824"><ele>124</ele><time>2026-4-28T22:13:6Z</time></trkpt>
<trkpt lat="48.902076721191" lon="2.8487532138824"><ele>124</ele><time>2026-4-28T22:13:9Z</time></trkpt>
<trkpt lat="48.902057647705" lon="2.8487200737"><ele>124</ele><time>2026-4-28T22:13:12Z</time></trkpt>
<trkpt lat="48.902030944824" lon="2.8486886024475"><ele>124</ele><time>2026-4-28T22:13:15Z</time></trkpt>
<trkpt lat="48.902000427246" lon="2.8486597537994"><ele>124</ele><time>2026-4-28T22:13:18Z</time></trkpt>
<trkpt lat="48.901966094971" lon="2.8486337661743"><ele>124</ele><time>2026-4-28T22:13:21Z</time></trkpt>
<trkpt lat="48.901908874512" lon="2.8485932350159"><ele>125</ele><time>2026-4-28T22:13:24Z</time></trkpt>
<trkpt lat="48.901851654053" lon="2.848560333252"><ele>125</ele><time>2026-4-28T22:13:27Z</time></trkpt>
<trkpt lat="48.901798248291" lon="2.8485260009766"><ele>125</ele><time>2026-4-28T22:13:30Z</time></trkpt>
<trkpt lat="48.901744842529" lon="2.8484950065613"><ele>125</ele><time>2026-4-28T22:13:33Z</time></trkpt>
<trkpt lat="48.901695251465" lon="2.8484702110291"><ele>125</ele><time>2026-4-28T22:13:36Z</time></trkpt>
<trkpt lat="48.901607513428" lon="2.8484127521515"><ele>125</ele><time>2026-4-28T22:13:39Z</time></trkpt>
<trkpt lat="48.901512145996" lon="2.8483769893646"><ele>125</ele><time>2026-4-28T22:13:42Z</time></trkpt>
<trkpt lat="48.901416778564" lon="2.8483145236969"><ele>125</ele><time>2026-4-28T22:13:45Z</time></trkpt>
<trkpt lat="48.901302337646" lon="2.8482320308685"><ele>125</ele><time>2026-4-28T22:13:48Z</time></trkpt>
<trkpt lat="48.901195526123" lon="2.848171710968"><ele>126</ele><time>2026-4-28T22:13:51Z</time></trkpt>
<trkpt lat="48.901096343994" lon="2.8481066226959"><ele>127</ele><time>2026-4-28T22:13:54Z</time></trkpt>
<trkpt lat="48.901039123535" lon="2.8480768203735"><ele>127</ele><time>2026-4-28T22:13:57Z</time></trkpt>
<trkpt lat="48.900951385498" lon="2.8480162620544"><ele>128</ele><time>2026-4-28T22:14:0Z</time></trkpt>
<trkpt lat="48.900951385498" lon="2.8480162620544"><ele>128</ele><time>2026-4-28T22:14:3Z</time></trkpt>
<trkpt lat="48.900882720947" lon="2.8479819297791"><ele>129</ele><time>2026-4-28T22:14:6Z</time></trkpt>
<trkpt lat="48.900882720947" lon="2.8479819297791"><ele>129</ele><time>2026-4-28T22:14:9Z</time></trkpt>
<trkpt lat="48.900772094727" lon="2.8479228019714"><ele>129</ele><time>2026-4-28T22:14:12Z</time></trkpt>
<trkpt lat="48.90064239502" lon="2.8478519916534"><ele>130</ele><time>2026-4-28T22:14:15Z</time></trkpt>
<trkpt lat="48.900569915771" lon="2.847820520401"><ele>130</ele><time>2026-4-28T22:14:18Z</time></trkpt>
<trkpt lat="48.900428771973" lon="2.8477265834808"><ele>130</ele><time>2026-4-28T22:14:21Z</time></trkpt>
<trkpt lat="48.900356292725" lon="2.8476824760437"><ele>130</ele><time>2026-4-28T22:14:24Z</time></trkpt>
<trkpt lat="48.900287628174" lon="2.8476409912109"><ele>131</ele><time>2026-4-28T22:14:27Z</time></trkpt>
<trkpt lat="48.900203704834" lon="2.8475728034973"><ele>131</ele><time>2026-4-28T22:14:30Z</time></trkpt>
<trkpt lat="48.900146484375" lon="2.8475167751312"><ele>131</ele><time>2026-4-28T22:14:33Z</time></trkpt>
<trkpt lat="48.900066375732" lon="2.8474726676941"><ele>131</ele><time>2026-4-28T22:14:36Z</time></trkpt>
<trkpt lat="48.899982452393" lon="2.8474342823029"><ele>131</ele><time>2026-4-28T22:14:39Z</time></trkpt>
<trkpt lat="48.89990234375" lon="2.8473908901215"><ele>132</ele><time>2026-4-28T22:14:42Z</time></trkpt>
<trkpt lat="48.899810791016" lon="2.8473584651947"><ele>132</ele><time>2026-4-28T22:14:45Z</time></trkpt>
<trkpt lat="48.899719238281" lon="2.8474361896515"><ele>131</ele><time>2026-4-28T22:14:48Z</time></trkpt>
<trkpt lat="48.899677276611" lon="2.847505569458"><ele>131</ele><time>2026-4-28T22:14:51Z</time></trkpt>
<trkpt lat="48.89965057373" lon="2.8475916385651"><ele>131</ele><time>2026-4-28T22:14:54Z</time></trkpt>
<trkpt lat="48.899654388428" lon="2.8476929664612"><ele>131</ele><time>2026-4-28T22:14:57Z</time></trkpt>
<trkpt lat="48.89966583252" lon="2.8477976322174"><ele>131</ele><time>2026-4-28T22:15:0Z</time></trkpt>
<trkpt lat="48.899669647217" lon="2.8478903770447"><ele>131</ele><time>2026-4-28T22:15:3Z</time></trkpt>
<trkpt lat="48.899669647217" lon="2.8478903770447"><ele>131</ele><time>2026-4-28T22:15:6Z</time></trkpt>
<trkpt lat="48.899662017822" lon="2.8480491638184"><ele>131</ele><time>2026-4-28T22:15:9Z</time></trkpt>
<trkpt lat="48.899662017822" lon="2.8480491638184"><ele>131</ele><time>2026-4-28T22:15:12Z</time></trkpt>
<trkpt lat="48.899639129639" lon="2.8482141494751"><ele>131</ele><time>2026-4-28T22:15:15Z</time></trkpt>
<trkpt lat="48.899639129639" lon="2.8482141494751"><ele>131</ele><time>2026-4-28T22:15:18Z</time></trkpt>
<trkpt lat="48.89962387085" lon="2.8483533859253"><ele>131</ele><time>2026-4-28T22:15:21Z</time></trkpt>
<trkpt lat="48.89962387085" lon="2.8483533859253"><ele>131</ele><time>2026-4-28T22:15:24Z</time></trkpt>
<trkpt lat="48.899627685547" lon="2.8484752178192"><ele>132</ele><time>2026-4-28T22:15:27Z</time></trkpt>
<trkpt lat="48.899627685547" lon="2.8484752178192"><ele>132</ele><time>2026-4-28T22:15:30Z</time></trkpt>
<trkpt lat="48.89962387085" lon="2.8486247062683"><ele>132</ele><time>2026-4-28T22:15:33Z</time></trkpt>
<trkpt lat="48.89962387085" lon="2.8486247062683"><ele>132</ele><time>2026-4-28T22:15:36Z</time></trkpt>
<trkpt lat="48.899612426758" lon="2.8487575054169"><ele>132</ele><time>2026-4-28T22:15:39Z</time></trkpt>
<trkpt lat="48.899612426758" lon="2.8487575054169"><ele>132</ele><time>2026-4-28T22:15:42Z</time></trkpt>
<trkpt lat="48.899600982666" lon="2.8488771915436"><ele>133</ele><time>2026-4-28T22:15:45Z</time></trkpt>
<trkpt lat="48.899600982666" lon="2.8488771915436"><ele>133</ele><time>2026-4-28T22:15:48Z</time></trkpt>
<trkpt lat="48.899589538574" lon="2.8489925861359"><ele>134</ele><time>2026-4-28T22:15:51Z</time></trkpt>
<trkpt lat="48.899589538574" lon="2.8489925861359"><ele>134</ele><time>2026-4-28T22:15:54Z</time></trkpt>
<trkpt lat="48.899593353271" lon="2.8490920066833"><ele>135</ele><time>2026-4-28T22:15:57Z</time></trkpt>
<trkpt lat="48.899593353271" lon="2.8490920066833"><ele>135</ele><time>2026-4-28T22:16:0Z</time></trkpt>
<trkpt lat="48.899593353271" lon="2.8490920066833"><ele>135</ele><time>2026-4-28T22:16:3Z</time></trkpt>
<trkpt lat="48.899593353271" lon="2.8490920066833"><ele>135</ele><time>2026-4-28T22:16:6Z</time></trkpt>
<trkpt lat="48.899520874023" lon="2.8490524291992"><ele>135</ele><time>2026-4-28T22:16:9Z</time></trkpt>
<trkpt lat="48.899520874023" lon="2.8490524291992"><ele>135</ele><time>2026-4-28T22:16:12Z</time></trkpt>
<trkpt lat="48.899471282959" lon="2.8489999771118"><ele>136</ele><time>2026-4-28T22:16:15Z</time></trkpt>
<trkpt lat="48.899394989014" lon="2.8489208221436"><ele>136</ele><time>2026-4-28T22:16:18Z</time></trkpt>
<trkpt lat="48.899318695068" lon="2.848801612854"><ele>136</ele><time>2026-4-28T22:16:21Z</time></trkpt>
<trkpt lat="48.899276733398" lon="2.8487367630005"><ele>136</ele><time>2026-4-28T22:16:24Z</time></trkpt>
<trkpt lat="48.899223327637" lon="2.8486652374268"><ele>136</ele><time>2026-4-28T22:16:27Z</time></trkpt>
<trkpt lat="48.899158477783" lon="2.8486189842224"><ele>136</ele><time>2026-4-28T22:16:30Z</time></trkpt>
<trkpt lat="48.899097442627" lon="2.8485763072968"><ele>136</ele><time>2026-4-28T22:16:33Z</time></trkpt>
<trkpt lat="48.899021148682" lon="2.8484890460968"><ele>136</ele><time>2026-4-28T22:16:36Z</time></trkpt>
<trkpt lat="48.898872375488" lon="2.8483688831329"><ele>136</ele><time>2026-4-28T22:16:39Z</time></trkpt>
<trkpt lat="48.898769378662" lon="2.8482756614685"><ele>136</ele><time>2026-4-28T22:16:42Z</time></trkpt>
<trkpt lat="48.898693084717" lon="2.8481843471527"><ele>135</ele><time>2026-4-28T22:16:45Z</time></trkpt>
<trkpt lat="48.898601531982" lon="2.8481028079987"><ele>133</ele><time>2026-4-28T22:16:48Z</time></trkpt>
<trkpt lat="48.898509979248" lon="2.8480367660522"><ele>131</ele><time>2026-4-28T22:16:51Z</time></trkpt>
<trkpt lat="48.898334503174" lon="2.847944021225"><ele>131</ele><time>2026-4-28T22:16:54Z</time></trkpt>
<trkpt lat="48.898231506348" lon="2.8478691577911"><ele>131</ele><time>2026-4-28T22:16:57Z</time></trkpt>
<trkpt lat="48.898105621338" lon="2.8477914333344"><ele>131</ele><time>2026-4-28T22:17:0Z</time></trkpt>
<trkpt lat="48.89799118042" lon="2.847706079483"><ele>132</ele><time>2026-4-28T22:17:3Z</time></trkpt>
<trkpt lat="48.89790725708" lon="2.8475904464722"><ele>133</ele><time>2026-4-28T22:17:6Z</time></trkpt>
<trkpt lat="48.897819519043" lon="2.8474793434143"><ele>133</ele><time>2026-4-28T22:17:9Z</time></trkpt>
<trkpt lat="48.897724151611" lon="2.8473432064056"><ele>133</ele><time>2026-4-28T22:17:12Z</time></trkpt>
<trkpt lat="48.89762878418" lon="2.8472125530243"><ele>132</ele><time>2026-4-28T22:17:15Z</time></trkpt>
<trkpt lat="48.897525787354" lon="2.8471195697784"><ele>131</ele><time>2026-4-28T22:17:18Z</time></trkpt>
<trkpt lat="48.89741897583" lon="2.8470392227173"><ele>131</ele><time>2026-4-28T22:17:21Z</time></trkpt>
<trkpt lat="48.897300720215" lon="2.8469104766846"><ele>132</ele><time>2026-4-28T22:17:24Z</time></trkpt>
<trkpt lat="48.897193908691" lon="2.8468244075775"><ele>133</ele><time>2026-4-28T22:17:27Z</time></trkpt>
<trkpt lat="48.897071838379" lon="2.8467130661011"><ele>134</ele><time>2026-4-28T22:17:30Z</time></trkpt>
<trkpt lat="48.896869659424" lon="2.846492767334"><ele>134</ele><time>2026-4-28T22:17:33Z</time></trkpt>
<trkpt lat="48.896934509277" lon="2.8462598323822"><ele>134</ele><time>2026-4-28T22:17:36Z</time></trkpt>
<trkpt lat="48.896980285645" lon="2.84619140625"><ele>133</ele><time>2026-4-28T22:17:39Z</time></trkpt>
<trkpt lat="48.896980285645" lon="2.84619140625"><ele>133</ele><time>2026-4-28T22:17:42Z</time></trkpt>
<trkpt lat="48.897010803223" lon="2.8461425304413"><ele>133</ele><time>2026-4-28T22:17:45Z</time></trkpt>
<trkpt lat="48.897029876709" lon="2.8460915088654"><ele>133</ele><time>2026-4-28T22:17:48Z</time></trkpt>
<trkpt lat="48.897041320801" lon="2.8460524082184"><ele>133</ele><time>2026-4-28T22:17:51Z</time></trkpt>
<trkpt lat="48.897052764893" lon="2.8460104465485"><ele>133</ele><time>2026-4-28T22:17:54Z</time></trkpt>
<trkpt lat="48.897052764893" lon="2.8460104465485"><ele>133</ele><time>2026-4-28T22:17:57Z</time></trkpt>
<trkpt lat="48.897052764893" lon="2.8460104465485"><ele>133</ele><time>2026-4-28T22:18:0Z</time></trkpt>
<trkpt lat="48.897052764893" lon="2.8460104465485"><ele>133</ele><time>2026-4-28T22:18:3Z</time></trkpt>
<trkpt lat="48.897026062012" lon="2.8460538387299"><ele>132</ele><time>2026-4-28T22:18:6Z</time></trkpt>
<trkpt lat="48.896999359131" lon="2.8461010456085"><ele>132</ele><time>2026-4-28T22:18:9Z</time></trkpt>
<trkpt lat="48.896968841553" lon="2.8461453914642"><ele>131</ele><time>2026-4-28T22:18:12Z</time></trkpt>
<trkpt lat="48.896938323975" lon="2.8461892604828"><ele>131</ele><time>2026-4-28T22:18:15Z</time></trkpt>
<trkpt lat="48.896907806396" lon="2.8462381362915"><ele>131</ele><time>2026-4-28T22:18:18Z</time></trkpt>
<trkpt lat="48.896854400635" lon="2.8463439941406"><ele>130</ele><time>2026-4-28T22:18:21Z</time></trkpt>
<trkpt lat="48.896854400635" lon="2.8463439941406"><ele>130</ele><time>2026-4-28T22:18:24Z</time></trkpt>
<trkpt lat="48.896793365479" lon="2.8463959693909"><ele>129</ele><time>2026-4-28T22:18:27Z</time></trkpt>
<trkpt lat="48.896793365479" lon="2.8463959693909"><ele>129</ele><time>2026-4-28T22:18:30Z</time></trkpt>
<trkpt lat="48.896701812744" lon="2.8463716506958"><ele>129</ele><time>2026-4-28T22:18:33Z</time></trkpt>
<trkpt lat="48.896648406982" lon="2.8462970256805"><ele>128</ele><time>2026-4-28T22:18:36Z</time></trkpt>
<trkpt lat="48.89656829834" lon="2.8461916446686"><ele>129</ele><time>2026-4-28T22:18:39Z</time></trkpt>
<trkpt lat="48.896514892578" lon="2.8461329936981"><ele>129</ele><time>2026-4-28T22:18:42Z</time></trkpt>
<trkpt lat="48.896453857422" lon="2.8460364341736"><ele>129</ele><time>2026-4-28T22:18:45Z</time></trkpt>
<trkpt lat="48.896404266357" lon="2.8459494113922"><ele>129</ele><time>2026-4-28T22:18:48Z</time></trkpt>
<trkpt lat="48.896354675293" lon="2.8458728790283"><ele>129</ele><time>2026-4-28T22:18:51Z</time></trkpt>
<trkpt lat="48.896301269531" lon="2.8457999229431"><ele>129</ele><time>2026-4-28T22:18:54Z</time></trkpt>
<trkpt lat="48.89624786377" lon="2.8457410335541"><ele>129</ele><time>2026-4-28T22:18:57Z</time></trkpt>
<trkpt lat="48.896190643311" lon="2.8456790447235"><ele>129</ele><time>2026-4-28T22:19:0Z</time></trkpt>
<trkpt lat="48.89612197876" lon="2.8456227779388"><ele>129</ele><time>2026-4-28T22:19:3Z</time></trkpt>
<trkpt lat="48.89599609375" lon="2.8455264568329"><ele>129</ele><time>2026-4-28T22:19:6Z</time></trkpt>
<trkpt lat="48.895923614502" lon="2.8454549312592"><ele>129</ele><time>2026-4-28T22:19:9Z</time></trkpt>
<trkpt lat="48.895854949951" lon="2.8453357219696"><ele>129</ele><time>2026-4-28T22:19:12Z</time></trkpt>
<trkpt lat="48.895874023438" lon="2.8452091217041"><ele>128</ele><time>2026-4-28T22:19:15Z</time></trkpt>
<trkpt lat="48.895896911621" lon="2.8450634479523"><ele>129</ele><time>2026-4-28T22:19:18Z</time></trkpt>
<trkpt lat="48.89587020874" lon="2.8449084758759"><ele>129</ele><time>2026-4-28T22:19:21Z</time></trkpt>
<trkpt lat="48.895782470703" lon="2.8448164463043"><ele>128</ele><time>2026-4-28T22:19:24Z</time></trkpt>
<trkpt lat="48.895706176758" lon="2.8447682857513"><ele>128</ele><time>2026-4-28T22:19:27Z</time></trkpt>
<trkpt lat="48.89563369751" lon="2.8446762561798"><ele>128</ele><time>2026-4-28T22:19:30Z</time></trkpt>
<trkpt lat="48.895545959473" lon="2.8445932865143"><ele>128</ele><time>2026-4-28T22:19:33Z</time></trkpt>
<trkpt lat="48.895446777344" lon="2.8445534706116"><ele>127</ele><time>2026-4-28T22:19:36Z</time></trkpt>
<trkpt lat="48.895362854004" lon="2.8445544242859"><ele>127</ele><time>2026-4-28T22:19:39Z</time></trkpt>
<trkpt lat="48.89529800415" lon="2.8445756435394"><ele>127</ele><time>2026-4-28T22:19:42Z</time></trkpt>
<trkpt lat="48.895225524902" lon="2.844575881958"><ele>126</ele><time>2026-4-28T22:19:45Z</time></trkpt>
<trkpt lat="48.895122528076" lon="2.8445546627045"><ele>122</ele><time>2026-4-28T22:19:48Z</time></trkpt>
<trkpt lat="48.89501953125" lon="2.844516992569"><ele>122</ele><time>2026-4-28T22:19:51Z</time></trkpt>
<trkpt lat="48.894916534424" lon="2.8444409370422"><ele>123</ele><time>2026-4-28T22:19:54Z</time></trkpt>
<trkpt lat="48.8948097229" lon="2.8443632125854"><ele>122</ele><time>2026-4-28T22:19:57Z</time></trkpt>
<trkpt lat="48.89469909668" lon="2.8442821502686"><ele>121</ele><time>2026-4-28T22:20:0Z</time></trkpt>
<trkpt lat="48.894592285156" lon="2.8441996574402"><ele>120</ele><time>2026-4-28T22:20:3Z</time></trkpt>
<trkpt lat="48.894493103027" lon="2.8441076278687"><ele>121</ele><time>2026-4-28T22:20:6Z</time></trkpt>
<trkpt lat="48.894397735596" lon="2.8440124988556"><ele>120</ele><time>2026-4-28T22:20:9Z</time></trkpt>
<trkpt lat="48.89429473877" lon="2.8439114093781"><ele>119</ele><time>2026-4-28T22:20:12Z</time></trkpt>
<trkpt lat="48.894187927246" lon="2.8438065052032"><ele>117</ele><time>2026-4-28T22:20:15Z</time></trkpt>
<trkpt lat="48.894088745117" lon="2.8437311649323"><ele>116</ele><time>2026-4-28T22:20:18Z</time></trkpt>
<trkpt lat="48.894088745117" lon="2.8437311649323"><ele>116</ele><time>2026-4-28T22:20:21Z</time></trkpt>
<trkpt lat="48.89395904541" lon="2.8435900211334"><ele>115</ele><time>2026-4-28T22:20:24Z</time></trkpt>
<trkpt lat="48.893924713135" lon="2.8434739112854"><ele>115</ele><time>2026-4-28T22:20:27Z</time></trkpt>
<trkpt lat="48.893905639648" lon="2.843329668045"><ele>118</ele><time>2026-4-28T22:20:30Z</time></trkpt>
<trkpt lat="48.893882751465" lon="2.8431625366211"><ele>118</ele><time>2026-4-28T22:20:33Z</time></trkpt>
<trkpt lat="48.893856048584" lon="2.8429682254791"><ele>117</ele><time>2026-4-28T22:20:36Z</time></trkpt>
<trkpt lat="48.8938331604" lon="2.8427498340607"><ele>116</ele><time>2026-4-28T22:20:39Z</time></trkpt>
<trkpt lat="48.893814086914" lon="2.8425557613373"><ele>116</ele><time>2026-4-28T22:20:42Z</time></trkpt>
<trkpt lat="48.893783569336" lon="2.8423714637756"><ele>116</ele><time>2026-4-28T22:20:45Z</time></trkpt>
<trkpt lat="48.893775939941" lon="2.8421821594238"><ele>116</ele><time>2026-4-28T22:20:48Z</time></trkpt>
<trkpt lat="48.893753051758" lon="2.841995716095"><ele>116</ele><time>2026-4-28T22:20:51Z</time></trkpt>
<trkpt lat="48.893711090088" lon="2.8418002128601"><ele>115</ele><time>2026-4-28T22:20:54Z</time></trkpt>
<trkpt lat="48.89368057251" lon="2.841607093811"><ele>112</ele><time>2026-4-28T22:20:57Z</time></trkpt>
<trkpt lat="48.893630981445" lon="2.8413817882538"><ele>110</ele><time>2026-4-28T22:21:0Z</time></trkpt>
<trkpt lat="48.893577575684" lon="2.8411448001862"><ele>108</ele><time>2026-4-28T22:21:3Z</time></trkpt>
<trkpt lat="48.893501281738" lon="2.840897321701"><ele>109</ele><time>2026-4-28T22:21:6Z</time></trkpt>
<trkpt lat="48.893436431885" lon="2.8406581878662"><ele>109</ele><time>2026-4-28T22:21:9Z</time></trkpt>
<trkpt lat="48.893356323242" lon="2.8404138088226"><ele>110</ele><time>2026-4-28T22:21:12Z</time></trkpt>
<trkpt lat="48.893287658691" lon="2.8401980400085"><ele>110</ele><time>2026-4-28T22:21:15Z</time></trkpt>
<trkpt lat="48.893230438232" lon="2.8400018215179"><ele>111</ele><time>2026-4-28T22:21:18Z</time></trkpt>
<trkpt lat="48.89319229126" lon="2.8398487567902"><ele>111</ele><time>2026-4-28T22:21:21Z</time></trkpt>
<trkpt lat="48.893173217773" lon="2.8397607803345"><ele>111</ele><time>2026-4-28T22:21:24Z</time></trkpt>
<trkpt lat="48.893173217773" lon="2.8397607803345"><ele>111</ele><time>2026-4-28T22:21:27Z</time></trkpt>
<trkpt lat="48.893165588379" lon="2.8396401405334"><ele>110</ele><time>2026-4-28T22:21:30Z</time></trkpt>
<trkpt lat="48.893131256104" lon="2.8395252227783"><ele>110</ele><time>2026-4-28T22:21:33Z</time></trkpt>
<trkpt lat="48.893100738525" lon="2.8393709659576"><ele>109</ele><time>2026-4-28T22:21:36Z</time></trkpt>
<trkpt lat="48.893032073975" lon="2.8390471935272"><ele>107</ele><time>2026-4-28T22:21:39Z</time></trkpt>
<trkpt lat="48.89298248291" lon="2.8388540744781"><ele>106</ele><time>2026-4-28T22:21:42Z</time></trkpt>
<trkpt lat="48.892936706543" lon="2.8386626243591"><ele>103</ele><time>2026-4-28T22:21:45Z</time></trkpt>
<trkpt lat="48.892902374268" lon="2.8384854793549"><ele>101</ele><time>2026-4-28T22:21:48Z</time></trkpt>
<trkpt lat="48.892875671387" lon="2.8383076190948"><ele>99</ele><time>2026-4-28T22:21:51Z</time></trkpt>
<trkpt lat="48.892833709717" lon="2.8381974697113"><ele>99</ele><time>2026-4-28T22:21:54Z</time></trkpt>
<trkpt lat="48.892833709717" lon="2.8381974697113"><ele>99</ele><time>2026-4-28T22:21:57Z</time></trkpt>
<trkpt lat="48.892818450928" lon="2.8380987644196"><ele>99</ele><time>2026-4-28T22:22:0Z</time></trkpt>
<trkpt lat="48.892818450928" lon="2.8380987644196"><ele>99</ele><time>2026-4-28T22:22:3Z</time></trkpt>
<trkpt lat="48.892753601074" lon="2.8380715847015"><ele>98</ele><time>2026-4-28T22:22:6Z</time></trkpt>
<trkpt lat="48.892700195312" lon="2.8381352424622"><ele>98</ele><time>2026-4-28T22:22:9Z</time></trkpt>
<trkpt lat="48.892646789551" lon="2.8382141590118"><ele>98</ele><time>2026-4-28T22:22:12Z</time></trkpt>
<trkpt lat="48.892589569092" lon="2.8382961750031"><ele>97</ele><time>2026-4-28T22:22:15Z</time></trkpt>
<trkpt lat="48.892539978027" lon="2.838365316391"><ele>97</ele><time>2026-4-28T22:22:18Z</time></trkpt>
<trkpt lat="48.892482757568" lon="2.8384394645691"><ele>97</ele><time>2026-4-28T22:22:21Z</time></trkpt>
<trkpt lat="48.892421722412" lon="2.8385119438171"><ele>94</ele><time>2026-4-28T22:22:24Z</time></trkpt>
<trkpt lat="48.892356872559" lon="2.8385925292969"><ele>91</ele><time>2026-4-28T22:22:27Z</time></trkpt>
<trkpt lat="48.892292022705" lon="2.8386943340302"><ele>88</ele><time>2026-4-28T22:22:30Z</time></trkpt>
<trkpt lat="48.892230987549" lon="2.8388016223907"><ele>86</ele><time>2026-4-28T22:22:33Z</time></trkpt>
<trkpt lat="48.89217376709" lon="2.8388934135437"><ele>83</ele><time>2026-4-28T22:22:36Z</time></trkpt>
<trkpt lat="48.892108917236" lon="2.8389949798584"><ele>82</ele><time>2026-4-28T22:22:39Z</time></trkpt>
<trkpt lat="48.89204788208" lon="2.8391046524048"><ele>82</ele><time>2026-4-28T22:22:42Z</time></trkpt>
<trkpt lat="48.891990661621" lon="2.8392052650452"><ele>82</ele><time>2026-4-28T22:22:45Z</time></trkpt>
<trkpt lat="48.891933441162" lon="2.8393001556396"><ele>83</ele><time>2026-4-28T22:22:48Z</time></trkpt>
<trkpt lat="48.8918800354" lon="2.8393874168396"><ele>82</ele><time>2026-4-28T22:22:51Z</time></trkpt>
<trkpt lat="48.891815185547" lon="2.83948802948"><ele>79</ele><time>2026-4-28T22:22:54Z</time></trkpt>
<trkpt lat="48.891757965088" lon="2.8395946025848"><ele>78</ele><time>2026-4-28T22:22:57Z</time></trkpt>
<trkpt lat="48.891696929932" lon="2.8397104740143"><ele>77</ele><time>2026-4-28T22:23:0Z</time></trkpt>
<trkpt lat="48.891632080078" lon="2.8398282527924"><ele>77</ele><time>2026-4-28T22:23:3Z</time></trkpt>
<trkpt lat="48.891563415527" lon="2.8399510383606"><ele>80</ele><time>2026-4-28T22:23:6Z</time></trkpt>
<trkpt lat="48.891506195068" lon="2.8400595188141"><ele>80</ele><time>2026-4-28T22:23:9Z</time></trkpt>
<trkpt lat="48.891445159912" lon="2.8401653766632"><ele>80</ele><time>2026-4-28T22:23:12Z</time></trkpt>
<trkpt lat="48.891380310059" lon="2.8402674198151"><ele>77</ele><time>2026-4-28T22:23:15Z</time></trkpt>
<trkpt lat="48.891304016113" lon="2.8403811454773"><ele>77</ele><time>2026-4-28T22:23:18Z</time></trkpt>
<trkpt lat="48.891242980957" lon="2.840496301651"><ele>79</ele><time>2026-4-28T22:23:21Z</time></trkpt>
<trkpt lat="48.891181945801" lon="2.840610742569"><ele>81</ele><time>2026-4-28T22:23:24Z</time></trkpt>
<trkpt lat="48.891124725342" lon="2.840728521347"><ele>83</ele><time>2026-4-28T22:23:27Z</time></trkpt>
<trkpt lat="48.891067504883" lon="2.8408408164978"><ele>83</ele><time>2026-4-28T22:23:30Z</time></trkpt>
<trkpt lat="48.891010284424" lon="2.8409507274628"><ele>82</ele><time>2026-4-28T22:23:33Z</time></trkpt>
<trkpt lat="48.890949249268" lon="2.8410925865173"><ele>81</ele><time>2026-4-28T22:23:36Z</time></trkpt>
<trkpt lat="48.890892028809" lon="2.8412358760834"><ele>80</ele><time>2026-4-28T22:23:39Z</time></trkpt>
<trkpt lat="48.890827178955" lon="2.8413634300232"><ele>80</ele><time>2026-4-28T22:23:42Z</time></trkpt>
<trkpt lat="48.890758514404" lon="2.8414919376373"><ele>81</ele><time>2026-4-28T22:23:45Z</time></trkpt>
<trkpt lat="48.890689849854" lon="2.8416211605072"><ele>81</ele><time>2026-4-28T22:23:48Z</time></trkpt>
<trkpt lat="48.890621185303" lon="2.8417580127716"><ele>83</ele><time>2026-4-28T22:23:51Z</time></trkpt>
<trkpt lat="48.890567779541" lon="2.8418803215027"><ele>84</ele><time>2026-4-28T22:23:54Z</time></trkpt>
<trkpt lat="48.890522003174" lon="2.8420023918152"><ele>85</ele><time>2026-4-28T22:23:57Z</time></trkpt>
<trkpt lat="48.890476226807" lon="2.8421161174774"><ele>85</ele><time>2026-4-28T22:24:0Z</time></trkpt>
<trkpt lat="48.890422821045" lon="2.842230796814"><ele>86</ele><time>2026-4-28T22:24:3Z</time></trkpt>
<trkpt lat="48.890369415283" lon="2.8423430919647"><ele>88</ele><time>2026-4-28T22:24:6Z</time></trkpt>
<trkpt lat="48.890308380127" lon="2.8424611091614"><ele>88</ele><time>2026-4-28T22:24:9Z</time></trkpt>
<trkpt lat="48.890239715576" lon="2.8425989151001"><ele>87</ele><time>2026-4-28T22:24:12Z</time></trkpt>
<trkpt lat="48.890190124512" lon="2.8427183628082"><ele>88</ele><time>2026-4-28T22:24:15Z</time></trkpt>
<trkpt lat="48.890148162842" lon="2.8428194522858"><ele>89</ele><time>2026-4-28T22:24:18Z</time></trkpt>
<trkpt lat="48.890090942383" lon="2.8429393768311"><ele>89</ele><time>2026-4-28T22:24:21Z</time></trkpt>
<trkpt lat="48.890029907227" lon="2.8430752754211"><ele>90</ele><time>2026-4-28T22:24:24Z</time></trkpt>
<trkpt lat="48.889972686768" lon="2.8432037830353"><ele>91</ele><time>2026-4-28T22:24:27Z</time></trkpt>
<trkpt lat="48.889911651611" lon="2.843337059021"><ele>90</ele><time>2026-4-28T22:24:30Z</time></trkpt>
<trkpt lat="48.88985824585" lon="2.8434472084045"><ele>90</ele><time>2026-4-28T22:24:33Z</time></trkpt>
<trkpt lat="48.889804840088" lon="2.8435490131378"><ele>90</ele><time>2026-4-28T22:24:36Z</time></trkpt>
<trkpt lat="48.889755249023" lon="2.8436379432678"><ele>88</ele><time>2026-4-28T22:24:39Z</time></trkpt>
<trkpt lat="48.889701843262" lon="2.8437402248383"><ele>87</ele><time>2026-4-28T22:24:42Z</time></trkpt>
<trkpt lat="48.889640808105" lon="2.8438475131989"><ele>85</ele><time>2026-4-28T22:24:45Z</time></trkpt>
<trkpt lat="48.889575958252" lon="2.843968629837"><ele>85</ele><time>2026-4-28T22:24:48Z</time></trkpt>
<trkpt lat="48.889511108398" lon="2.8440933227539"><ele>87</ele><time>2026-4-28T22:24:51Z</time></trkpt>
<trkpt lat="48.889453887939" lon="2.8442153930664"><ele>88</ele><time>2026-4-28T22:24:54Z</time></trkpt>
<trkpt lat="48.889385223389" lon="2.8443531990051"><ele>87</ele><time>2026-4-28T22:24:57Z</time></trkpt>
<trkpt lat="48.889331817627" lon="2.8444786071777"><ele>86</ele><time>2026-4-28T22:25:0Z</time></trkpt>
<trkpt lat="48.889270782471" lon="2.8446130752563"><ele>87</ele><time>2026-4-28T22:25:3Z</time></trkpt>
<trkpt lat="48.889205932617" lon="2.8447334766388"><ele>87</ele><time>2026-4-28T22:25:6Z</time></trkpt>
<trkpt lat="48.889133453369" lon="2.844872713089"><ele>88</ele><time>2026-4-28T22:25:9Z</time></trkpt>
<trkpt lat="48.889060974121" lon="2.8450195789337"><ele>90</ele><time>2026-4-28T22:25:12Z</time></trkpt>
<trkpt lat="48.88899230957" lon="2.8451516628265"><ele>91</ele><time>2026-4-28T22:25:15Z</time></trkpt>
<trkpt lat="48.888931274414" lon="2.8452830314636"><ele>93</ele><time>2026-4-28T22:25:18Z</time></trkpt>
<trkpt lat="48.888866424561" lon="2.8454215526581"><ele>94</ele><time>2026-4-28T22:25:21Z</time></trkpt>
<trkpt lat="48.888813018799" lon="2.8455471992493"><ele>93</ele><time>2026-4-28T22:25:24Z</time></trkpt>
<trkpt lat="48.888774871826" lon="2.8456702232361"><ele>92</ele><time>2026-4-28T22:25:27Z</time></trkpt>
<trkpt lat="48.888732910156" lon="2.8458037376404"><ele>91</ele><time>2026-4-28T22:25:30Z</time></trkpt>
<trkpt lat="48.888690948486" lon="2.8459050655365"><ele>91</ele><time>2026-4-28T22:25:33Z</time></trkpt>
<trkpt lat="48.888641357422" lon="2.8460338115692"><ele>92</ele><time>2026-4-28T22:25:36Z</time></trkpt>
<trkpt lat="48.888584136963" lon="2.8461563587189"><ele>92</ele><time>2026-4-28T22:25:39Z</time></trkpt>
<trkpt lat="48.888549804688" lon="2.8462488651276"><ele>92</ele><time>2026-4-28T22:25:42Z</time></trkpt>
<trkpt lat="48.888519287109" lon="2.8463613986969"><ele>92</ele><time>2026-4-28T22:25:45Z</time></trkpt>
<trkpt lat="48.888481140137" lon="2.8464856147766"><ele>92</ele><time>2026-4-28T22:25:48Z</time></trkpt>
<trkpt lat="48.888446807861" lon="2.8465979099274"><ele>92</ele><time>2026-4-28T22:25:51Z</time></trkpt>
<trkpt lat="48.888427734375" lon="2.8467118740082"><ele>92</ele><time>2026-4-28T22:25:54Z</time></trkpt>
<trkpt lat="48.888397216797" lon="2.8468408584595"><ele>91</ele><time>2026-4-28T22:25:57Z</time></trkpt>
<trkpt lat="48.888362884521" lon="2.8469815254211"><ele>91</ele><time>2026-4-28T22:26:0Z</time></trkpt>
<trkpt lat="48.888332366943" lon="2.8471195697784"><ele>91</ele><time>2026-4-28T22:26:3Z</time></trkpt>
<trkpt lat="48.888305664062" lon="2.8472335338593"><ele>91</ele><time>2026-4-28T22:26:6Z</time></trkpt>
<trkpt lat="48.888275146484" lon="2.847359418869"><ele>91</ele><time>2026-4-28T22:26:9Z</time></trkpt>
<trkpt lat="48.888233184814" lon="2.8475034236908"><ele>91</ele><time>2026-4-28T22:26:12Z</time></trkpt>
<trkpt lat="48.888191223145" lon="2.8476464748383"><ele>91</ele><time>2026-4-28T22:26:15Z</time></trkpt>
<trkpt lat="48.888160705566" lon="2.8477704524994"><ele>92</ele><time>2026-4-28T22:26:18Z</time></trkpt>
<trkpt lat="48.888137817383" lon="2.8478634357452"><ele>92</ele><time>2026-4-28T22:26:21Z</time></trkpt>
<trkpt lat="48.88809967041" lon="2.847984790802"><ele>93</ele><time>2026-4-28T22:26:24Z</time></trkpt>
<trkpt lat="48.888061523438" lon="2.8481066226959"><ele>94</ele><time>2026-4-28T22:26:27Z</time></trkpt>
<trkpt lat="48.888027191162" lon="2.8482110500336"><ele>94</ele><time>2026-4-28T22:26:30Z</time></trkpt>
<trkpt lat="48.887996673584" lon="2.8483188152313"><ele>95</ele><time>2026-4-28T22:26:33Z</time></trkpt>
<trkpt lat="48.887962341309" lon="2.8484206199646"><ele>95</ele><time>2026-4-28T22:26:36Z</time></trkpt>
<trkpt lat="48.887928009033" lon="2.8485381603241"><ele>95</ele><time>2026-4-28T22:26:39Z</time></trkpt>
<trkpt lat="48.887886047363" lon="2.8486793041229"><ele>95</ele><time>2026-4-28T22:26:42Z</time></trkpt>
<trkpt lat="48.887851715088" lon="2.8487973213196"><ele>96</ele><time>2026-4-28T22:26:45Z</time></trkpt>
<trkpt lat="48.887828826904" lon="2.8489110469818"><ele>96</ele><time>2026-4-28T22:26:48Z</time></trkpt>
<trkpt lat="48.887805938721" lon="2.8490438461304"><ele>97</ele><time>2026-4-28T22:26:51Z</time></trkpt>
<trkpt lat="48.88777923584" lon="2.8491606712341"><ele>97</ele><time>2026-4-28T22:26:54Z</time></trkpt>
<trkpt lat="48.887752532959" lon="2.8492646217346"><ele>97</ele><time>2026-4-28T22:26:57Z</time></trkpt>
<trkpt lat="48.887729644775" lon="2.8493611812592"><ele>97</ele><time>2026-4-28T22:27:0Z</time></trkpt>
<trkpt lat="48.887699127197" lon="2.8494606018066"><ele>97</ele><time>2026-4-28T22:27:3Z</time></trkpt>
<trkpt lat="48.887672424316" lon="2.8495771884918"><ele>97</ele><time>2026-4-28T22:27:6Z</time></trkpt>
<trkpt lat="48.88765335083" lon="2.8496816158295"><ele>97</ele><time>2026-4-28T22:27:9Z</time></trkpt>
<trkpt lat="48.887638092041" lon="2.8497681617737"><ele>97</ele><time>2026-4-28T22:27:12Z</time></trkpt>
<trkpt lat="48.887619018555" lon="2.8498587608337"><ele>97</ele><time>2026-4-28T22:27:15Z</time></trkpt>
<trkpt lat="48.887619018555" lon="2.8498587608337"><ele>97</ele><time>2026-4-28T22:27:18Z</time></trkpt>
<trkpt lat="48.887580871582" lon="2.8500277996063"><ele>96</ele><time>2026-4-28T22:27:21Z</time></trkpt>
<trkpt lat="48.887554168701" lon="2.850109577179"><ele>96</ele><time>2026-4-28T22:27:24Z</time></trkpt>
<trkpt lat="48.887519836426" lon="2.8502101898193"><ele>96</ele><time>2026-4-28T22:27:27Z</time></trkpt>
<trkpt lat="48.887481689453" lon="2.8503332138062"><ele>95</ele><time>2026-4-28T22:27:30Z</time></trkpt>
<trkpt lat="48.887451171875" lon="2.8504433631897"><ele>95</ele><time>2026-4-28T22:27:33Z</time></trkpt>
<trkpt lat="48.887420654297" lon="2.8505566120148"><ele>94</ele><time>2026-4-28T22:27:36Z</time></trkpt>
<trkpt lat="48.887393951416" lon="2.8506517410278"><ele>94</ele><time>2026-4-28T22:27:39Z</time></trkpt>
<trkpt lat="48.887367248535" lon="2.8507332801819"><ele>94</ele><time>2026-4-28T22:27:42Z</time></trkpt>
<trkpt lat="48.887336730957" lon="2.8508322238922"><ele>94</ele><time>2026-4-28T22:27:45Z</time></trkpt>
<trkpt lat="48.887302398682" lon="2.8509569168091"><ele>94</ele><time>2026-4-28T22:27:48Z</time></trkpt>
<trkpt lat="48.887256622314" lon="2.8511075973511"><ele>92</ele><time>2026-4-28T22:27:51Z</time></trkpt>
<trkpt lat="48.887203216553" lon="2.8513052463531"><ele>92</ele><time>2026-4-28T22:27:54Z</time></trkpt>
<trkpt lat="48.887161254883" lon="2.851491689682"><ele>92</ele><time>2026-4-28T22:27:57Z</time></trkpt>
<trkpt lat="48.88712310791" lon="2.8516564369202"><ele>92</ele><time>2026-4-28T22:28:0Z</time></trkpt>
<trkpt lat="48.88708114624" lon="2.8518364429474"><ele>92</ele><time>2026-4-28T22:28:3Z</time></trkpt>
<trkpt lat="48.887035369873" lon="2.852025270462"><ele>91</ele><time>2026-4-28T22:28:6Z</time></trkpt>
<trkpt lat="48.886974334717" lon="2.8522307872772"><ele>92</ele><time>2026-4-28T22:28:9Z</time></trkpt>
<trkpt lat="48.886905670166" lon="2.852445602417"><ele>92</ele><time>2026-4-28T22:28:12Z</time></trkpt>
<trkpt lat="48.886810302734" lon="2.8526668548584"><ele>93</ele><time>2026-4-28T22:28:15Z</time></trkpt>
<trkpt lat="48.886661529541" lon="2.8531258106232"><ele>90</ele><time>2026-4-28T22:28:18Z</time></trkpt>
<trkpt lat="48.886569976807" lon="2.8533749580383"><ele>88</ele><time>2026-4-28T22:28:21Z</time></trkpt>
<trkpt lat="48.886486053467" lon="2.8535583019257"><ele>87</ele><time>2026-4-28T22:28:24Z</time></trkpt>
<trkpt lat="48.886405944824" lon="2.8537037372589"><ele>87</ele><time>2026-4-28T22:28:27Z</time></trkpt>
<trkpt lat="48.886318206787" lon="2.8538067340851"><ele>88</ele><time>2026-4-28T22:28:30Z</time></trkpt>
<trkpt lat="48.886241912842" lon="2.8538460731506"><ele>88</ele><time>2026-4-28T22:28:33Z</time></trkpt>
<trkpt lat="48.886142730713" lon="2.8538880348206"><ele>87</ele><time>2026-4-28T22:28:36Z</time></trkpt>
<trkpt lat="48.886032104492" lon="2.8539428710938"><ele>87</ele><time>2026-4-28T22:28:39Z</time></trkpt>
<trkpt lat="48.885921478271" lon="2.8539950847626"><ele>88</ele><time>2026-4-28T22:28:42Z</time></trkpt>
<trkpt lat="48.885833740234" lon="2.8540363311768"><ele>88</ele><time>2026-4-28T22:28:45Z</time></trkpt>
<trkpt lat="48.885734558105" lon="2.8540892601013"><ele>88</ele><time>2026-4-28T22:28:48Z</time></trkpt>
<trkpt lat="48.885623931885" lon="2.8541376590729"><ele>88</ele><time>2026-4-28T22:28:51Z</time></trkpt>
<trkpt lat="48.885494232178" lon="2.8541853427887"><ele>86</ele><time>2026-4-28T22:28:54Z</time></trkpt>
<trkpt lat="48.885364532471" lon="2.8542232513428"><ele>86</ele><time>2026-4-28T22:28:57Z</time></trkpt>
<trkpt lat="48.885250091553" lon="2.8542196750641"><ele>87</ele><time>2026-4-28T22:29:0Z</time></trkpt>
<trkpt lat="48.885139465332" lon="2.8542010784149"><ele>88</ele><time>2026-4-28T22:29:3Z</time></trkpt>
<trkpt lat="48.885028839111" lon="2.8541915416718"><ele>90</ele><time>2026-4-28T22:29:6Z</time></trkpt>
<trkpt lat="48.884914398193" lon="2.8541979789734"><ele>91</ele><time>2026-4-28T22:29:9Z</time></trkpt>
<trkpt lat="48.884796142578" lon="2.854199886322"><ele>91</ele><time>2026-4-28T22:29:12Z</time></trkpt>
<trkpt lat="48.884677886963" lon="2.8541946411133"><ele>90</ele><time>2026-4-28T22:29:15Z</time></trkpt>
<trkpt lat="48.884540557861" lon="2.8542146682739"><ele>90</ele><time>2026-4-28T22:29:18Z</time></trkpt>
<trkpt lat="48.884414672852" lon="2.8542518615723"><ele>90</ele><time>2026-4-28T22:29:21Z</time></trkpt>
<trkpt lat="48.88431930542" lon="2.8542835712433"><ele>89</ele><time>2026-4-28T22:29:24Z</time></trkpt>
<trkpt lat="48.884239196777" lon="2.8543217182159"><ele>86</ele><time>2026-4-28T22:29:27Z</time></trkpt>
<trkpt lat="48.884159088135" lon="2.8543801307678"><ele>84</ele><time>2026-4-28T22:29:30Z</time></trkpt>
<trkpt lat="48.884078979492" lon="2.854455947876"><ele>84</ele><time>2026-4-28T22:29:33Z</time></trkpt>
<trkpt lat="48.884021759033" lon="2.8545207977295"><ele>84</ele><time>2026-4-28T22:29:36Z</time></trkpt>
<trkpt lat="48.884021759033" lon="2.8545207977295"><ele>84</ele><time>2026-4-28T22:29:39Z</time></trkpt>
<trkpt lat="48.883983612061" lon="2.8545866012573"><ele>84</ele><time>2026-4-28T22:29:42Z</time></trkpt>
<trkpt lat="48.88391494751" lon="2.8544840812683"><ele>84</ele><time>2026-4-28T22:29:45Z</time></trkpt>
<trkpt lat="48.883888244629" lon="2.8543922901154"><ele>84</ele><time>2026-4-28T22:29:48Z</time></trkpt>
<trkpt lat="48.883857727051" lon="2.8542895317078"><ele>84</ele><time>2026-4-28T22:29:51Z</time></trkpt>
<trkpt lat="48.883819580078" lon="2.854159116745"><ele>85</ele><time>2026-4-28T22:29:54Z</time></trkpt>
<trkpt lat="48.883781433105" lon="2.8540134429932"><ele>86</ele><time>2026-4-28T22:29:57Z</time></trkpt>
<trkpt lat="48.883750915527" lon="2.8538999557495"><ele>86</ele><time>2026-4-28T22:30:0Z</time></trkpt>
<trkpt lat="48.883720397949" lon="2.8538026809692"><ele>87</ele><time>2026-4-28T22:30:3Z</time></trkpt>
<trkpt lat="48.883720397949" lon="2.8538026809692"><ele>87</ele><time>2026-4-28T22:30:6Z</time></trkpt>
<trkpt lat="48.883655548096" lon="2.8537304401398"><ele>88</ele><time>2026-4-28T22:30:9Z</time></trkpt>
<trkpt lat="48.883655548096" lon="2.8537304401398"><ele>88</ele><time>2026-4-28T22:30:12Z</time></trkpt>
<trkpt lat="48.883514404297" lon="2.8538548946381"><ele>88</ele><time>2026-4-28T22:30:15Z</time></trkpt>
<trkpt lat="48.883449554443" lon="2.8539168834686"><ele>88</ele><time>2026-4-28T22:30:18Z</time></trkpt>
<trkpt lat="48.883380889893" lon="2.8539803028107"><ele>88</ele><time>2026-4-28T22:30:21Z</time></trkpt>
<trkpt lat="48.883277893066" lon="2.8540589809418"><ele>87</ele><time>2026-4-28T22:30:24Z</time></trkpt>
<trkpt lat="48.883197784424" lon="2.8541181087494"><ele>87</ele><time>2026-4-28T22:30:27Z</time></trkpt>
<trkpt lat="48.883125305176" lon="2.8541805744171"><ele>87</ele><time>2026-4-28T22:30:30Z</time></trkpt>
<trkpt lat="48.88304901123" lon="2.8542573451996"><ele>87</ele><time>2026-4-28T22:30:33Z</time></trkpt>
<trkpt lat="48.882972717285" lon="2.8543419837952"><ele>88</ele><time>2026-4-28T22:30:36Z</time></trkpt>
<trkpt lat="48.882900238037" lon="2.8544316291809"><ele>88</ele><time>2026-4-28T22:30:39Z</time></trkpt>
<trkpt lat="48.882831573486" lon="2.8545196056366"><ele>88</ele><time>2026-4-28T22:30:42Z</time></trkpt>
<trkpt lat="48.882762908936" lon="2.8545827865601"><ele>88</ele><time>2026-4-28T22:30:45Z</time></trkpt>
<trkpt lat="48.882690429688" lon="2.8546314239502"><ele>86</ele><time>2026-4-28T22:30:48Z</time></trkpt>
<trkpt lat="48.882591247559" lon="2.8546843528748"><ele>86</ele><time>2026-4-28T22:30:51Z</time></trkpt>
<trkpt lat="48.882484436035" lon="2.8547422885895"><ele>86</ele><time>2026-4-28T22:30:54Z</time></trkpt>
<trkpt lat="48.882392883301" lon="2.8547947406769"><ele>86</ele><time>2026-4-28T22:30:57Z</time></trkpt>
<trkpt lat="48.882293701172" lon="2.8548555374146"><ele>87</ele><time>2026-4-28T22:31:0Z</time></trkpt>
<trkpt lat="48.88219833374" lon="2.8549177646637"><ele>88</ele><time>2026-4-28T22:31:3Z</time></trkpt>
<trkpt lat="48.882118225098" lon="2.8549704551697"><ele>87</ele><time>2026-4-28T22:31:6Z</time></trkpt>
<trkpt lat="48.882034301758" lon="2.8550329208374"><ele>87</ele><time>2026-4-28T22:31:9Z</time></trkpt>
<trkpt lat="48.881938934326" lon="2.8551003932953"><ele>87</ele><time>2026-4-28T22:31:12Z</time></trkpt>
<trkpt lat="48.881847381592" lon="2.8551659584045"><ele>88</ele><time>2026-4-28T22:31:15Z</time></trkpt>
<trkpt lat="48.881744384766" lon="2.8552372455597"><ele>89</ele><time>2026-4-28T22:31:18Z</time></trkpt>
<trkpt lat="48.881652832031" lon="2.855309009552"><ele>89</ele><time>2026-4-28T22:31:21Z</time></trkpt>
<trkpt lat="48.881568908691" lon="2.8553786277771"><ele>90</ele><time>2026-4-28T22:31:24Z</time></trkpt>
<trkpt lat="48.881492614746" lon="2.8554408550262"><ele>91</ele><time>2026-4-28T22:31:27Z</time></trkpt>
<trkpt lat="48.881420135498" lon="2.8554992675781"><ele>91</ele><time>2026-4-28T22:31:30Z</time></trkpt>
<trkpt lat="48.881332397461" lon="2.8555715084076"><ele>91</ele><time>2026-4-28T22:31:33Z</time></trkpt>
<trkpt lat="48.881233215332" lon="2.8556294441223"><ele>89</ele><time>2026-4-28T22:31:36Z</time></trkpt>
<trkpt lat="48.881134033203" lon="2.8556842803955"><ele>89</ele><time>2026-4-28T22:31:39Z</time></trkpt>
<trkpt lat="48.881038665771" lon="2.8557453155518"><ele>87</ele><time>2026-4-28T22:31:42Z</time></trkpt>
<trkpt lat="48.880924224854" lon="2.8558065891266"><ele>86</ele><time>2026-4-28T22:31:45Z</time></trkpt>
<trkpt lat="48.880805969238" lon="2.8558650016785"><ele>86</ele><time>2026-4-28T22:31:48Z</time></trkpt>
<trkpt lat="48.880699157715" lon="2.855936050415"><ele>87</ele><time>2026-4-28T22:31:51Z</time></trkpt>
<trkpt lat="48.880596160889" lon="2.8560237884521"><ele>88</ele><time>2026-4-28T22:31:54Z</time></trkpt>
<trkpt lat="48.880504608154" lon="2.8561110496521"><ele>89</ele><time>2026-4-28T22:31:57Z</time></trkpt>
<trkpt lat="48.880405426025" lon="2.8562028408051"><ele>89</ele><time>2026-4-28T22:32:0Z</time></trkpt>
<trkpt lat="48.880302429199" lon="2.8562917709351"><ele>88</ele><time>2026-4-28T22:32:3Z</time></trkpt>
<trkpt lat="48.880191802979" lon="2.8563687801361"><ele>88</ele><time>2026-4-28T22:32:6Z</time></trkpt>
<trkpt lat="48.880084991455" lon="2.8564269542694"><ele>87</ele><time>2026-4-28T22:32:9Z</time></trkpt>
<trkpt lat="48.879978179932" lon="2.8564836978912"><ele>87</ele><time>2026-4-28T22:32:12Z</time></trkpt>
<trkpt lat="48.879863739014" lon="2.8565430641174"><ele>87</ele><time>2026-4-28T22:32:15Z</time></trkpt>
<trkpt lat="48.879768371582" lon="2.8565955162048"><ele>88</ele><time>2026-4-28T22:32:18Z</time></trkpt>
<trkpt lat="48.879650115967" lon="2.8566629886627"><ele>89</ele><time>2026-4-28T22:32:21Z</time></trkpt>
<trkpt lat="48.879543304443" lon="2.8567311763763"><ele>92</ele><time>2026-4-28T22:32:24Z</time></trkpt>
<trkpt lat="48.879455566406" lon="2.8567924499512"><ele>95</ele><time>2026-4-28T22:32:27Z</time></trkpt>
<trkpt lat="48.879337310791" lon="2.856867313385"><ele>94</ele><time>2026-4-28T22:32:30Z</time></trkpt>
<trkpt lat="48.879222869873" lon="2.8569359779358"><ele>93</ele><time>2026-4-28T22:32:33Z</time></trkpt>
<trkpt lat="48.879104614258" lon="2.8570094108582"><ele>92</ele><time>2026-4-28T22:32:36Z</time></trkpt>
<trkpt lat="48.879013061523" lon="2.8570625782013"><ele>92</ele><time>2026-4-28T22:32:39Z</time></trkpt>
<trkpt lat="48.878925323486" lon="2.8571209907532"><ele>91</ele><time>2026-4-28T22:32:42Z</time></trkpt>
<trkpt lat="48.878833770752" lon="2.8571834564209"><ele>90</ele><time>2026-4-28T22:32:45Z</time></trkpt>
<trkpt lat="48.878734588623" lon="2.857253074646"><ele>90</ele><time>2026-4-28T22:32:48Z</time></trkpt>
<trkpt lat="48.878631591797" lon="2.8573462963104"><ele>90</ele><time>2026-4-28T22:32:51Z</time></trkpt>
<trkpt lat="48.878547668457" lon="2.8574318885803"><ele>90</ele><time>2026-4-28T22:32:54Z</time></trkpt>
<trkpt lat="48.878467559814" lon="2.8575305938721"><ele>90</ele><time>2026-4-28T22:32:57Z</time></trkpt>
<trkpt lat="48.878395080566" lon="2.8576245307922"><ele>90</ele><time>2026-4-28T22:33:0Z</time></trkpt>
<trkpt lat="48.878322601318" lon="2.8577153682709"><ele>89</ele><time>2026-4-28T22:33:3Z</time></trkpt>
<trkpt lat="48.878257751465" lon="2.8577904701233"><ele>89</ele><time>2026-4-28T22:33:6Z</time></trkpt>
<trkpt lat="48.878192901611" lon="2.8578543663025"><ele>88</ele><time>2026-4-28T22:33:9Z</time></trkpt>
<trkpt lat="48.878135681152" lon="2.8578975200653"><ele>87</ele><time>2026-4-28T22:33:12Z</time></trkpt>
<trkpt lat="48.878059387207" lon="2.8579456806183"><ele>87</ele><time>2026-4-28T22:33:15Z</time></trkpt>
<trkpt lat="48.877994537354" lon="2.8579750061035"><ele>87</ele><time>2026-4-28T22:33:18Z</time></trkpt>
<trkpt lat="48.877902984619" lon="2.8580017089844"><ele>87</ele><time>2026-4-28T22:33:21Z</time></trkpt>
<trkpt lat="48.877811431885" lon="2.8580267429352"><ele>87</ele><time>2026-4-28T22:33:24Z</time></trkpt>
<trkpt lat="48.877727508545" lon="2.8580408096313"><ele>87</ele><time>2026-4-28T22:33:27Z</time></trkpt>
<trkpt lat="48.877643585205" lon="2.8580617904663"><ele>87</ele><time>2026-4-28T22:33:30Z</time></trkpt>
<trkpt lat="48.877574920654" lon="2.8580811023712"><ele>87</ele><time>2026-4-28T22:33:33Z</time></trkpt>
<trkpt lat="48.87748336792" lon="2.8581056594849"><ele>88</ele><time>2026-4-28T22:33:36Z</time></trkpt>
<trkpt lat="48.877388000488" lon="2.8581328392029"><ele>88</ele><time>2026-4-28T22:33:39Z</time></trkpt>
<trkpt lat="48.877262115479" lon="2.8581867218018"><ele>88</ele><time>2026-4-28T22:33:42Z</time></trkpt>
<trkpt lat="48.87716293335" lon="2.8582270145416"><ele>87</ele><time>2026-4-28T22:33:45Z</time></trkpt>
<trkpt lat="48.877056121826" lon="2.8582680225372"><ele>86</ele><time>2026-4-28T22:33:48Z</time></trkpt>
<trkpt lat="48.876964569092" lon="2.8583285808563"><ele>84</ele><time>2026-4-28T22:33:51Z</time></trkpt>
<trkpt lat="48.876865386963" lon="2.8583762645721"><ele>83</ele><time>2026-4-28T22:33:54Z</time></trkpt>
<trkpt lat="48.876766204834" lon="2.8584327697754"><ele>82</ele><time>2026-4-28T22:33:57Z</time></trkpt>
<trkpt lat="48.876670837402" lon="2.8585147857666"><ele>84</ele><time>2026-4-28T22:34:0Z</time></trkpt>
<trkpt lat="48.876583099365" lon="2.8585767745972"><ele>87</ele><time>2026-4-28T22:34:3Z</time></trkpt>
<trkpt lat="48.876510620117" lon="2.8586394786835"><ele>88</ele><time>2026-4-28T22:34:6Z</time></trkpt>
<trkpt lat="48.876426696777" lon="2.8587131500244"><ele>89</ele><time>2026-4-28T22:34:9Z</time></trkpt>
<trkpt lat="48.876350402832" lon="2.8587870597839"><ele>89</ele><time>2026-4-28T22:34:12Z</time></trkpt>
<trkpt lat="48.876258850098" lon="2.8588674068451"><ele>90</ele><time>2026-4-28T22:34:15Z</time></trkpt>
<trkpt lat="48.876159667969" lon="2.8589477539062"><ele>91</ele><time>2026-4-28T22:34:18Z</time></trkpt>
<trkpt lat="48.876075744629" lon="2.8590388298035"><ele>92</ele><time>2026-4-28T22:34:21Z</time></trkpt>
<trkpt lat="48.875995635986" lon="2.8591458797455"><ele>93</ele><time>2026-4-28T22:34:24Z</time></trkpt>
<trkpt lat="48.875923156738" lon="2.8592472076416"><ele>93</ele><time>2026-4-28T22:34:27Z</time></trkpt>
<trkpt lat="48.875858306885" lon="2.859335899353"><ele>92</ele><time>2026-4-28T22:34:30Z</time></trkpt>
<trkpt lat="48.875782012939" lon="2.8594346046448"><ele>91</ele><time>2026-4-28T22:34:33Z</time></trkpt>
<trkpt lat="48.875701904297" lon="2.8595278263092"><ele>91</ele><time>2026-4-28T22:34:36Z</time></trkpt>
<trkpt lat="48.875602722168" lon="2.8596334457397"><ele>91</ele><time>2026-4-28T22:34:39Z</time></trkpt>
<trkpt lat="48.875537872314" lon="2.8597309589386"><ele>91</ele><time>2026-4-28T22:34:42Z</time></trkpt>
<trkpt lat="48.875461578369" lon="2.8598389625549"><ele>92</ele><time>2026-4-28T22:34:45Z</time></trkpt>
<trkpt lat="48.875377655029" lon="2.85995054245"><ele>91</ele><time>2026-4-28T22:34:48Z</time></trkpt>
<trkpt lat="48.875301361084" lon="2.860044002533"><ele>91</ele><time>2026-4-28T22:34:51Z</time></trkpt>
<trkpt lat="48.875225067139" lon="2.8601493835449"><ele>91</ele><time>2026-4-28T22:34:54Z</time></trkpt>
<trkpt lat="48.875152587891" lon="2.8602695465088"><ele>91</ele><time>2026-4-28T22:34:57Z</time></trkpt>
<trkpt lat="48.875076293945" lon="2.8603804111481"><ele>91</ele><time>2026-4-28T22:35:0Z</time></trkpt>
<trkpt lat="48.875007629395" lon="2.8604912757874"><ele>90</ele><time>2026-4-28T22:35:3Z</time></trkpt>
<trkpt lat="48.874938964844" lon="2.8605997562408"><ele>88</ele><time>2026-4-28T22:35:6Z</time></trkpt>
<trkpt lat="48.874862670898" lon="2.8607189655304"><ele>88</ele><time>2026-4-28T22:35:9Z</time></trkpt>
<trkpt lat="48.874778747559" lon="2.8608548641205"><ele>87</ele><time>2026-4-28T22:35:12Z</time></trkpt>
<trkpt lat="48.874713897705" lon="2.8609871864319"><ele>86</ele><time>2026-4-28T22:35:15Z</time></trkpt>
<trkpt lat="48.874660491943" lon="2.8611543178558"><ele>88</ele><time>2026-4-28T22:35:18Z</time></trkpt>
<trkpt lat="48.874614715576" lon="2.8612995147705"><ele>88</ele><time>2026-4-28T22:35:21Z</time></trkpt>
<trkpt lat="48.874572753906" lon="2.8614320755005"><ele>88</ele><time>2026-4-28T22:35:24Z</time></trkpt>
<trkpt lat="48.874530792236" lon="2.8615412712097"><ele>89</ele><time>2026-4-28T22:35:27Z</time></trkpt>
<trkpt lat="48.874473571777" lon="2.8616299629211"><ele>90</ele><time>2026-4-28T22:35:30Z</time></trkpt>
<trkpt lat="48.874389648438" lon="2.8616790771484"><ele>91</ele><time>2026-4-28T22:35:33Z</time></trkpt>
<trkpt lat="48.87427520752" lon="2.8616678714752"><ele>93</ele><time>2026-4-28T22:35:36Z</time></trkpt>
<trkpt lat="48.874198913574" lon="2.8615946769714"><ele>93</ele><time>2026-4-28T22:35:39Z</time></trkpt>
<trkpt lat="48.874153137207" lon="2.8615193367004"><ele>93</ele><time>2026-4-28T22:35:42Z</time></trkpt>
<trkpt lat="48.874153137207" lon="2.8615193367004"><ele>93</ele><time>2026-4-28T22:35:45Z</time></trkpt>
<trkpt lat="48.874103546143" lon="2.8614354133606"><ele>93</ele><time>2026-4-28T22:35:48Z</time></trkpt>
<trkpt lat="48.874145507812" lon="2.8613588809967"><ele>93</ele><time>2026-4-28T22:35:51Z</time></trkpt>
<trkpt lat="48.874252319336" lon="2.8612561225891"><ele>93</ele><time>2026-4-28T22:35:54Z</time></trkpt>
<trkpt lat="48.8743019104" lon="2.8611946105957"><ele>93</ele><time>2026-4-28T22:35:57Z</time></trkpt>
<trkpt lat="48.874355316162" lon="2.861118555069"><ele>93</ele><time>2026-4-28T22:36:0Z</time></trkpt>
<trkpt lat="48.874404907227" lon="2.8610076904297"><ele>93</ele><time>2026-4-28T22:36:3Z</time></trkpt>
<trkpt lat="48.874446868896" lon="2.8609075546265"><ele>93</ele><time>2026-4-28T22:36:6Z</time></trkpt>
<trkpt lat="48.874492645264" lon="2.8608043193817"><ele>93</ele><time>2026-4-28T22:36:9Z</time></trkpt>
<trkpt lat="48.874561309814" lon="2.860698223114"><ele>95</ele><time>2026-4-28T22:36:12Z</time></trkpt>
<trkpt lat="48.874626159668" lon="2.8606085777283"><ele>97</ele><time>2026-4-28T22:36:15Z</time></trkpt>
<trkpt lat="48.87467956543" lon="2.8605148792267"><ele>99</ele><time>2026-4-28T22:36:18Z</time></trkpt>
<trkpt lat="48.874740600586" lon="2.8604102134705"><ele>100</ele><time>2026-4-28T22:36:21Z</time></trkpt>
<trkpt lat="48.874801635742" lon="2.8603098392487"><ele>102</ele><time>2026-4-28T22:36:24Z</time></trkpt>
<trkpt lat="48.874851226807" lon="2.8602006435394"><ele>103</ele><time>2026-4-28T22:36:27Z</time></trkpt>
<trkpt lat="48.874897003174" lon="2.8601088523865"><ele>103</ele><time>2026-4-28T22:36:30Z</time></trkpt>
<trkpt lat="48.874969482422" lon="2.85999751091"><ele>103</ele><time>2026-4-28T22:36:33Z</time></trkpt>
<trkpt lat="48.87504196167" lon="2.8599021434784"><ele>105</ele><time>2026-4-28T22:36:36Z</time></trkpt>
<trkpt lat="48.875102996826" lon="2.8598175048828"><ele>106</ele><time>2026-4-28T22:36:39Z</time></trkpt>
<trkpt lat="48.875171661377" lon="2.8597230911255"><ele>106</ele><time>2026-4-28T22:36:42Z</time></trkpt>
<trkpt lat="48.875244140625" lon="2.8596215248108"><ele>105</ele><time>2026-4-28T22:36:45Z</time></trkpt>
<trkpt lat="48.875308990479" lon="2.8595414161682"><ele>104</ele><time>2026-4-28T22:36:48Z</time></trkpt>
<trkpt lat="48.875373840332" lon="2.8594517707825"><ele>104</ele><time>2026-4-28T22:36:51Z</time></trkpt>
<trkpt lat="48.875434875488" lon="2.8593628406525"><ele>103</ele><time>2026-4-28T22:36:54Z</time></trkpt>
<trkpt lat="48.875503540039" lon="2.8592624664307"><ele>103</ele><time>2026-4-28T22:36:57Z</time></trkpt>
<trkpt lat="48.875579833984" lon="2.8591687679291"><ele>102</ele><time>2026-4-28T22:37:0Z</time></trkpt>
<trkpt lat="48.875652313232" lon="2.8590769767761"><ele>101</ele><time>2026-4-28T22:37:3Z</time></trkpt>
<trkpt lat="48.875713348389" lon="2.8589873313904"><ele>98</ele><time>2026-4-28T22:37:6Z</time></trkpt>
<trkpt lat="48.875782012939" lon="2.8588922023773"><ele>97</ele><time>2026-4-28T22:37:9Z</time></trkpt>
<trkpt lat="48.87585067749" lon="2.8588056564331"><ele>99</ele><time>2026-4-28T22:37:12Z</time></trkpt>
<trkpt lat="48.875930786133" lon="2.8587303161621"><ele>98</ele><time>2026-4-28T22:37:15Z</time></trkpt>
<trkpt lat="48.876010894775" lon="2.8586580753326"><ele>98</ele><time>2026-4-28T22:37:18Z</time></trkpt>
<trkpt lat="48.876083374023" lon="2.8585624694824"><ele>98</ele><time>2026-4-28T22:37:21Z</time></trkpt>
<trkpt lat="48.876171112061" lon="2.8584666252136"><ele>98</ele><time>2026-4-28T22:37:24Z</time></trkpt>
<trkpt lat="48.876258850098" lon="2.8583488464355"><ele>98</ele><time>2026-4-28T22:37:27Z</time></trkpt>
<trkpt lat="48.876354217529" lon="2.8582508563995"><ele>99</ele><time>2026-4-28T22:37:30Z</time></trkpt>
<trkpt lat="48.876468658447" lon="2.8581659793854"><ele>100</ele><time>2026-4-28T22:37:33Z</time></trkpt>
<trkpt lat="48.876594543457" lon="2.8581094741821"><ele>99</ele><time>2026-4-28T22:37:36Z</time></trkpt>
<trkpt lat="48.87671661377" lon="2.8580231666565"><ele>99</ele><time>2026-4-28T22:37:39Z</time></trkpt>
<trkpt lat="48.876834869385" lon="2.8579304218292"><ele>100</ele><time>2026-4-28T22:37:42Z</time></trkpt>
<trkpt lat="48.876964569092" lon="2.8578653335571"><ele>100</ele><time>2026-4-28T22:37:45Z</time></trkpt>
<trkpt lat="48.877094268799" lon="2.8578159809113"><ele>98</ele><time>2026-4-28T22:37:48Z</time></trkpt>
<trkpt lat="48.877220153809" lon="2.8577699661255"><ele>97</ele><time>2026-4-28T22:37:51Z</time></trkpt>
<trkpt lat="48.877342224121" lon="2.8576934337616"><ele>96</ele><time>2026-4-28T22:37:54Z</time></trkpt>
<trkpt lat="48.877460479736" lon="2.8576221466064"><ele>97</ele><time>2026-4-28T22:37:57Z</time></trkpt>
<trkpt lat="48.877597808838" lon="2.8575367927551"><ele>96</ele><time>2026-4-28T22:38:0Z</time></trkpt>
<trkpt lat="48.877716064453" lon="2.8574471473694"><ele>95</ele><time>2026-4-28T22:38:3Z</time></trkpt>
<trkpt lat="48.877830505371" lon="2.857349395752"><ele>94</ele><time>2026-4-28T22:38:6Z</time></trkpt>
<trkpt lat="48.877941131592" lon="2.8572635650635"><ele>94</ele><time>2026-4-28T22:38:9Z</time></trkpt>
<trkpt lat="48.87805557251" lon="2.8571801185608"><ele>94</ele><time>2026-4-28T22:38:12Z</time></trkpt>
<trkpt lat="48.87816619873" lon="2.8571093082428"><ele>93</ele><time>2026-4-28T22:38:15Z</time></trkpt>
<trkpt lat="48.878257751465" lon="2.8570280075073"><ele>93</ele><time>2026-4-28T22:38:18Z</time></trkpt>
<trkpt lat="48.878345489502" lon="2.8569178581238"><ele>92</ele><time>2026-4-28T22:38:21Z</time></trkpt>
<trkpt lat="48.878425598145" lon="2.856760263443"><ele>90</ele><time>2026-4-28T22:38:24Z</time></trkpt>
<trkpt lat="48.878486633301" lon="2.8566272258759"><ele>91</ele><time>2026-4-28T22:38:27Z</time></trkpt>
<trkpt lat="48.878555297852" lon="2.8564827442169"><ele>92</ele><time>2026-4-28T22:38:30Z</time></trkpt>
<trkpt lat="48.8786277771" lon="2.8563363552094"><ele>92</ele><time>2026-4-28T22:38:33Z</time></trkpt>
<trkpt lat="48.878700256348" lon="2.856189250946"><ele>91</ele><time>2026-4-28T22:38:36Z</time></trkpt>
<trkpt lat="48.878749847412" lon="2.8560843467712"><ele>91</ele><time>2026-4-28T22:38:39Z</time></trkpt>
<trkpt lat="48.878757476807" lon="2.8559241294861"><ele>91</ele><time>2026-4-28T22:38:42Z</time></trkpt>
<trkpt lat="48.878681182861" lon="2.8557629585266"><ele>92</ele><time>2026-4-28T22:38:45Z</time></trkpt>
<trkpt lat="48.878566741943" lon="2.8556241989136"><ele>93</ele><time>2026-4-28T22:38:48Z</time></trkpt>
<trkpt lat="48.878463745117" lon="2.8555154800415"><ele>94</ele><time>2026-4-28T22:38:51Z</time></trkpt>
<trkpt lat="48.878364562988" lon="2.8554134368896"><ele>94</ele><time>2026-4-28T22:38:54Z</time></trkpt>
<trkpt lat="48.878269195557" lon="2.8553218841553"><ele>93</ele><time>2026-4-28T22:38:57Z</time></trkpt>
<trkpt lat="48.878196716309" lon="2.8552548885345"><ele>93</ele><time>2026-4-28T22:39:0Z</time></trkpt>
<trkpt lat="48.878196716309" lon="2.8552548885345"><ele>93</ele><time>2026-4-28T22:39:3Z</time></trkpt>
<trkpt lat="48.878143310547" lon="2.8552043437958"><ele>93</ele><time>2026-4-28T22:39:6Z</time></trkpt>
<trkpt lat="48.878143310547" lon="2.8552043437958"><ele>93</ele><time>2026-4-28T22:39:9Z</time></trkpt>
</trkseg></trk></gpx>